<?xml version="1.0" encoding="UTF-8" standalone="no" ?>
<gpx xmlns="http://www.topografix.com/GPX/1/1" xmlns:xsi="http://www.w3.org/2001/XMLSchema-instance" xsi:schemaLocation="http://www.topografix.com/GPX/1/1 http://www.topografix.com/GPX/1/1/gpx.xsd" version="1.1" creator="VisuGPX - https://www.visugpx.com">
  <metadata>
    <name>la sine 10 janvier</name>
    <desc><![CDATA[sortie VTT a Vence bois de la Sine]]></desc>
  </metadata>
  <wpt lat="43.71332" lon="7.08807">
    <ele>375</ele>
    <name><![CDATA[sine]]></name>
    <desc><![CDATA[Coords: 43.71332, 7.088069
Elevation: 375 m
Time: 10 janv. 2015 10:58:04]]></desc>
  </wpt>
  <trk>
    <name><![CDATA[10 janv. 2015 09:01:28]]></name>
    <trkseg>
      <trkpt lat="43.71354" lon="7.08787">
        <ele>379</ele>
        <time>2015-01-10T08:02:05.00Z</time>
      </trkpt>
      <trkpt lat="43.71345" lon="7.08791">
        <ele>369</ele>
        <time>2015-01-10T08:02:54.00Z</time>
      </trkpt>
      <trkpt lat="43.71335" lon="7.08789">
        <ele>372</ele>
        <time>2015-01-10T08:03:00.00Z</time>
      </trkpt>
      <trkpt lat="43.71326" lon="7.08792">
        <ele>373</ele>
        <time>2015-01-10T08:03:04.00Z</time>
      </trkpt>
      <trkpt lat="43.71316" lon="7.08798">
        <ele>375</ele>
        <time>2015-01-10T08:03:08.00Z</time>
      </trkpt>
      <trkpt lat="43.71304" lon="7.08802">
        <ele>376</ele>
        <time>2015-01-10T08:03:12.00Z</time>
      </trkpt>
      <trkpt lat="43.71294" lon="7.08808">
        <ele>378</ele>
        <time>2015-01-10T08:03:16.00Z</time>
      </trkpt>
      <trkpt lat="43.71283" lon="7.08816">
        <ele>379</ele>
        <time>2015-01-10T08:03:20.00Z</time>
      </trkpt>
      <trkpt lat="43.71275" lon="7.08822">
        <ele>380</ele>
        <time>2015-01-10T08:03:23.00Z</time>
      </trkpt>
      <trkpt lat="43.71266" lon="7.0883">
        <ele>380</ele>
        <time>2015-01-10T08:03:26.00Z</time>
      </trkpt>
      <trkpt lat="43.7126" lon="7.08844">
        <ele>382</ele>
        <time>2015-01-10T08:03:29.00Z</time>
      </trkpt>
      <trkpt lat="43.71253" lon="7.08857">
        <ele>382</ele>
        <time>2015-01-10T08:03:32.00Z</time>
      </trkpt>
      <trkpt lat="43.71247" lon="7.08872">
        <ele>383</ele>
        <time>2015-01-10T08:03:35.00Z</time>
      </trkpt>
      <trkpt lat="43.71239" lon="7.08886">
        <ele>384</ele>
        <time>2015-01-10T08:03:38.00Z</time>
      </trkpt>
      <trkpt lat="43.71232" lon="7.08898">
        <ele>387</ele>
        <time>2015-01-10T08:03:41.00Z</time>
      </trkpt>
      <trkpt lat="43.71223" lon="7.08906">
        <ele>388</ele>
        <time>2015-01-10T08:03:44.00Z</time>
      </trkpt>
      <trkpt lat="43.71216" lon="7.08917">
        <ele>389</ele>
        <time>2015-01-10T08:03:47.00Z</time>
      </trkpt>
      <trkpt lat="43.7121" lon="7.08907">
        <ele>390</ele>
        <time>2015-01-10T08:03:55.00Z</time>
      </trkpt>
      <trkpt lat="43.71196" lon="7.08914">
        <ele>389</ele>
        <time>2015-01-10T08:04:00.00Z</time>
      </trkpt>
      <trkpt lat="43.71187" lon="7.08917">
        <ele>392</ele>
        <time>2015-01-10T08:04:04.00Z</time>
      </trkpt>
      <trkpt lat="43.71178" lon="7.08923">
        <ele>392</ele>
        <time>2015-01-10T08:04:08.00Z</time>
      </trkpt>
      <trkpt lat="43.71172" lon="7.08935">
        <ele>393</ele>
        <time>2015-01-10T08:04:12.00Z</time>
      </trkpt>
      <trkpt lat="43.71162" lon="7.08938">
        <ele>395</ele>
        <time>2015-01-10T08:04:16.00Z</time>
      </trkpt>
      <trkpt lat="43.71153" lon="7.08928">
        <ele>394</ele>
        <time>2015-01-10T08:04:20.00Z</time>
      </trkpt>
      <trkpt lat="43.71143" lon="7.08924">
        <ele>392</ele>
        <time>2015-01-10T08:04:23.00Z</time>
      </trkpt>
      <trkpt lat="43.71133" lon="7.08927">
        <ele>391</ele>
        <time>2015-01-10T08:04:26.00Z</time>
      </trkpt>
      <trkpt lat="43.71124" lon="7.08928">
        <ele>391</ele>
        <time>2015-01-10T08:04:29.00Z</time>
      </trkpt>
      <trkpt lat="43.71115" lon="7.08922">
        <ele>391</ele>
        <time>2015-01-10T08:04:31.00Z</time>
      </trkpt>
      <trkpt lat="43.71105" lon="7.08916">
        <ele>390</ele>
        <time>2015-01-10T08:04:33.00Z</time>
      </trkpt>
      <trkpt lat="43.71095" lon="7.08912">
        <ele>390</ele>
        <time>2015-01-10T08:04:36.00Z</time>
      </trkpt>
      <trkpt lat="43.71085" lon="7.08905">
        <ele>391</ele>
        <time>2015-01-10T08:04:39.00Z</time>
      </trkpt>
      <trkpt lat="43.71079" lon="7.08916">
        <ele>393</ele>
        <time>2015-01-10T08:04:44.00Z</time>
      </trkpt>
      <trkpt lat="43.71073" lon="7.08926">
        <ele>393</ele>
        <time>2015-01-10T08:04:48.00Z</time>
      </trkpt>
      <trkpt lat="43.71062" lon="7.08918">
        <ele>393</ele>
        <time>2015-01-10T08:04:52.00Z</time>
      </trkpt>
      <trkpt lat="43.71052" lon="7.08915">
        <ele>393</ele>
        <time>2015-01-10T08:04:55.00Z</time>
      </trkpt>
      <trkpt lat="43.71043" lon="7.0891">
        <ele>394</ele>
        <time>2015-01-10T08:04:58.00Z</time>
      </trkpt>
      <trkpt lat="43.71032" lon="7.08908">
        <ele>396</ele>
        <time>2015-01-10T08:05:02.00Z</time>
      </trkpt>
      <trkpt lat="43.71022" lon="7.08917">
        <ele>398</ele>
        <time>2015-01-10T08:05:06.00Z</time>
      </trkpt>
      <trkpt lat="43.71014" lon="7.08927">
        <ele>399</ele>
        <time>2015-01-10T08:05:10.00Z</time>
      </trkpt>
      <trkpt lat="43.71006" lon="7.08934">
        <ele>398</ele>
        <time>2015-01-10T08:05:14.00Z</time>
      </trkpt>
      <trkpt lat="43.70998" lon="7.08941">
        <ele>398</ele>
        <time>2015-01-10T08:05:18.00Z</time>
      </trkpt>
      <trkpt lat="43.70992" lon="7.08951">
        <ele>398</ele>
        <time>2015-01-10T08:05:22.00Z</time>
      </trkpt>
      <trkpt lat="43.70984" lon="7.08958">
        <ele>399</ele>
        <time>2015-01-10T08:05:26.00Z</time>
      </trkpt>
      <trkpt lat="43.70974" lon="7.0896">
        <ele>399</ele>
        <time>2015-01-10T08:05:30.00Z</time>
      </trkpt>
      <trkpt lat="43.70965" lon="7.08965">
        <ele>399</ele>
        <time>2015-01-10T08:05:34.00Z</time>
      </trkpt>
      <trkpt lat="43.70955" lon="7.08973">
        <ele>398</ele>
        <time>2015-01-10T08:05:38.00Z</time>
      </trkpt>
      <trkpt lat="43.70945" lon="7.08975">
        <ele>397</ele>
        <time>2015-01-10T08:05:42.00Z</time>
      </trkpt>
      <trkpt lat="43.70933" lon="7.08975">
        <ele>398</ele>
        <time>2015-01-10T08:05:46.00Z</time>
      </trkpt>
      <trkpt lat="43.70921" lon="7.08975">
        <ele>396</ele>
        <time>2015-01-10T08:05:50.00Z</time>
      </trkpt>
      <trkpt lat="43.70911" lon="7.08983">
        <ele>396</ele>
        <time>2015-01-10T08:05:54.00Z</time>
      </trkpt>
      <trkpt lat="43.70903" lon="7.0898">
        <ele>395</ele>
        <time>2015-01-10T08:05:57.00Z</time>
      </trkpt>
      <trkpt lat="43.70895" lon="7.08964">
        <ele>391</ele>
        <time>2015-01-10T08:06:02.00Z</time>
      </trkpt>
      <trkpt lat="43.70884" lon="7.08953">
        <ele>391</ele>
        <time>2015-01-10T08:06:05.00Z</time>
      </trkpt>
      <trkpt lat="43.70876" lon="7.08947">
        <ele>389</ele>
        <time>2015-01-10T08:06:07.00Z</time>
      </trkpt>
      <trkpt lat="43.70868" lon="7.0894">
        <ele>387</ele>
        <time>2015-01-10T08:06:09.00Z</time>
      </trkpt>
      <trkpt lat="43.7086" lon="7.08932">
        <ele>385</ele>
        <time>2015-01-10T08:06:11.00Z</time>
      </trkpt>
      <trkpt lat="43.70852" lon="7.08921">
        <ele>385</ele>
        <time>2015-01-10T08:06:13.00Z</time>
      </trkpt>
      <trkpt lat="43.70841" lon="7.08913">
        <ele>383</ele>
        <time>2015-01-10T08:06:16.00Z</time>
      </trkpt>
      <trkpt lat="43.70834" lon="7.08903">
        <ele>383</ele>
        <time>2015-01-10T08:06:19.00Z</time>
      </trkpt>
      <trkpt lat="43.70824" lon="7.08894">
        <ele>382</ele>
        <time>2015-01-10T08:06:22.00Z</time>
      </trkpt>
      <trkpt lat="43.70816" lon="7.08889">
        <ele>382</ele>
        <time>2015-01-10T08:06:25.00Z</time>
      </trkpt>
      <trkpt lat="43.70809" lon="7.0888">
        <ele>383</ele>
        <time>2015-01-10T08:06:28.00Z</time>
      </trkpt>
      <trkpt lat="43.708" lon="7.08869">
        <ele>382</ele>
        <time>2015-01-10T08:06:32.00Z</time>
      </trkpt>
      <trkpt lat="43.70792" lon="7.08861">
        <ele>383</ele>
        <time>2015-01-10T08:06:36.00Z</time>
      </trkpt>
      <trkpt lat="43.70784" lon="7.08852">
        <ele>382</ele>
        <time>2015-01-10T08:06:41.00Z</time>
      </trkpt>
      <trkpt lat="43.70775" lon="7.08843">
        <ele>382</ele>
        <time>2015-01-10T08:06:45.00Z</time>
      </trkpt>
      <trkpt lat="43.70768" lon="7.08834">
        <ele>381</ele>
        <time>2015-01-10T08:06:49.00Z</time>
      </trkpt>
      <trkpt lat="43.70756" lon="7.08826">
        <ele>381</ele>
        <time>2015-01-10T08:06:53.00Z</time>
      </trkpt>
      <trkpt lat="43.70747" lon="7.08819">
        <ele>382</ele>
        <time>2015-01-10T08:06:56.00Z</time>
      </trkpt>
      <trkpt lat="43.70738" lon="7.08811">
        <ele>384</ele>
        <time>2015-01-10T08:06:59.00Z</time>
      </trkpt>
      <trkpt lat="43.7073" lon="7.08801">
        <ele>385</ele>
        <time>2015-01-10T08:07:02.00Z</time>
      </trkpt>
      <trkpt lat="43.70721" lon="7.08791">
        <ele>384</ele>
        <time>2015-01-10T08:07:05.00Z</time>
      </trkpt>
      <trkpt lat="43.7071" lon="7.0878">
        <ele>383</ele>
        <time>2015-01-10T08:07:08.00Z</time>
      </trkpt>
      <trkpt lat="43.70703" lon="7.08772">
        <ele>384</ele>
        <time>2015-01-10T08:07:10.00Z</time>
      </trkpt>
      <trkpt lat="43.70694" lon="7.08764">
        <ele>383</ele>
        <time>2015-01-10T08:07:12.00Z</time>
      </trkpt>
      <trkpt lat="43.70686" lon="7.08756">
        <ele>384</ele>
        <time>2015-01-10T08:07:14.00Z</time>
      </trkpt>
      <trkpt lat="43.70678" lon="7.08749">
        <ele>384</ele>
        <time>2015-01-10T08:07:16.00Z</time>
      </trkpt>
      <trkpt lat="43.70671" lon="7.08741">
        <ele>384</ele>
        <time>2015-01-10T08:07:18.00Z</time>
      </trkpt>
      <trkpt lat="43.70664" lon="7.08733">
        <ele>384</ele>
        <time>2015-01-10T08:07:20.00Z</time>
      </trkpt>
      <trkpt lat="43.70655" lon="7.08723">
        <ele>383</ele>
        <time>2015-01-10T08:07:23.00Z</time>
      </trkpt>
      <trkpt lat="43.70646" lon="7.08715">
        <ele>381</ele>
        <time>2015-01-10T08:07:25.00Z</time>
      </trkpt>
      <trkpt lat="43.70638" lon="7.08707">
        <ele>378</ele>
        <time>2015-01-10T08:07:27.00Z</time>
      </trkpt>
      <trkpt lat="43.7063" lon="7.08699">
        <ele>377</ele>
        <time>2015-01-10T08:07:29.00Z</time>
      </trkpt>
      <trkpt lat="43.70623" lon="7.08689">
        <ele>377</ele>
        <time>2015-01-10T08:07:31.00Z</time>
      </trkpt>
      <trkpt lat="43.70613" lon="7.08678">
        <ele>375</ele>
        <time>2015-01-10T08:07:33.00Z</time>
      </trkpt>
      <trkpt lat="43.70602" lon="7.08669">
        <ele>375</ele>
        <time>2015-01-10T08:07:35.00Z</time>
      </trkpt>
      <trkpt lat="43.70594" lon="7.0866">
        <ele>375</ele>
        <time>2015-01-10T08:07:37.00Z</time>
      </trkpt>
      <trkpt lat="43.70585" lon="7.08651">
        <ele>373</ele>
        <time>2015-01-10T08:07:39.00Z</time>
      </trkpt>
      <trkpt lat="43.70575" lon="7.08641">
        <ele>372</ele>
        <time>2015-01-10T08:07:41.00Z</time>
      </trkpt>
      <trkpt lat="43.70568" lon="7.08633">
        <ele>371</ele>
        <time>2015-01-10T08:07:43.00Z</time>
      </trkpt>
      <trkpt lat="43.70557" lon="7.08631">
        <ele>370</ele>
        <time>2015-01-10T08:07:47.00Z</time>
      </trkpt>
      <trkpt lat="43.70546" lon="7.08635">
        <ele>369</ele>
        <time>2015-01-10T08:07:50.00Z</time>
      </trkpt>
      <trkpt lat="43.70535" lon="7.08638">
        <ele>368</ele>
        <time>2015-01-10T08:07:53.00Z</time>
      </trkpt>
      <trkpt lat="43.70522" lon="7.08638">
        <ele>368</ele>
        <time>2015-01-10T08:07:56.00Z</time>
      </trkpt>
      <trkpt lat="43.70511" lon="7.08634">
        <ele>368</ele>
        <time>2015-01-10T08:07:59.00Z</time>
      </trkpt>
      <trkpt lat="43.70521" lon="7.08651">
        <ele>368</ele>
        <time>2015-01-10T08:08:05.00Z</time>
      </trkpt>
      <trkpt lat="43.70531" lon="7.08659">
        <ele>366</ele>
        <time>2015-01-10T08:08:07.00Z</time>
      </trkpt>
      <trkpt lat="43.7054" lon="7.08662">
        <ele>366</ele>
        <time>2015-01-10T08:08:12.00Z</time>
      </trkpt>
      <trkpt lat="43.70545" lon="7.08649">
        <ele>367</ele>
        <time>2015-01-10T08:08:18.00Z</time>
      </trkpt>
      <trkpt lat="43.70544" lon="7.08636">
        <ele>368</ele>
        <time>2015-01-10T08:08:23.00Z</time>
      </trkpt>
      <trkpt lat="43.70533" lon="7.08638">
        <ele>368</ele>
        <time>2015-01-10T08:08:28.00Z</time>
      </trkpt>
      <trkpt lat="43.70521" lon="7.08638">
        <ele>367</ele>
        <time>2015-01-10T08:08:32.00Z</time>
      </trkpt>
      <trkpt lat="43.70511" lon="7.0863">
        <ele>368</ele>
        <time>2015-01-10T08:08:36.00Z</time>
      </trkpt>
      <trkpt lat="43.70512" lon="7.08644">
        <ele>367</ele>
        <time>2015-01-10T08:08:41.00Z</time>
      </trkpt>
      <trkpt lat="43.70524" lon="7.08652">
        <ele>367</ele>
        <time>2015-01-10T08:08:43.00Z</time>
      </trkpt>
      <trkpt lat="43.70535" lon="7.0866">
        <ele>366</ele>
        <time>2015-01-10T08:08:45.00Z</time>
      </trkpt>
      <trkpt lat="43.70544" lon="7.08659">
        <ele>365</ele>
        <time>2015-01-10T08:08:48.00Z</time>
      </trkpt>
      <trkpt lat="43.70547" lon="7.08646">
        <ele>366</ele>
        <time>2015-01-10T08:08:53.00Z</time>
      </trkpt>
      <trkpt lat="43.70537" lon="7.0864">
        <ele>367</ele>
        <time>2015-01-10T08:09:02.00Z</time>
      </trkpt>
      <trkpt lat="43.70528" lon="7.08641">
        <ele>367</ele>
        <time>2015-01-10T08:09:06.00Z</time>
      </trkpt>
      <trkpt lat="43.70518" lon="7.0864">
        <ele>368</ele>
        <time>2015-01-10T08:09:10.00Z</time>
      </trkpt>
      <trkpt lat="43.70512" lon="7.0863">
        <ele>368</ele>
        <time>2015-01-10T08:09:14.00Z</time>
      </trkpt>
      <trkpt lat="43.70508" lon="7.08616">
        <ele>371</ele>
        <time>2015-01-10T08:09:18.00Z</time>
      </trkpt>
      <trkpt lat="43.70505" lon="7.08602">
        <ele>372</ele>
        <time>2015-01-10T08:09:22.00Z</time>
      </trkpt>
      <trkpt lat="43.70508" lon="7.08623">
        <ele>369</ele>
        <time>2015-01-10T08:09:32.00Z</time>
      </trkpt>
      <trkpt lat="43.70508" lon="7.08635">
        <ele>369</ele>
        <time>2015-01-10T08:09:36.00Z</time>
      </trkpt>
      <trkpt lat="43.705" lon="7.08645">
        <ele>366</ele>
        <time>2015-01-10T08:10:55.00Z</time>
      </trkpt>
      <trkpt lat="43.70492" lon="7.08649">
        <ele>367</ele>
        <time>2015-01-10T08:10:59.00Z</time>
      </trkpt>
      <trkpt lat="43.70481" lon="7.08654">
        <ele>367</ele>
        <time>2015-01-10T08:11:03.00Z</time>
      </trkpt>
      <trkpt lat="43.7047" lon="7.08658">
        <ele>366</ele>
        <time>2015-01-10T08:11:06.00Z</time>
      </trkpt>
      <trkpt lat="43.70459" lon="7.08663">
        <ele>368</ele>
        <time>2015-01-10T08:11:09.00Z</time>
      </trkpt>
      <trkpt lat="43.70448" lon="7.08668">
        <ele>370</ele>
        <time>2015-01-10T08:11:12.00Z</time>
      </trkpt>
      <trkpt lat="43.70438" lon="7.08675">
        <ele>370</ele>
        <time>2015-01-10T08:11:15.00Z</time>
      </trkpt>
      <trkpt lat="43.70428" lon="7.08682">
        <ele>369</ele>
        <time>2015-01-10T08:11:18.00Z</time>
      </trkpt>
      <trkpt lat="43.70417" lon="7.08686">
        <ele>369</ele>
        <time>2015-01-10T08:11:21.00Z</time>
      </trkpt>
      <trkpt lat="43.70404" lon="7.08688">
        <ele>369</ele>
        <time>2015-01-10T08:11:24.00Z</time>
      </trkpt>
      <trkpt lat="43.70394" lon="7.08692">
        <ele>369</ele>
        <time>2015-01-10T08:11:26.00Z</time>
      </trkpt>
      <trkpt lat="43.70384" lon="7.08695">
        <ele>369</ele>
        <time>2015-01-10T08:11:28.00Z</time>
      </trkpt>
      <trkpt lat="43.70374" lon="7.08691">
        <ele>369</ele>
        <time>2015-01-10T08:11:30.00Z</time>
      </trkpt>
      <trkpt lat="43.70366" lon="7.08678">
        <ele>368</ele>
        <time>2015-01-10T08:11:33.00Z</time>
      </trkpt>
      <trkpt lat="43.7036" lon="7.08668">
        <ele>368</ele>
        <time>2015-01-10T08:11:35.00Z</time>
      </trkpt>
      <trkpt lat="43.70354" lon="7.08657">
        <ele>368</ele>
        <time>2015-01-10T08:11:37.00Z</time>
      </trkpt>
      <trkpt lat="43.70348" lon="7.08644">
        <ele>367</ele>
        <time>2015-01-10T08:11:39.00Z</time>
      </trkpt>
      <trkpt lat="43.7034" lon="7.08634">
        <ele>367</ele>
        <time>2015-01-10T08:11:41.00Z</time>
      </trkpt>
      <trkpt lat="43.70333" lon="7.08625">
        <ele>368</ele>
        <time>2015-01-10T08:11:43.00Z</time>
      </trkpt>
      <trkpt lat="43.70324" lon="7.08617">
        <ele>368</ele>
        <time>2015-01-10T08:11:45.00Z</time>
      </trkpt>
      <trkpt lat="43.70316" lon="7.08611">
        <ele>368</ele>
        <time>2015-01-10T08:11:47.00Z</time>
      </trkpt>
      <trkpt lat="43.70306" lon="7.08606">
        <ele>368</ele>
        <time>2015-01-10T08:11:50.00Z</time>
      </trkpt>
      <trkpt lat="43.70296" lon="7.08606">
        <ele>367</ele>
        <time>2015-01-10T08:11:53.00Z</time>
      </trkpt>
      <trkpt lat="43.70282" lon="7.08606">
        <ele>366</ele>
        <time>2015-01-10T08:11:56.00Z</time>
      </trkpt>
      <trkpt lat="43.70272" lon="7.08608">
        <ele>364</ele>
        <time>2015-01-10T08:11:58.00Z</time>
      </trkpt>
      <trkpt lat="43.70261" lon="7.08611">
        <ele>363</ele>
        <time>2015-01-10T08:12:00.00Z</time>
      </trkpt>
      <trkpt lat="43.7025" lon="7.08614">
        <ele>364</ele>
        <time>2015-01-10T08:12:02.00Z</time>
      </trkpt>
      <trkpt lat="43.7024" lon="7.08619">
        <ele>362</ele>
        <time>2015-01-10T08:12:04.00Z</time>
      </trkpt>
      <trkpt lat="43.7023" lon="7.08624">
        <ele>362</ele>
        <time>2015-01-10T08:12:06.00Z</time>
      </trkpt>
      <trkpt lat="43.70218" lon="7.08629">
        <ele>362</ele>
        <time>2015-01-10T08:12:08.00Z</time>
      </trkpt>
      <trkpt lat="43.70208" lon="7.08631">
        <ele>361</ele>
        <time>2015-01-10T08:12:10.00Z</time>
      </trkpt>
      <trkpt lat="43.702" lon="7.08636">
        <ele>361</ele>
        <time>2015-01-10T08:12:12.00Z</time>
      </trkpt>
      <trkpt lat="43.70189" lon="7.08642">
        <ele>360</ele>
        <time>2015-01-10T08:12:14.00Z</time>
      </trkpt>
      <trkpt lat="43.70177" lon="7.08645">
        <ele>359</ele>
        <time>2015-01-10T08:12:16.00Z</time>
      </trkpt>
      <trkpt lat="43.70164" lon="7.0865">
        <ele>358</ele>
        <time>2015-01-10T08:12:18.00Z</time>
      </trkpt>
      <trkpt lat="43.70152" lon="7.08652">
        <ele>358</ele>
        <time>2015-01-10T08:12:20.00Z</time>
      </trkpt>
      <trkpt lat="43.70142" lon="7.0865">
        <ele>359</ele>
        <time>2015-01-10T08:12:22.00Z</time>
      </trkpt>
      <trkpt lat="43.70131" lon="7.08661">
        <ele>359</ele>
        <time>2015-01-10T08:12:25.00Z</time>
      </trkpt>
      <trkpt lat="43.70121" lon="7.08669">
        <ele>357</ele>
        <time>2015-01-10T08:12:27.00Z</time>
      </trkpt>
      <trkpt lat="43.70109" lon="7.08667">
        <ele>357</ele>
        <time>2015-01-10T08:12:31.00Z</time>
      </trkpt>
      <trkpt lat="43.701" lon="7.08659">
        <ele>356</ele>
        <time>2015-01-10T08:12:34.00Z</time>
      </trkpt>
      <trkpt lat="43.70089" lon="7.08654">
        <ele>356</ele>
        <time>2015-01-10T08:12:37.00Z</time>
      </trkpt>
      <trkpt lat="43.70077" lon="7.0865">
        <ele>356</ele>
        <time>2015-01-10T08:12:40.00Z</time>
      </trkpt>
      <trkpt lat="43.70067" lon="7.08646">
        <ele>357</ele>
        <time>2015-01-10T08:12:42.00Z</time>
      </trkpt>
      <trkpt lat="43.70054" lon="7.08638">
        <ele>357</ele>
        <time>2015-01-10T08:12:45.00Z</time>
      </trkpt>
      <trkpt lat="43.70045" lon="7.0863">
        <ele>357</ele>
        <time>2015-01-10T08:12:47.00Z</time>
      </trkpt>
      <trkpt lat="43.70036" lon="7.08621">
        <ele>356</ele>
        <time>2015-01-10T08:12:49.00Z</time>
      </trkpt>
      <trkpt lat="43.70025" lon="7.08612">
        <ele>355</ele>
        <time>2015-01-10T08:12:51.00Z</time>
      </trkpt>
      <trkpt lat="43.70014" lon="7.08604">
        <ele>355</ele>
        <time>2015-01-10T08:12:53.00Z</time>
      </trkpt>
      <trkpt lat="43.70003" lon="7.08596">
        <ele>353</ele>
        <time>2015-01-10T08:12:55.00Z</time>
      </trkpt>
      <trkpt lat="43.69992" lon="7.08586">
        <ele>352</ele>
        <time>2015-01-10T08:12:57.00Z</time>
      </trkpt>
      <trkpt lat="43.69982" lon="7.08577">
        <ele>351</ele>
        <time>2015-01-10T08:12:59.00Z</time>
      </trkpt>
      <trkpt lat="43.69971" lon="7.08568">
        <ele>351</ele>
        <time>2015-01-10T08:13:01.00Z</time>
      </trkpt>
      <trkpt lat="43.6996" lon="7.08559">
        <ele>351</ele>
        <time>2015-01-10T08:13:03.00Z</time>
      </trkpt>
      <trkpt lat="43.69951" lon="7.0855">
        <ele>350</ele>
        <time>2015-01-10T08:13:05.00Z</time>
      </trkpt>
      <trkpt lat="43.6994" lon="7.08541">
        <ele>349</ele>
        <time>2015-01-10T08:13:07.00Z</time>
      </trkpt>
      <trkpt lat="43.6993" lon="7.08534">
        <ele>348</ele>
        <time>2015-01-10T08:13:09.00Z</time>
      </trkpt>
      <trkpt lat="43.69919" lon="7.08525">
        <ele>348</ele>
        <time>2015-01-10T08:13:11.00Z</time>
      </trkpt>
      <trkpt lat="43.69911" lon="7.08515">
        <ele>347</ele>
        <time>2015-01-10T08:13:13.00Z</time>
      </trkpt>
      <trkpt lat="43.69903" lon="7.08504">
        <ele>348</ele>
        <time>2015-01-10T08:13:15.00Z</time>
      </trkpt>
      <trkpt lat="43.69893" lon="7.08495">
        <ele>345</ele>
        <time>2015-01-10T08:13:17.00Z</time>
      </trkpt>
      <trkpt lat="43.69883" lon="7.08484">
        <ele>345</ele>
        <time>2015-01-10T08:13:19.00Z</time>
      </trkpt>
      <trkpt lat="43.69875" lon="7.08473">
        <ele>345</ele>
        <time>2015-01-10T08:13:21.00Z</time>
      </trkpt>
      <trkpt lat="43.69869" lon="7.08464">
        <ele>346</ele>
        <time>2015-01-10T08:13:23.00Z</time>
      </trkpt>
      <trkpt lat="43.69858" lon="7.08458">
        <ele>345</ele>
        <time>2015-01-10T08:13:25.00Z</time>
      </trkpt>
      <trkpt lat="43.69848" lon="7.08456">
        <ele>344</ele>
        <time>2015-01-10T08:13:27.00Z</time>
      </trkpt>
      <trkpt lat="43.6984" lon="7.08448">
        <ele>345</ele>
        <time>2015-01-10T08:13:29.00Z</time>
      </trkpt>
      <trkpt lat="43.69833" lon="7.08437">
        <ele>346</ele>
        <time>2015-01-10T08:13:31.00Z</time>
      </trkpt>
      <trkpt lat="43.69825" lon="7.08426">
        <ele>346</ele>
        <time>2015-01-10T08:13:33.00Z</time>
      </trkpt>
      <trkpt lat="43.69819" lon="7.08416">
        <ele>346</ele>
        <time>2015-01-10T08:13:35.00Z</time>
      </trkpt>
      <trkpt lat="43.69812" lon="7.08408">
        <ele>345</ele>
        <time>2015-01-10T08:13:37.00Z</time>
      </trkpt>
      <trkpt lat="43.69802" lon="7.08407">
        <ele>345</ele>
        <time>2015-01-10T08:13:39.00Z</time>
      </trkpt>
      <trkpt lat="43.69791" lon="7.08408">
        <ele>343</ele>
        <time>2015-01-10T08:13:41.00Z</time>
      </trkpt>
      <trkpt lat="43.69782" lon="7.08407">
        <ele>344</ele>
        <time>2015-01-10T08:13:43.00Z</time>
      </trkpt>
      <trkpt lat="43.69775" lon="7.08397">
        <ele>344</ele>
        <time>2015-01-10T08:13:45.00Z</time>
      </trkpt>
      <trkpt lat="43.69767" lon="7.08386">
        <ele>345</ele>
        <time>2015-01-10T08:13:47.00Z</time>
      </trkpt>
      <trkpt lat="43.69758" lon="7.08377">
        <ele>344</ele>
        <time>2015-01-10T08:13:50.00Z</time>
      </trkpt>
      <trkpt lat="43.69749" lon="7.08375">
        <ele>342</ele>
        <time>2015-01-10T08:13:52.00Z</time>
      </trkpt>
      <trkpt lat="43.69738" lon="7.08364">
        <ele>342</ele>
        <time>2015-01-10T08:13:55.00Z</time>
      </trkpt>
      <trkpt lat="43.69731" lon="7.08356">
        <ele>342</ele>
        <time>2015-01-10T08:13:57.00Z</time>
      </trkpt>
      <trkpt lat="43.69721" lon="7.08351">
        <ele>341</ele>
        <time>2015-01-10T08:13:59.00Z</time>
      </trkpt>
      <trkpt lat="43.69713" lon="7.08343">
        <ele>341</ele>
        <time>2015-01-10T08:14:01.00Z</time>
      </trkpt>
      <trkpt lat="43.69703" lon="7.08329">
        <ele>341</ele>
        <time>2015-01-10T08:14:04.00Z</time>
      </trkpt>
      <trkpt lat="43.69695" lon="7.08318">
        <ele>340</ele>
        <time>2015-01-10T08:14:06.00Z</time>
      </trkpt>
      <trkpt lat="43.69686" lon="7.08309">
        <ele>340</ele>
        <time>2015-01-10T08:14:08.00Z</time>
      </trkpt>
      <trkpt lat="43.69672" lon="7.08306">
        <ele>339</ele>
        <time>2015-01-10T08:14:11.00Z</time>
      </trkpt>
      <trkpt lat="43.69662" lon="7.08306">
        <ele>338</ele>
        <time>2015-01-10T08:14:13.00Z</time>
      </trkpt>
      <trkpt lat="43.69651" lon="7.08299">
        <ele>338</ele>
        <time>2015-01-10T08:14:15.00Z</time>
      </trkpt>
      <trkpt lat="43.69644" lon="7.0829">
        <ele>338</ele>
        <time>2015-01-10T08:14:17.00Z</time>
      </trkpt>
      <trkpt lat="43.69638" lon="7.0828">
        <ele>338</ele>
        <time>2015-01-10T08:14:19.00Z</time>
      </trkpt>
      <trkpt lat="43.69627" lon="7.08277">
        <ele>338</ele>
        <time>2015-01-10T08:14:21.00Z</time>
      </trkpt>
      <trkpt lat="43.6962" lon="7.0827">
        <ele>337</ele>
        <time>2015-01-10T08:14:23.00Z</time>
      </trkpt>
      <trkpt lat="43.69613" lon="7.08261">
        <ele>337</ele>
        <time>2015-01-10T08:14:25.00Z</time>
      </trkpt>
      <trkpt lat="43.69607" lon="7.08247">
        <ele>336</ele>
        <time>2015-01-10T08:14:28.00Z</time>
      </trkpt>
      <trkpt lat="43.69601" lon="7.08234">
        <ele>337</ele>
        <time>2015-01-10T08:14:31.00Z</time>
      </trkpt>
      <trkpt lat="43.696" lon="7.08221">
        <ele>336</ele>
        <time>2015-01-10T08:14:34.00Z</time>
      </trkpt>
      <trkpt lat="43.696" lon="7.08207">
        <ele>336</ele>
        <time>2015-01-10T08:14:37.00Z</time>
      </trkpt>
      <trkpt lat="43.69599" lon="7.08193">
        <ele>337</ele>
        <time>2015-01-10T08:14:41.00Z</time>
      </trkpt>
      <trkpt lat="43.696" lon="7.0818">
        <ele>338</ele>
        <time>2015-01-10T08:14:45.00Z</time>
      </trkpt>
      <trkpt lat="43.69603" lon="7.08168">
        <ele>337</ele>
        <time>2015-01-10T08:14:49.00Z</time>
      </trkpt>
      <trkpt lat="43.69604" lon="7.08154">
        <ele>338</ele>
        <time>2015-01-10T08:14:53.00Z</time>
      </trkpt>
      <trkpt lat="43.69605" lon="7.08141">
        <ele>338</ele>
        <time>2015-01-10T08:14:57.00Z</time>
      </trkpt>
      <trkpt lat="43.69607" lon="7.08128">
        <ele>339</ele>
        <time>2015-01-10T08:15:01.00Z</time>
      </trkpt>
      <trkpt lat="43.69616" lon="7.08124">
        <ele>340</ele>
        <time>2015-01-10T08:15:05.00Z</time>
      </trkpt>
      <trkpt lat="43.69624" lon="7.08117">
        <ele>341</ele>
        <time>2015-01-10T08:15:09.00Z</time>
      </trkpt>
      <trkpt lat="43.69632" lon="7.08108">
        <ele>343</ele>
        <time>2015-01-10T08:15:15.00Z</time>
      </trkpt>
      <trkpt lat="43.6964" lon="7.08103">
        <ele>345</ele>
        <time>2015-01-10T08:15:20.00Z</time>
      </trkpt>
      <trkpt lat="43.6965" lon="7.08097">
        <ele>346</ele>
        <time>2015-01-10T08:15:25.00Z</time>
      </trkpt>
      <trkpt lat="43.69658" lon="7.08093">
        <ele>347</ele>
        <time>2015-01-10T08:15:31.00Z</time>
      </trkpt>
      <trkpt lat="43.69669" lon="7.08093">
        <ele>348</ele>
        <time>2015-01-10T08:15:38.00Z</time>
      </trkpt>
      <trkpt lat="43.69678" lon="7.0809">
        <ele>349</ele>
        <time>2015-01-10T08:15:44.00Z</time>
      </trkpt>
      <trkpt lat="43.69688" lon="7.08086">
        <ele>352</ele>
        <time>2015-01-10T08:15:51.00Z</time>
      </trkpt>
      <trkpt lat="43.69694" lon="7.08076">
        <ele>353</ele>
        <time>2015-01-10T08:15:58.00Z</time>
      </trkpt>
      <trkpt lat="43.69697" lon="7.08062">
        <ele>352</ele>
        <time>2015-01-10T08:16:05.00Z</time>
      </trkpt>
      <trkpt lat="43.69699" lon="7.08048">
        <ele>353</ele>
        <time>2015-01-10T08:16:12.00Z</time>
      </trkpt>
      <trkpt lat="43.69704" lon="7.08037">
        <ele>354</ele>
        <time>2015-01-10T08:16:18.00Z</time>
      </trkpt>
      <trkpt lat="43.69704" lon="7.08024">
        <ele>354</ele>
        <time>2015-01-10T08:16:24.00Z</time>
      </trkpt>
      <trkpt lat="43.69707" lon="7.08012">
        <ele>355</ele>
        <time>2015-01-10T08:16:30.00Z</time>
      </trkpt>
      <trkpt lat="43.69715" lon="7.08003">
        <ele>354</ele>
        <time>2015-01-10T08:19:13.00Z</time>
      </trkpt>
      <trkpt lat="43.69724" lon="7.08001">
        <ele>356</ele>
        <time>2015-01-10T08:19:20.00Z</time>
      </trkpt>
      <trkpt lat="43.69733" lon="7.08002">
        <ele>357</ele>
        <time>2015-01-10T08:19:25.00Z</time>
      </trkpt>
      <trkpt lat="43.69742" lon="7.08003">
        <ele>359</ele>
        <time>2015-01-10T08:19:30.00Z</time>
      </trkpt>
      <trkpt lat="43.69752" lon="7.08003">
        <ele>362</ele>
        <time>2015-01-10T08:19:36.00Z</time>
      </trkpt>
      <trkpt lat="43.69757" lon="7.08015">
        <ele>364</ele>
        <time>2015-01-10T08:19:44.00Z</time>
      </trkpt>
      <trkpt lat="43.6976" lon="7.08028">
        <ele>365</ele>
        <time>2015-01-10T08:19:57.00Z</time>
      </trkpt>
      <trkpt lat="43.69763" lon="7.0804">
        <ele>367</ele>
        <time>2015-01-10T08:20:07.00Z</time>
      </trkpt>
      <trkpt lat="43.69772" lon="7.08043">
        <ele>370</ele>
        <time>2015-01-10T08:20:18.00Z</time>
      </trkpt>
      <trkpt lat="43.6978" lon="7.08051">
        <ele>371</ele>
        <time>2015-01-10T08:20:38.00Z</time>
      </trkpt>
      <trkpt lat="43.69789" lon="7.08059">
        <ele>372</ele>
        <time>2015-01-10T08:20:45.00Z</time>
      </trkpt>
      <trkpt lat="43.69798" lon="7.08067">
        <ele>374</ele>
        <time>2015-01-10T08:20:52.00Z</time>
      </trkpt>
      <trkpt lat="43.69805" lon="7.08078">
        <ele>375</ele>
        <time>2015-01-10T08:20:58.00Z</time>
      </trkpt>
      <trkpt lat="43.69812" lon="7.08087">
        <ele>376</ele>
        <time>2015-01-10T08:21:04.00Z</time>
      </trkpt>
      <trkpt lat="43.69818" lon="7.08096">
        <ele>378</ele>
        <time>2015-01-10T08:21:10.00Z</time>
      </trkpt>
      <trkpt lat="43.69827" lon="7.08101">
        <ele>379</ele>
        <time>2015-01-10T08:21:16.00Z</time>
      </trkpt>
      <trkpt lat="43.69836" lon="7.08106">
        <ele>379</ele>
        <time>2015-01-10T08:21:22.00Z</time>
      </trkpt>
      <trkpt lat="43.69844" lon="7.08113">
        <ele>380</ele>
        <time>2015-01-10T08:21:29.00Z</time>
      </trkpt>
      <trkpt lat="43.69851" lon="7.08125">
        <ele>379</ele>
        <time>2015-01-10T08:21:36.00Z</time>
      </trkpt>
      <trkpt lat="43.6986" lon="7.08131">
        <ele>381</ele>
        <time>2015-01-10T08:21:43.00Z</time>
      </trkpt>
      <trkpt lat="43.69869" lon="7.08133">
        <ele>382</ele>
        <time>2015-01-10T08:21:49.00Z</time>
      </trkpt>
      <trkpt lat="43.69859" lon="7.08129">
        <ele>380</ele>
        <time>2015-01-10T08:21:57.00Z</time>
      </trkpt>
      <trkpt lat="43.69848" lon="7.08125">
        <ele>380</ele>
        <time>2015-01-10T08:22:00.00Z</time>
      </trkpt>
      <trkpt lat="43.69856" lon="7.08126">
        <ele>383</ele>
        <time>2015-01-10T08:22:15.00Z</time>
      </trkpt>
      <trkpt lat="43.69866" lon="7.08131">
        <ele>385</ele>
        <time>2015-01-10T08:22:21.00Z</time>
      </trkpt>
      <trkpt lat="43.69856" lon="7.08129">
        <ele>383</ele>
        <time>2015-01-10T08:23:08.00Z</time>
      </trkpt>
      <trkpt lat="43.69843" lon="7.08123">
        <ele>382</ele>
        <time>2015-01-10T08:23:10.00Z</time>
      </trkpt>
      <trkpt lat="43.69831" lon="7.08119">
        <ele>380</ele>
        <time>2015-01-10T08:23:12.00Z</time>
      </trkpt>
      <trkpt lat="43.69821" lon="7.08116">
        <ele>379</ele>
        <time>2015-01-10T08:23:24.00Z</time>
      </trkpt>
      <trkpt lat="43.69811" lon="7.08109">
        <ele>376</ele>
        <time>2015-01-10T08:23:28.00Z</time>
      </trkpt>
      <trkpt lat="43.69801" lon="7.08106">
        <ele>373</ele>
        <time>2015-01-10T08:23:31.00Z</time>
      </trkpt>
      <trkpt lat="43.69788" lon="7.08105">
        <ele>370</ele>
        <time>2015-01-10T08:23:38.00Z</time>
      </trkpt>
      <trkpt lat="43.69773" lon="7.08104">
        <ele>369</ele>
        <time>2015-01-10T08:23:41.00Z</time>
      </trkpt>
      <trkpt lat="43.69766" lon="7.08118">
        <ele>368</ele>
        <time>2015-01-10T08:23:43.00Z</time>
      </trkpt>
      <trkpt lat="43.69757" lon="7.08127">
        <ele>364</ele>
        <time>2015-01-10T08:23:45.00Z</time>
      </trkpt>
      <trkpt lat="43.69747" lon="7.08122">
        <ele>361</ele>
        <time>2015-01-10T08:23:47.00Z</time>
      </trkpt>
      <trkpt lat="43.69734" lon="7.0812">
        <ele>358</ele>
        <time>2015-01-10T08:23:50.00Z</time>
      </trkpt>
      <trkpt lat="43.69721" lon="7.08124">
        <ele>353</ele>
        <time>2015-01-10T08:23:53.00Z</time>
      </trkpt>
      <trkpt lat="43.69709" lon="7.0812">
        <ele>349</ele>
        <time>2015-01-10T08:24:00.00Z</time>
      </trkpt>
      <trkpt lat="43.69698" lon="7.08121">
        <ele>348</ele>
        <time>2015-01-10T08:24:02.00Z</time>
      </trkpt>
      <trkpt lat="43.69688" lon="7.08123">
        <ele>345</ele>
        <time>2015-01-10T08:24:04.00Z</time>
      </trkpt>
      <trkpt lat="43.69677" lon="7.08129">
        <ele>345</ele>
        <time>2015-01-10T08:24:06.00Z</time>
      </trkpt>
      <trkpt lat="43.69664" lon="7.08129">
        <ele>343</ele>
        <time>2015-01-10T08:24:08.00Z</time>
      </trkpt>
      <trkpt lat="43.69655" lon="7.08124">
        <ele>342</ele>
        <time>2015-01-10T08:24:10.00Z</time>
      </trkpt>
      <trkpt lat="43.69644" lon="7.08114">
        <ele>343</ele>
        <time>2015-01-10T08:24:13.00Z</time>
      </trkpt>
      <trkpt lat="43.69636" lon="7.08108">
        <ele>347</ele>
        <time>2015-01-10T08:24:41.00Z</time>
      </trkpt>
      <trkpt lat="43.69645" lon="7.081">
        <ele>345</ele>
        <time>2015-01-10T08:24:48.00Z</time>
      </trkpt>
      <trkpt lat="43.69654" lon="7.08097">
        <ele>344</ele>
        <time>2015-01-10T08:24:54.00Z</time>
      </trkpt>
      <trkpt lat="43.69663" lon="7.08094">
        <ele>346</ele>
        <time>2015-01-10T08:24:59.00Z</time>
      </trkpt>
      <trkpt lat="43.69672" lon="7.08093">
        <ele>348</ele>
        <time>2015-01-10T08:25:03.00Z</time>
      </trkpt>
      <trkpt lat="43.69683" lon="7.08091">
        <ele>351</ele>
        <time>2015-01-10T08:25:08.00Z</time>
      </trkpt>
      <trkpt lat="43.69692" lon="7.08086">
        <ele>353</ele>
        <time>2015-01-10T08:25:13.00Z</time>
      </trkpt>
      <trkpt lat="43.69697" lon="7.08074">
        <ele>354</ele>
        <time>2015-01-10T08:25:18.00Z</time>
      </trkpt>
      <trkpt lat="43.69696" lon="7.0806">
        <ele>354</ele>
        <time>2015-01-10T08:25:23.00Z</time>
      </trkpt>
      <trkpt lat="43.69701" lon="7.08047">
        <ele>356</ele>
        <time>2015-01-10T08:25:28.00Z</time>
      </trkpt>
      <trkpt lat="43.69704" lon="7.08035">
        <ele>357</ele>
        <time>2015-01-10T08:25:33.00Z</time>
      </trkpt>
      <trkpt lat="43.69704" lon="7.08022">
        <ele>357</ele>
        <time>2015-01-10T08:25:38.00Z</time>
      </trkpt>
      <trkpt lat="43.69709" lon="7.0801">
        <ele>356</ele>
        <time>2015-01-10T08:25:43.00Z</time>
      </trkpt>
      <trkpt lat="43.69717" lon="7.08004">
        <ele>357</ele>
        <time>2015-01-10T08:25:49.00Z</time>
      </trkpt>
      <trkpt lat="43.69727" lon="7.08004">
        <ele>359</ele>
        <time>2015-01-10T08:25:55.00Z</time>
      </trkpt>
      <trkpt lat="43.69736" lon="7.08007">
        <ele>361</ele>
        <time>2015-01-10T08:26:00.00Z</time>
      </trkpt>
      <trkpt lat="43.69746" lon="7.08005">
        <ele>363</ele>
        <time>2015-01-10T08:26:06.00Z</time>
      </trkpt>
      <trkpt lat="43.69755" lon="7.08007">
        <ele>364</ele>
        <time>2015-01-10T08:26:13.00Z</time>
      </trkpt>
      <trkpt lat="43.69758" lon="7.08019">
        <ele>365</ele>
        <time>2015-01-10T08:26:21.00Z</time>
      </trkpt>
      <trkpt lat="43.69761" lon="7.08032">
        <ele>368</ele>
        <time>2015-01-10T08:26:43.00Z</time>
      </trkpt>
      <trkpt lat="43.69767" lon="7.0804">
        <ele>368</ele>
        <time>2015-01-10T08:27:20.00Z</time>
      </trkpt>
      <trkpt lat="43.69776" lon="7.08046">
        <ele>372</ele>
        <time>2015-01-10T08:27:37.00Z</time>
      </trkpt>
      <trkpt lat="43.69784" lon="7.08053">
        <ele>374</ele>
        <time>2015-01-10T08:27:46.00Z</time>
      </trkpt>
      <trkpt lat="43.69791" lon="7.08063">
        <ele>375</ele>
        <time>2015-01-10T08:27:57.00Z</time>
      </trkpt>
      <trkpt lat="43.69798" lon="7.08072">
        <ele>375</ele>
        <time>2015-01-10T08:28:02.00Z</time>
      </trkpt>
      <trkpt lat="43.69804" lon="7.08081">
        <ele>375</ele>
        <time>2015-01-10T08:28:07.00Z</time>
      </trkpt>
      <trkpt lat="43.69812" lon="7.08089">
        <ele>375</ele>
        <time>2015-01-10T08:28:13.00Z</time>
      </trkpt>
      <trkpt lat="43.6982" lon="7.08098">
        <ele>378</ele>
        <time>2015-01-10T08:28:20.00Z</time>
      </trkpt>
      <trkpt lat="43.69828" lon="7.08104">
        <ele>379</ele>
        <time>2015-01-10T08:28:27.00Z</time>
      </trkpt>
      <trkpt lat="43.69838" lon="7.08107">
        <ele>381</ele>
        <time>2015-01-10T08:28:34.00Z</time>
      </trkpt>
      <trkpt lat="43.69848" lon="7.08105">
        <ele>382</ele>
        <time>2015-01-10T08:28:41.00Z</time>
      </trkpt>
      <trkpt lat="43.69856" lon="7.0811">
        <ele>382</ele>
        <time>2015-01-10T08:28:47.00Z</time>
      </trkpt>
      <trkpt lat="43.69862" lon="7.0812">
        <ele>383</ele>
        <time>2015-01-10T08:28:53.00Z</time>
      </trkpt>
      <trkpt lat="43.69869" lon="7.0813">
        <ele>383</ele>
        <time>2015-01-10T08:29:00.00Z</time>
      </trkpt>
      <trkpt lat="43.69856" lon="7.08127">
        <ele>382</ele>
        <time>2015-01-10T08:29:29.00Z</time>
      </trkpt>
      <trkpt lat="43.69841" lon="7.0812">
        <ele>380</ele>
        <time>2015-01-10T08:29:31.00Z</time>
      </trkpt>
      <trkpt lat="43.69833" lon="7.08123">
        <ele>380</ele>
        <time>2015-01-10T08:29:51.00Z</time>
      </trkpt>
      <trkpt lat="43.69842" lon="7.08123">
        <ele>381</ele>
        <time>2015-01-10T08:30:39.00Z</time>
      </trkpt>
      <trkpt lat="43.69851" lon="7.08125">
        <ele>382</ele>
        <time>2015-01-10T08:30:47.00Z</time>
      </trkpt>
      <trkpt lat="43.69861" lon="7.08131">
        <ele>384</ele>
        <time>2015-01-10T08:31:13.00Z</time>
      </trkpt>
      <trkpt lat="43.6987" lon="7.08135">
        <ele>385</ele>
        <time>2015-01-10T08:31:18.00Z</time>
      </trkpt>
      <trkpt lat="43.69878" lon="7.08142">
        <ele>386</ele>
        <time>2015-01-10T08:31:24.00Z</time>
      </trkpt>
      <trkpt lat="43.69888" lon="7.08138">
        <ele>386</ele>
        <time>2015-01-10T08:31:30.00Z</time>
      </trkpt>
      <trkpt lat="43.69898" lon="7.08135">
        <ele>386</ele>
        <time>2015-01-10T08:31:35.00Z</time>
      </trkpt>
      <trkpt lat="43.69908" lon="7.08132">
        <ele>385</ele>
        <time>2015-01-10T08:31:41.00Z</time>
      </trkpt>
      <trkpt lat="43.69917" lon="7.0813">
        <ele>384</ele>
        <time>2015-01-10T08:31:46.00Z</time>
      </trkpt>
      <trkpt lat="43.69929" lon="7.08125">
        <ele>382</ele>
        <time>2015-01-10T08:31:51.00Z</time>
      </trkpt>
      <trkpt lat="43.69939" lon="7.08126">
        <ele>383</ele>
        <time>2015-01-10T08:31:55.00Z</time>
      </trkpt>
      <trkpt lat="43.69947" lon="7.08135">
        <ele>383</ele>
        <time>2015-01-10T08:31:59.00Z</time>
      </trkpt>
      <trkpt lat="43.69954" lon="7.08145">
        <ele>382</ele>
        <time>2015-01-10T08:32:03.00Z</time>
      </trkpt>
      <trkpt lat="43.6996" lon="7.08158">
        <ele>381</ele>
        <time>2015-01-10T08:32:07.00Z</time>
      </trkpt>
      <trkpt lat="43.69966" lon="7.08168">
        <ele>379</ele>
        <time>2015-01-10T08:32:10.00Z</time>
      </trkpt>
      <trkpt lat="43.69973" lon="7.08178">
        <ele>378</ele>
        <time>2015-01-10T08:32:13.00Z</time>
      </trkpt>
      <trkpt lat="43.69978" lon="7.0819">
        <ele>378</ele>
        <time>2015-01-10T08:32:16.00Z</time>
      </trkpt>
      <trkpt lat="43.69981" lon="7.08202">
        <ele>379</ele>
        <time>2015-01-10T08:32:19.00Z</time>
      </trkpt>
      <trkpt lat="43.69986" lon="7.08214">
        <ele>379</ele>
        <time>2015-01-10T08:32:22.00Z</time>
      </trkpt>
      <trkpt lat="43.69992" lon="7.08224">
        <ele>379</ele>
        <time>2015-01-10T08:32:25.00Z</time>
      </trkpt>
      <trkpt lat="43.7" lon="7.08236">
        <ele>381</ele>
        <time>2015-01-10T08:32:29.00Z</time>
      </trkpt>
      <trkpt lat="43.70006" lon="7.08246">
        <ele>381</ele>
        <time>2015-01-10T08:32:33.00Z</time>
      </trkpt>
      <trkpt lat="43.70011" lon="7.08256">
        <ele>381</ele>
        <time>2015-01-10T08:32:37.00Z</time>
      </trkpt>
      <trkpt lat="43.70017" lon="7.08266">
        <ele>380</ele>
        <time>2015-01-10T08:32:41.00Z</time>
      </trkpt>
      <trkpt lat="43.70022" lon="7.08279">
        <ele>381</ele>
        <time>2015-01-10T08:32:45.00Z</time>
      </trkpt>
      <trkpt lat="43.70026" lon="7.08293">
        <ele>382</ele>
        <time>2015-01-10T08:32:49.00Z</time>
      </trkpt>
      <trkpt lat="43.70034" lon="7.08303">
        <ele>382</ele>
        <time>2015-01-10T08:32:53.00Z</time>
      </trkpt>
      <trkpt lat="43.70042" lon="7.08312">
        <ele>384</ele>
        <time>2015-01-10T08:32:57.00Z</time>
      </trkpt>
      <trkpt lat="43.70051" lon="7.08321">
        <ele>384</ele>
        <time>2015-01-10T08:33:01.00Z</time>
      </trkpt>
      <trkpt lat="43.70059" lon="7.08331">
        <ele>386</ele>
        <time>2015-01-10T08:33:05.00Z</time>
      </trkpt>
      <trkpt lat="43.70066" lon="7.08342">
        <ele>387</ele>
        <time>2015-01-10T08:33:09.00Z</time>
      </trkpt>
      <trkpt lat="43.7007" lon="7.08354">
        <ele>387</ele>
        <time>2015-01-10T08:33:12.00Z</time>
      </trkpt>
      <trkpt lat="43.70077" lon="7.08364">
        <ele>385</ele>
        <time>2015-01-10T08:33:15.00Z</time>
      </trkpt>
      <trkpt lat="43.70082" lon="7.08379">
        <ele>384</ele>
        <time>2015-01-10T08:33:18.00Z</time>
      </trkpt>
      <trkpt lat="43.70086" lon="7.08398">
        <ele>384</ele>
        <time>2015-01-10T08:33:20.00Z</time>
      </trkpt>
      <trkpt lat="43.70088" lon="7.08412">
        <ele>383</ele>
        <time>2015-01-10T08:33:22.00Z</time>
      </trkpt>
      <trkpt lat="43.70087" lon="7.08427">
        <ele>382</ele>
        <time>2015-01-10T08:33:24.00Z</time>
      </trkpt>
      <trkpt lat="43.70085" lon="7.08443">
        <ele>379</ele>
        <time>2015-01-10T08:33:27.00Z</time>
      </trkpt>
      <trkpt lat="43.70082" lon="7.08456">
        <ele>376</ele>
        <time>2015-01-10T08:33:29.00Z</time>
      </trkpt>
      <trkpt lat="43.7008" lon="7.08471">
        <ele>373</ele>
        <time>2015-01-10T08:33:32.00Z</time>
      </trkpt>
      <trkpt lat="43.70088" lon="7.08488">
        <ele>370</ele>
        <time>2015-01-10T08:33:35.00Z</time>
      </trkpt>
      <trkpt lat="43.70096" lon="7.08498">
        <ele>370</ele>
        <time>2015-01-10T08:33:37.00Z</time>
      </trkpt>
      <trkpt lat="43.70106" lon="7.08505">
        <ele>369</ele>
        <time>2015-01-10T08:33:39.00Z</time>
      </trkpt>
      <trkpt lat="43.70116" lon="7.08505">
        <ele>369</ele>
        <time>2015-01-10T08:33:41.00Z</time>
      </trkpt>
      <trkpt lat="43.70129" lon="7.08508">
        <ele>370</ele>
        <time>2015-01-10T08:33:44.00Z</time>
      </trkpt>
      <trkpt lat="43.70141" lon="7.08512">
        <ele>369</ele>
        <time>2015-01-10T08:33:47.00Z</time>
      </trkpt>
      <trkpt lat="43.7015" lon="7.08513">
        <ele>370</ele>
        <time>2015-01-10T08:33:49.00Z</time>
      </trkpt>
      <trkpt lat="43.70162" lon="7.08509">
        <ele>371</ele>
        <time>2015-01-10T08:33:52.00Z</time>
      </trkpt>
      <trkpt lat="43.70172" lon="7.08509">
        <ele>372</ele>
        <time>2015-01-10T08:33:55.00Z</time>
      </trkpt>
      <trkpt lat="43.70184" lon="7.08509">
        <ele>372</ele>
        <time>2015-01-10T08:33:59.00Z</time>
      </trkpt>
      <trkpt lat="43.70194" lon="7.08504">
        <ele>372</ele>
        <time>2015-01-10T08:34:03.00Z</time>
      </trkpt>
      <trkpt lat="43.70204" lon="7.08498">
        <ele>373</ele>
        <time>2015-01-10T08:34:07.00Z</time>
      </trkpt>
      <trkpt lat="43.70214" lon="7.08495">
        <ele>374</ele>
        <time>2015-01-10T08:34:11.00Z</time>
      </trkpt>
      <trkpt lat="43.70225" lon="7.08492">
        <ele>374</ele>
        <time>2015-01-10T08:34:15.00Z</time>
      </trkpt>
      <trkpt lat="43.70235" lon="7.08487">
        <ele>375</ele>
        <time>2015-01-10T08:34:19.00Z</time>
      </trkpt>
      <trkpt lat="43.70245" lon="7.08482">
        <ele>374</ele>
        <time>2015-01-10T08:34:24.00Z</time>
      </trkpt>
      <trkpt lat="43.70256" lon="7.08476">
        <ele>374</ele>
        <time>2015-01-10T08:34:29.00Z</time>
      </trkpt>
      <trkpt lat="43.70267" lon="7.08473">
        <ele>373</ele>
        <time>2015-01-10T08:34:33.00Z</time>
      </trkpt>
      <trkpt lat="43.70277" lon="7.08474">
        <ele>375</ele>
        <time>2015-01-10T08:34:37.00Z</time>
      </trkpt>
      <trkpt lat="43.70286" lon="7.08475">
        <ele>374</ele>
        <time>2015-01-10T08:34:40.00Z</time>
      </trkpt>
      <trkpt lat="43.70296" lon="7.08479">
        <ele>373</ele>
        <time>2015-01-10T08:34:43.00Z</time>
      </trkpt>
      <trkpt lat="43.70307" lon="7.08478">
        <ele>372</ele>
        <time>2015-01-10T08:34:46.00Z</time>
      </trkpt>
      <trkpt lat="43.70319" lon="7.08478">
        <ele>372</ele>
        <time>2015-01-10T08:34:49.00Z</time>
      </trkpt>
      <trkpt lat="43.70327" lon="7.08483">
        <ele>373</ele>
        <time>2015-01-10T08:34:53.00Z</time>
      </trkpt>
      <trkpt lat="43.70337" lon="7.08484">
        <ele>369</ele>
        <time>2015-01-10T08:35:05.00Z</time>
      </trkpt>
      <trkpt lat="43.70347" lon="7.08486">
        <ele>369</ele>
        <time>2015-01-10T08:35:08.00Z</time>
      </trkpt>
      <trkpt lat="43.70353" lon="7.08494">
        <ele>368</ele>
        <time>2015-01-10T08:35:11.00Z</time>
      </trkpt>
      <trkpt lat="43.70347" lon="7.08504">
        <ele>366</ele>
        <time>2015-01-10T08:35:21.00Z</time>
      </trkpt>
      <trkpt lat="43.70339" lon="7.08496">
        <ele>367</ele>
        <time>2015-01-10T08:35:25.00Z</time>
      </trkpt>
      <trkpt lat="43.70334" lon="7.08484">
        <ele>368</ele>
        <time>2015-01-10T08:35:30.00Z</time>
      </trkpt>
      <trkpt lat="43.70332" lon="7.08471">
        <ele>368</ele>
        <time>2015-01-10T08:35:35.00Z</time>
      </trkpt>
      <trkpt lat="43.70332" lon="7.08458">
        <ele>369</ele>
        <time>2015-01-10T08:35:38.00Z</time>
      </trkpt>
      <trkpt lat="43.70329" lon="7.08446">
        <ele>369</ele>
        <time>2015-01-10T08:35:41.00Z</time>
      </trkpt>
      <trkpt lat="43.70328" lon="7.08432">
        <ele>368</ele>
        <time>2015-01-10T08:35:45.00Z</time>
      </trkpt>
      <trkpt lat="43.70337" lon="7.08422">
        <ele>368</ele>
        <time>2015-01-10T08:35:49.00Z</time>
      </trkpt>
      <trkpt lat="43.70344" lon="7.08413">
        <ele>369</ele>
        <time>2015-01-10T08:35:52.00Z</time>
      </trkpt>
      <trkpt lat="43.70349" lon="7.08397">
        <ele>369</ele>
        <time>2015-01-10T08:35:55.00Z</time>
      </trkpt>
      <trkpt lat="43.70351" lon="7.08381">
        <ele>367</ele>
        <time>2015-01-10T08:35:58.00Z</time>
      </trkpt>
      <trkpt lat="43.7035" lon="7.08367">
        <ele>366</ele>
        <time>2015-01-10T08:36:01.00Z</time>
      </trkpt>
      <trkpt lat="43.7036" lon="7.08359">
        <ele>365</ele>
        <time>2015-01-10T08:36:05.00Z</time>
      </trkpt>
      <trkpt lat="43.70368" lon="7.0835">
        <ele>363</ele>
        <time>2015-01-10T08:36:08.00Z</time>
      </trkpt>
      <trkpt lat="43.70372" lon="7.08339">
        <ele>360</ele>
        <time>2015-01-10T08:36:11.00Z</time>
      </trkpt>
      <trkpt lat="43.70369" lon="7.08327">
        <ele>359</ele>
        <time>2015-01-10T08:36:14.00Z</time>
      </trkpt>
      <trkpt lat="43.70363" lon="7.08315">
        <ele>358</ele>
        <time>2015-01-10T08:36:17.00Z</time>
      </trkpt>
      <trkpt lat="43.70361" lon="7.08299">
        <ele>355</ele>
        <time>2015-01-10T08:36:27.00Z</time>
      </trkpt>
      <trkpt lat="43.7036" lon="7.08284">
        <ele>355</ele>
        <time>2015-01-10T08:36:30.00Z</time>
      </trkpt>
      <trkpt lat="43.70363" lon="7.08268">
        <ele>352</ele>
        <time>2015-01-10T08:36:33.00Z</time>
      </trkpt>
      <trkpt lat="43.70366" lon="7.08253">
        <ele>350</ele>
        <time>2015-01-10T08:36:36.00Z</time>
      </trkpt>
      <trkpt lat="43.70371" lon="7.0824">
        <ele>347</ele>
        <time>2015-01-10T08:36:39.00Z</time>
      </trkpt>
      <trkpt lat="43.70375" lon="7.08226">
        <ele>344</ele>
        <time>2015-01-10T08:36:42.00Z</time>
      </trkpt>
      <trkpt lat="43.70377" lon="7.08213">
        <ele>344</ele>
        <time>2015-01-10T08:36:45.00Z</time>
      </trkpt>
      <trkpt lat="43.70384" lon="7.08203">
        <ele>341</ele>
        <time>2015-01-10T08:36:48.00Z</time>
      </trkpt>
      <trkpt lat="43.7039" lon="7.08193">
        <ele>340</ele>
        <time>2015-01-10T08:36:51.00Z</time>
      </trkpt>
      <trkpt lat="43.70392" lon="7.08179">
        <ele>337</ele>
        <time>2015-01-10T08:36:55.00Z</time>
      </trkpt>
      <trkpt lat="43.70397" lon="7.08166">
        <ele>336</ele>
        <time>2015-01-10T08:36:58.00Z</time>
      </trkpt>
      <trkpt lat="43.70402" lon="7.08154">
        <ele>333</ele>
        <time>2015-01-10T08:37:01.00Z</time>
      </trkpt>
      <trkpt lat="43.70405" lon="7.08139">
        <ele>325</ele>
        <time>2015-01-10T08:37:05.00Z</time>
      </trkpt>
      <trkpt lat="43.70404" lon="7.08126">
        <ele>324</ele>
        <time>2015-01-10T08:37:08.00Z</time>
      </trkpt>
      <trkpt lat="43.70403" lon="7.08114">
        <ele>320</ele>
        <time>2015-01-10T08:37:11.00Z</time>
      </trkpt>
      <trkpt lat="43.70402" lon="7.08101">
        <ele>316</ele>
        <time>2015-01-10T08:37:15.00Z</time>
      </trkpt>
      <trkpt lat="43.70403" lon="7.08086">
        <ele>313</ele>
        <time>2015-01-10T08:37:19.00Z</time>
      </trkpt>
      <trkpt lat="43.704" lon="7.08073">
        <ele>311</ele>
        <time>2015-01-10T08:37:23.00Z</time>
      </trkpt>
      <trkpt lat="43.7041" lon="7.08077">
        <ele>306</ele>
        <time>2015-01-10T08:37:29.00Z</time>
      </trkpt>
      <trkpt lat="43.70414" lon="7.08065">
        <ele>299</ele>
        <time>2015-01-10T08:37:42.00Z</time>
      </trkpt>
      <trkpt lat="43.70409" lon="7.08052">
        <ele>294</ele>
        <time>2015-01-10T08:37:47.00Z</time>
      </trkpt>
      <trkpt lat="43.70419" lon="7.08048">
        <ele>292</ele>
        <time>2015-01-10T08:38:21.00Z</time>
      </trkpt>
      <trkpt lat="43.70429" lon="7.0805">
        <ele>288</ele>
        <time>2015-01-10T08:38:25.00Z</time>
      </trkpt>
      <trkpt lat="43.70438" lon="7.08051">
        <ele>286</ele>
        <time>2015-01-10T08:38:29.00Z</time>
      </trkpt>
      <trkpt lat="43.70431" lon="7.08042">
        <ele>284</ele>
        <time>2015-01-10T08:38:44.00Z</time>
      </trkpt>
      <trkpt lat="43.7044" lon="7.08037">
        <ele>283</ele>
        <time>2015-01-10T08:38:51.00Z</time>
      </trkpt>
      <trkpt lat="43.70449" lon="7.08029">
        <ele>278</ele>
        <time>2015-01-10T08:38:56.00Z</time>
      </trkpt>
      <trkpt lat="43.70457" lon="7.08021">
        <ele>278</ele>
        <time>2015-01-10T08:39:01.00Z</time>
      </trkpt>
      <trkpt lat="43.70465" lon="7.08011">
        <ele>276</ele>
        <time>2015-01-10T08:39:18.00Z</time>
      </trkpt>
      <trkpt lat="43.70468" lon="7.08">
        <ele>274</ele>
        <time>2015-01-10T08:39:32.00Z</time>
      </trkpt>
      <trkpt lat="43.70475" lon="7.07991">
        <ele>270</ele>
        <time>2015-01-10T08:39:48.00Z</time>
      </trkpt>
      <trkpt lat="43.70483" lon="7.07983">
        <ele>266</ele>
        <time>2015-01-10T08:40:00.00Z</time>
      </trkpt>
      <trkpt lat="43.70494" lon="7.07977">
        <ele>264</ele>
        <time>2015-01-10T08:40:27.00Z</time>
      </trkpt>
      <trkpt lat="43.70504" lon="7.07973">
        <ele>261</ele>
        <time>2015-01-10T08:40:32.00Z</time>
      </trkpt>
      <trkpt lat="43.70514" lon="7.07969">
        <ele>258</ele>
        <time>2015-01-10T08:40:37.00Z</time>
      </trkpt>
      <trkpt lat="43.70524" lon="7.0797">
        <ele>258</ele>
        <time>2015-01-10T08:40:41.00Z</time>
      </trkpt>
      <trkpt lat="43.70532" lon="7.07964">
        <ele>254</ele>
        <time>2015-01-10T08:40:45.00Z</time>
      </trkpt>
      <trkpt lat="43.70541" lon="7.07961">
        <ele>252</ele>
        <time>2015-01-10T08:40:49.00Z</time>
      </trkpt>
      <trkpt lat="43.7055" lon="7.07957">
        <ele>254</ele>
        <time>2015-01-10T08:41:17.00Z</time>
      </trkpt>
      <trkpt lat="43.70551" lon="7.07944">
        <ele>259</ele>
        <time>2015-01-10T08:41:51.00Z</time>
      </trkpt>
      <trkpt lat="43.70559" lon="7.07939">
        <ele>261</ele>
        <time>2015-01-10T08:42:04.00Z</time>
      </trkpt>
      <trkpt lat="43.70567" lon="7.07933">
        <ele>261</ele>
        <time>2015-01-10T08:42:16.00Z</time>
      </trkpt>
      <trkpt lat="43.70577" lon="7.07929">
        <ele>263</ele>
        <time>2015-01-10T08:42:30.00Z</time>
      </trkpt>
      <trkpt lat="43.70585" lon="7.07924">
        <ele>264</ele>
        <time>2015-01-10T08:42:55.00Z</time>
      </trkpt>
      <trkpt lat="43.70592" lon="7.07916">
        <ele>266</ele>
        <time>2015-01-10T08:43:05.00Z</time>
      </trkpt>
      <trkpt lat="43.70599" lon="7.07908">
        <ele>269</ele>
        <time>2015-01-10T08:43:18.00Z</time>
      </trkpt>
      <trkpt lat="43.70606" lon="7.07899">
        <ele>272</ele>
        <time>2015-01-10T08:43:34.00Z</time>
      </trkpt>
      <trkpt lat="43.70614" lon="7.07892">
        <ele>274</ele>
        <time>2015-01-10T08:43:47.00Z</time>
      </trkpt>
      <trkpt lat="43.70622" lon="7.07885">
        <ele>282</ele>
        <time>2015-01-10T08:44:12.00Z</time>
      </trkpt>
      <trkpt lat="43.70628" lon="7.07875">
        <ele>279</ele>
        <time>2015-01-10T08:45:01.00Z</time>
      </trkpt>
      <trkpt lat="43.70636" lon="7.07866">
        <ele>281</ele>
        <time>2015-01-10T08:45:10.00Z</time>
      </trkpt>
      <trkpt lat="43.70644" lon="7.07858">
        <ele>285</ele>
        <time>2015-01-10T08:45:15.00Z</time>
      </trkpt>
      <trkpt lat="43.70654" lon="7.07853">
        <ele>287</ele>
        <time>2015-01-10T08:45:28.00Z</time>
      </trkpt>
      <trkpt lat="43.70662" lon="7.07848">
        <ele>289</ele>
        <time>2015-01-10T08:45:35.00Z</time>
      </trkpt>
      <trkpt lat="43.70671" lon="7.07841">
        <ele>292</ele>
        <time>2015-01-10T08:45:43.00Z</time>
      </trkpt>
      <trkpt lat="43.70681" lon="7.07838">
        <ele>294</ele>
        <time>2015-01-10T08:45:51.00Z</time>
      </trkpt>
      <trkpt lat="43.70689" lon="7.0783">
        <ele>291</ele>
        <time>2015-01-10T08:45:59.00Z</time>
      </trkpt>
      <trkpt lat="43.70699" lon="7.07822">
        <ele>293</ele>
        <time>2015-01-10T08:46:03.00Z</time>
      </trkpt>
      <trkpt lat="43.70709" lon="7.07813">
        <ele>294</ele>
        <time>2015-01-10T08:46:07.00Z</time>
      </trkpt>
      <trkpt lat="43.70717" lon="7.07807">
        <ele>297</ele>
        <time>2015-01-10T08:46:11.00Z</time>
      </trkpt>
      <trkpt lat="43.70725" lon="7.07801">
        <ele>295</ele>
        <time>2015-01-10T08:46:15.00Z</time>
      </trkpt>
      <trkpt lat="43.70733" lon="7.07796">
        <ele>295</ele>
        <time>2015-01-10T08:46:19.00Z</time>
      </trkpt>
      <trkpt lat="43.7074" lon="7.07788">
        <ele>299</ele>
        <time>2015-01-10T08:46:24.00Z</time>
      </trkpt>
      <trkpt lat="43.70748" lon="7.07781">
        <ele>300</ele>
        <time>2015-01-10T08:46:33.00Z</time>
      </trkpt>
      <trkpt lat="43.70745" lon="7.07769">
        <ele>304</ele>
        <time>2015-01-10T08:47:03.00Z</time>
      </trkpt>
      <trkpt lat="43.70736" lon="7.07765">
        <ele>305</ele>
        <time>2015-01-10T08:47:33.00Z</time>
      </trkpt>
      <trkpt lat="43.70726" lon="7.07768">
        <ele>307</ele>
        <time>2015-01-10T08:47:43.00Z</time>
      </trkpt>
      <trkpt lat="43.70728" lon="7.07754">
        <ele>314</ele>
        <time>2015-01-10T08:48:03.00Z</time>
      </trkpt>
      <trkpt lat="43.70732" lon="7.07743">
        <ele>321</ele>
        <time>2015-01-10T08:48:21.00Z</time>
      </trkpt>
      <trkpt lat="43.70738" lon="7.07733">
        <ele>321</ele>
        <time>2015-01-10T08:48:30.00Z</time>
      </trkpt>
      <trkpt lat="43.70727" lon="7.07734">
        <ele>321</ele>
        <time>2015-01-10T08:48:43.00Z</time>
      </trkpt>
      <trkpt lat="43.70726" lon="7.07721">
        <ele>326</ele>
        <time>2015-01-10T08:49:08.00Z</time>
      </trkpt>
      <trkpt lat="43.70733" lon="7.07713">
        <ele>329</ele>
        <time>2015-01-10T08:49:19.00Z</time>
      </trkpt>
      <trkpt lat="43.70738" lon="7.07702">
        <ele>330</ele>
        <time>2015-01-10T08:49:25.00Z</time>
      </trkpt>
      <trkpt lat="43.70744" lon="7.07691">
        <ele>331</ele>
        <time>2015-01-10T08:49:33.00Z</time>
      </trkpt>
      <trkpt lat="43.70753" lon="7.07682">
        <ele>333</ele>
        <time>2015-01-10T08:49:39.00Z</time>
      </trkpt>
      <trkpt lat="43.70762" lon="7.07673">
        <ele>332</ele>
        <time>2015-01-10T08:49:44.00Z</time>
      </trkpt>
      <trkpt lat="43.70769" lon="7.07666">
        <ele>332</ele>
        <time>2015-01-10T08:49:49.00Z</time>
      </trkpt>
      <trkpt lat="43.70777" lon="7.07657">
        <ele>333</ele>
        <time>2015-01-10T08:49:54.00Z</time>
      </trkpt>
      <trkpt lat="43.70785" lon="7.0765">
        <ele>334</ele>
        <time>2015-01-10T08:49:58.00Z</time>
      </trkpt>
      <trkpt lat="43.70792" lon="7.07642">
        <ele>334</ele>
        <time>2015-01-10T08:50:02.00Z</time>
      </trkpt>
      <trkpt lat="43.708" lon="7.07635">
        <ele>335</ele>
        <time>2015-01-10T08:50:06.00Z</time>
      </trkpt>
      <trkpt lat="43.70807" lon="7.07626">
        <ele>332</ele>
        <time>2015-01-10T08:50:31.00Z</time>
      </trkpt>
      <trkpt lat="43.70803" lon="7.07614">
        <ele>329</ele>
        <time>2015-01-10T08:50:55.00Z</time>
      </trkpt>
      <trkpt lat="43.70798" lon="7.07602">
        <ele>330</ele>
        <time>2015-01-10T08:51:03.00Z</time>
      </trkpt>
      <trkpt lat="43.70799" lon="7.0759">
        <ele>335</ele>
        <time>2015-01-10T08:51:13.00Z</time>
      </trkpt>
      <trkpt lat="43.70802" lon="7.07578">
        <ele>339</ele>
        <time>2015-01-10T08:51:25.00Z</time>
      </trkpt>
      <trkpt lat="43.70809" lon="7.07569">
        <ele>342</ele>
        <time>2015-01-10T08:51:55.00Z</time>
      </trkpt>
      <trkpt lat="43.70816" lon="7.0756">
        <ele>343</ele>
        <time>2015-01-10T08:52:02.00Z</time>
      </trkpt>
      <trkpt lat="43.70824" lon="7.07552">
        <ele>345</ele>
        <time>2015-01-10T08:52:09.00Z</time>
      </trkpt>
      <trkpt lat="43.70833" lon="7.07545">
        <ele>345</ele>
        <time>2015-01-10T08:52:16.00Z</time>
      </trkpt>
      <trkpt lat="43.7084" lon="7.07536">
        <ele>345</ele>
        <time>2015-01-10T08:52:23.00Z</time>
      </trkpt>
      <trkpt lat="43.70848" lon="7.07527">
        <ele>345</ele>
        <time>2015-01-10T08:52:29.00Z</time>
      </trkpt>
      <trkpt lat="43.70856" lon="7.07519">
        <ele>344</ele>
        <time>2015-01-10T08:52:35.00Z</time>
      </trkpt>
      <trkpt lat="43.70861" lon="7.07509">
        <ele>343</ele>
        <time>2015-01-10T08:52:45.00Z</time>
      </trkpt>
      <trkpt lat="43.70868" lon="7.075">
        <ele>342</ele>
        <time>2015-01-10T08:53:43.00Z</time>
      </trkpt>
      <trkpt lat="43.70863" lon="7.07511">
        <ele>343</ele>
        <time>2015-01-10T08:53:53.00Z</time>
      </trkpt>
      <trkpt lat="43.70868" lon="7.075">
        <ele>344</ele>
        <time>2015-01-10T08:54:14.00Z</time>
      </trkpt>
      <trkpt lat="43.70878" lon="7.07498">
        <ele>345</ele>
        <time>2015-01-10T08:54:19.00Z</time>
      </trkpt>
      <trkpt lat="43.70886" lon="7.07492">
        <ele>345</ele>
        <time>2015-01-10T08:54:24.00Z</time>
      </trkpt>
      <trkpt lat="43.70894" lon="7.07486">
        <ele>346</ele>
        <time>2015-01-10T08:54:28.00Z</time>
      </trkpt>
      <trkpt lat="43.70902" lon="7.07479">
        <ele>346</ele>
        <time>2015-01-10T08:54:32.00Z</time>
      </trkpt>
      <trkpt lat="43.70911" lon="7.07473">
        <ele>346</ele>
        <time>2015-01-10T08:54:36.00Z</time>
      </trkpt>
      <trkpt lat="43.70922" lon="7.07469">
        <ele>346</ele>
        <time>2015-01-10T08:54:40.00Z</time>
      </trkpt>
      <trkpt lat="43.70931" lon="7.07463">
        <ele>347</ele>
        <time>2015-01-10T08:54:44.00Z</time>
      </trkpt>
      <trkpt lat="43.7094" lon="7.07455">
        <ele>347</ele>
        <time>2015-01-10T08:54:48.00Z</time>
      </trkpt>
      <trkpt lat="43.70948" lon="7.07447">
        <ele>348</ele>
        <time>2015-01-10T08:54:52.00Z</time>
      </trkpt>
      <trkpt lat="43.70957" lon="7.07438">
        <ele>348</ele>
        <time>2015-01-10T08:54:56.00Z</time>
      </trkpt>
      <trkpt lat="43.70965" lon="7.07428">
        <ele>349</ele>
        <time>2015-01-10T08:55:00.00Z</time>
      </trkpt>
      <trkpt lat="43.70974" lon="7.07418">
        <ele>349</ele>
        <time>2015-01-10T08:55:04.00Z</time>
      </trkpt>
      <trkpt lat="43.70984" lon="7.07412">
        <ele>350</ele>
        <time>2015-01-10T08:55:08.00Z</time>
      </trkpt>
      <trkpt lat="43.70994" lon="7.07404">
        <ele>351</ele>
        <time>2015-01-10T08:55:12.00Z</time>
      </trkpt>
      <trkpt lat="43.71003" lon="7.07398">
        <ele>352</ele>
        <time>2015-01-10T08:55:15.00Z</time>
      </trkpt>
      <trkpt lat="43.71011" lon="7.07391">
        <ele>352</ele>
        <time>2015-01-10T08:55:18.00Z</time>
      </trkpt>
      <trkpt lat="43.71019" lon="7.07384">
        <ele>353</ele>
        <time>2015-01-10T08:55:21.00Z</time>
      </trkpt>
      <trkpt lat="43.71027" lon="7.07378">
        <ele>353</ele>
        <time>2015-01-10T08:55:24.00Z</time>
      </trkpt>
      <trkpt lat="43.71037" lon="7.07369">
        <ele>354</ele>
        <time>2015-01-10T08:55:28.00Z</time>
      </trkpt>
      <trkpt lat="43.71045" lon="7.07363">
        <ele>354</ele>
        <time>2015-01-10T08:55:31.00Z</time>
      </trkpt>
      <trkpt lat="43.71053" lon="7.07358">
        <ele>354</ele>
        <time>2015-01-10T08:55:34.00Z</time>
      </trkpt>
      <trkpt lat="43.71062" lon="7.07353">
        <ele>355</ele>
        <time>2015-01-10T08:55:37.00Z</time>
      </trkpt>
      <trkpt lat="43.71071" lon="7.0735">
        <ele>355</ele>
        <time>2015-01-10T08:55:40.00Z</time>
      </trkpt>
      <trkpt lat="43.71079" lon="7.07345">
        <ele>356</ele>
        <time>2015-01-10T08:55:43.00Z</time>
      </trkpt>
      <trkpt lat="43.71088" lon="7.0734">
        <ele>356</ele>
        <time>2015-01-10T08:55:46.00Z</time>
      </trkpt>
      <trkpt lat="43.71097" lon="7.07335">
        <ele>356</ele>
        <time>2015-01-10T08:55:49.00Z</time>
      </trkpt>
      <trkpt lat="43.71106" lon="7.0733">
        <ele>356</ele>
        <time>2015-01-10T08:55:52.00Z</time>
      </trkpt>
      <trkpt lat="43.71114" lon="7.07325">
        <ele>356</ele>
        <time>2015-01-10T08:55:55.00Z</time>
      </trkpt>
      <trkpt lat="43.71122" lon="7.07319">
        <ele>356</ele>
        <time>2015-01-10T08:55:58.00Z</time>
      </trkpt>
      <trkpt lat="43.7113" lon="7.07312">
        <ele>357</ele>
        <time>2015-01-10T08:56:01.00Z</time>
      </trkpt>
      <trkpt lat="43.71133" lon="7.07297">
        <ele>357</ele>
        <time>2015-01-10T08:56:05.00Z</time>
      </trkpt>
      <trkpt lat="43.71127" lon="7.07283">
        <ele>357</ele>
        <time>2015-01-10T08:56:09.00Z</time>
      </trkpt>
      <trkpt lat="43.71122" lon="7.0727">
        <ele>356</ele>
        <time>2015-01-10T08:56:12.00Z</time>
      </trkpt>
      <trkpt lat="43.71124" lon="7.07256">
        <ele>356</ele>
        <time>2015-01-10T08:56:15.00Z</time>
      </trkpt>
      <trkpt lat="43.7113" lon="7.07246">
        <ele>356</ele>
        <time>2015-01-10T08:56:18.00Z</time>
      </trkpt>
      <trkpt lat="43.71135" lon="7.07232">
        <ele>356</ele>
        <time>2015-01-10T08:56:22.00Z</time>
      </trkpt>
      <trkpt lat="43.7114" lon="7.07218">
        <ele>356</ele>
        <time>2015-01-10T08:56:26.00Z</time>
      </trkpt>
      <trkpt lat="43.71144" lon="7.07203">
        <ele>356</ele>
        <time>2015-01-10T08:56:30.00Z</time>
      </trkpt>
      <trkpt lat="43.71148" lon="7.07187">
        <ele>356</ele>
        <time>2015-01-10T08:56:34.00Z</time>
      </trkpt>
      <trkpt lat="43.71152" lon="7.07175">
        <ele>356</ele>
        <time>2015-01-10T08:56:37.00Z</time>
      </trkpt>
      <trkpt lat="43.71156" lon="7.07164">
        <ele>357</ele>
        <time>2015-01-10T08:56:40.00Z</time>
      </trkpt>
      <trkpt lat="43.71162" lon="7.0715">
        <ele>358</ele>
        <time>2015-01-10T08:56:44.00Z</time>
      </trkpt>
      <trkpt lat="43.71168" lon="7.0714">
        <ele>359</ele>
        <time>2015-01-10T08:56:47.00Z</time>
      </trkpt>
      <trkpt lat="43.71174" lon="7.07131">
        <ele>360</ele>
        <time>2015-01-10T08:56:50.00Z</time>
      </trkpt>
      <trkpt lat="43.71183" lon="7.07122">
        <ele>363</ele>
        <time>2015-01-10T08:56:54.00Z</time>
      </trkpt>
      <trkpt lat="43.71193" lon="7.07115">
        <ele>364</ele>
        <time>2015-01-10T08:56:58.00Z</time>
      </trkpt>
      <trkpt lat="43.71203" lon="7.07105">
        <ele>365</ele>
        <time>2015-01-10T08:57:02.00Z</time>
      </trkpt>
      <trkpt lat="43.71211" lon="7.07094">
        <ele>366</ele>
        <time>2015-01-10T08:57:06.00Z</time>
      </trkpt>
      <trkpt lat="43.71218" lon="7.07085">
        <ele>367</ele>
        <time>2015-01-10T08:57:09.00Z</time>
      </trkpt>
      <trkpt lat="43.71225" lon="7.07076">
        <ele>366</ele>
        <time>2015-01-10T08:57:12.00Z</time>
      </trkpt>
      <trkpt lat="43.71232" lon="7.07067">
        <ele>366</ele>
        <time>2015-01-10T08:57:15.00Z</time>
      </trkpt>
      <trkpt lat="43.7124" lon="7.07061">
        <ele>367</ele>
        <time>2015-01-10T08:57:18.00Z</time>
      </trkpt>
      <trkpt lat="43.71251" lon="7.07058">
        <ele>368</ele>
        <time>2015-01-10T08:57:22.00Z</time>
      </trkpt>
      <trkpt lat="43.71262" lon="7.07057">
        <ele>369</ele>
        <time>2015-01-10T08:57:26.00Z</time>
      </trkpt>
      <trkpt lat="43.71272" lon="7.07058">
        <ele>369</ele>
        <time>2015-01-10T08:57:30.00Z</time>
      </trkpt>
      <trkpt lat="43.71281" lon="7.07061">
        <ele>370</ele>
        <time>2015-01-10T08:57:34.00Z</time>
      </trkpt>
      <trkpt lat="43.7129" lon="7.07064">
        <ele>370</ele>
        <time>2015-01-10T08:57:38.00Z</time>
      </trkpt>
      <trkpt lat="43.71299" lon="7.07067">
        <ele>371</ele>
        <time>2015-01-10T08:57:42.00Z</time>
      </trkpt>
      <trkpt lat="43.71309" lon="7.07069">
        <ele>372</ele>
        <time>2015-01-10T08:57:46.00Z</time>
      </trkpt>
      <trkpt lat="43.71318" lon="7.07071">
        <ele>372</ele>
        <time>2015-01-10T08:57:50.00Z</time>
      </trkpt>
      <trkpt lat="43.71328" lon="7.07071">
        <ele>374</ele>
        <time>2015-01-10T08:57:54.00Z</time>
      </trkpt>
      <trkpt lat="43.71337" lon="7.07072">
        <ele>375</ele>
        <time>2015-01-10T08:57:58.00Z</time>
      </trkpt>
      <trkpt lat="43.71347" lon="7.07076">
        <ele>376</ele>
        <time>2015-01-10T08:58:03.00Z</time>
      </trkpt>
      <trkpt lat="43.71357" lon="7.07077">
        <ele>378</ele>
        <time>2015-01-10T08:58:07.00Z</time>
      </trkpt>
      <trkpt lat="43.71367" lon="7.0708">
        <ele>379</ele>
        <time>2015-01-10T08:58:12.00Z</time>
      </trkpt>
      <trkpt lat="43.71376" lon="7.07085">
        <ele>380</ele>
        <time>2015-01-10T08:58:19.00Z</time>
      </trkpt>
      <trkpt lat="43.71376" lon="7.07097">
        <ele>382</ele>
        <time>2015-01-10T08:59:40.00Z</time>
      </trkpt>
      <trkpt lat="43.71378" lon="7.07113">
        <ele>384</ele>
        <time>2015-01-10T09:00:27.00Z</time>
      </trkpt>
      <trkpt lat="43.71378" lon="7.07128">
        <ele>384</ele>
        <time>2015-01-10T09:00:31.00Z</time>
      </trkpt>
      <trkpt lat="43.71379" lon="7.07143">
        <ele>384</ele>
        <time>2015-01-10T09:00:35.00Z</time>
      </trkpt>
      <trkpt lat="43.7138" lon="7.07156">
        <ele>383</ele>
        <time>2015-01-10T09:00:38.00Z</time>
      </trkpt>
      <trkpt lat="43.71383" lon="7.07169">
        <ele>383</ele>
        <time>2015-01-10T09:00:41.00Z</time>
      </trkpt>
      <trkpt lat="43.71385" lon="7.07181">
        <ele>382</ele>
        <time>2015-01-10T09:00:44.00Z</time>
      </trkpt>
      <trkpt lat="43.71388" lon="7.07193">
        <ele>381</ele>
        <time>2015-01-10T09:00:47.00Z</time>
      </trkpt>
      <trkpt lat="43.71392" lon="7.07207">
        <ele>381</ele>
        <time>2015-01-10T09:00:50.00Z</time>
      </trkpt>
      <trkpt lat="43.71397" lon="7.07222">
        <ele>381</ele>
        <time>2015-01-10T09:00:53.00Z</time>
      </trkpt>
      <trkpt lat="43.71402" lon="7.07235">
        <ele>382</ele>
        <time>2015-01-10T09:00:56.00Z</time>
      </trkpt>
      <trkpt lat="43.71407" lon="7.07247">
        <ele>382</ele>
        <time>2015-01-10T09:00:59.00Z</time>
      </trkpt>
      <trkpt lat="43.71413" lon="7.07259">
        <ele>381</ele>
        <time>2015-01-10T09:01:02.00Z</time>
      </trkpt>
      <trkpt lat="43.7142" lon="7.07271">
        <ele>381</ele>
        <time>2015-01-10T09:01:05.00Z</time>
      </trkpt>
      <trkpt lat="43.71426" lon="7.07284">
        <ele>382</ele>
        <time>2015-01-10T09:01:08.00Z</time>
      </trkpt>
      <trkpt lat="43.71433" lon="7.07297">
        <ele>383</ele>
        <time>2015-01-10T09:01:11.00Z</time>
      </trkpt>
      <trkpt lat="43.7144" lon="7.07309">
        <ele>383</ele>
        <time>2015-01-10T09:01:14.00Z</time>
      </trkpt>
      <trkpt lat="43.71448" lon="7.0732">
        <ele>384</ele>
        <time>2015-01-10T09:01:17.00Z</time>
      </trkpt>
      <trkpt lat="43.71456" lon="7.07331">
        <ele>384</ele>
        <time>2015-01-10T09:01:20.00Z</time>
      </trkpt>
      <trkpt lat="43.71466" lon="7.07339">
        <ele>384</ele>
        <time>2015-01-10T09:01:23.00Z</time>
      </trkpt>
      <trkpt lat="43.71477" lon="7.07346">
        <ele>384</ele>
        <time>2015-01-10T09:01:26.00Z</time>
      </trkpt>
      <trkpt lat="43.71488" lon="7.07353">
        <ele>383</ele>
        <time>2015-01-10T09:01:29.00Z</time>
      </trkpt>
      <trkpt lat="43.71499" lon="7.07358">
        <ele>383</ele>
        <time>2015-01-10T09:01:32.00Z</time>
      </trkpt>
      <trkpt lat="43.7151" lon="7.07362">
        <ele>384</ele>
        <time>2015-01-10T09:01:35.00Z</time>
      </trkpt>
      <trkpt lat="43.7152" lon="7.07365">
        <ele>384</ele>
        <time>2015-01-10T09:01:38.00Z</time>
      </trkpt>
      <trkpt lat="43.71531" lon="7.07367">
        <ele>385</ele>
        <time>2015-01-10T09:01:41.00Z</time>
      </trkpt>
      <trkpt lat="43.71541" lon="7.0737">
        <ele>387</ele>
        <time>2015-01-10T09:01:44.00Z</time>
      </trkpt>
      <trkpt lat="43.71552" lon="7.07372">
        <ele>388</ele>
        <time>2015-01-10T09:01:47.00Z</time>
      </trkpt>
      <trkpt lat="43.71564" lon="7.07375">
        <ele>387</ele>
        <time>2015-01-10T09:01:50.00Z</time>
      </trkpt>
      <trkpt lat="43.71576" lon="7.07379">
        <ele>387</ele>
        <time>2015-01-10T09:01:53.00Z</time>
      </trkpt>
      <trkpt lat="43.71587" lon="7.07383">
        <ele>388</ele>
        <time>2015-01-10T09:01:56.00Z</time>
      </trkpt>
      <trkpt lat="43.71599" lon="7.07389">
        <ele>388</ele>
        <time>2015-01-10T09:01:59.00Z</time>
      </trkpt>
      <trkpt lat="43.7161" lon="7.07396">
        <ele>388</ele>
        <time>2015-01-10T09:02:02.00Z</time>
      </trkpt>
      <trkpt lat="43.71621" lon="7.07404">
        <ele>389</ele>
        <time>2015-01-10T09:02:05.00Z</time>
      </trkpt>
      <trkpt lat="43.71631" lon="7.07412">
        <ele>389</ele>
        <time>2015-01-10T09:02:08.00Z</time>
      </trkpt>
      <trkpt lat="43.7164" lon="7.07422">
        <ele>389</ele>
        <time>2015-01-10T09:02:11.00Z</time>
      </trkpt>
      <trkpt lat="43.71649" lon="7.07432">
        <ele>390</ele>
        <time>2015-01-10T09:02:14.00Z</time>
      </trkpt>
      <trkpt lat="43.71657" lon="7.07443">
        <ele>390</ele>
        <time>2015-01-10T09:02:17.00Z</time>
      </trkpt>
      <trkpt lat="43.71665" lon="7.07454">
        <ele>391</ele>
        <time>2015-01-10T09:02:20.00Z</time>
      </trkpt>
      <trkpt lat="43.71672" lon="7.07465">
        <ele>391</ele>
        <time>2015-01-10T09:02:23.00Z</time>
      </trkpt>
      <trkpt lat="43.71678" lon="7.07478">
        <ele>390</ele>
        <time>2015-01-10T09:02:26.00Z</time>
      </trkpt>
      <trkpt lat="43.71684" lon="7.07492">
        <ele>390</ele>
        <time>2015-01-10T09:02:29.00Z</time>
      </trkpt>
      <trkpt lat="43.71689" lon="7.07508">
        <ele>388</ele>
        <time>2015-01-10T09:02:32.00Z</time>
      </trkpt>
      <trkpt lat="43.71692" lon="7.07524">
        <ele>388</ele>
        <time>2015-01-10T09:02:35.00Z</time>
      </trkpt>
      <trkpt lat="43.71696" lon="7.07535">
        <ele>388</ele>
        <time>2015-01-10T09:02:37.00Z</time>
      </trkpt>
      <trkpt lat="43.71701" lon="7.07551">
        <ele>387</ele>
        <time>2015-01-10T09:02:40.00Z</time>
      </trkpt>
      <trkpt lat="43.71706" lon="7.07567">
        <ele>386</ele>
        <time>2015-01-10T09:02:43.00Z</time>
      </trkpt>
      <trkpt lat="43.7171" lon="7.07579">
        <ele>386</ele>
        <time>2015-01-10T09:02:45.00Z</time>
      </trkpt>
      <trkpt lat="43.71714" lon="7.07595">
        <ele>386</ele>
        <time>2015-01-10T09:02:48.00Z</time>
      </trkpt>
      <trkpt lat="43.7172" lon="7.0761">
        <ele>389</ele>
        <time>2015-01-10T09:02:51.00Z</time>
      </trkpt>
      <trkpt lat="43.71725" lon="7.07627">
        <ele>388</ele>
        <time>2015-01-10T09:02:54.00Z</time>
      </trkpt>
      <trkpt lat="43.71731" lon="7.07642">
        <ele>388</ele>
        <time>2015-01-10T09:02:57.00Z</time>
      </trkpt>
      <trkpt lat="43.71738" lon="7.07657">
        <ele>389</ele>
        <time>2015-01-10T09:03:00.00Z</time>
      </trkpt>
      <trkpt lat="43.71743" lon="7.07668">
        <ele>390</ele>
        <time>2015-01-10T09:03:02.00Z</time>
      </trkpt>
      <trkpt lat="43.71752" lon="7.07682">
        <ele>390</ele>
        <time>2015-01-10T09:03:05.00Z</time>
      </trkpt>
      <trkpt lat="43.7176" lon="7.07692">
        <ele>390</ele>
        <time>2015-01-10T09:03:07.00Z</time>
      </trkpt>
      <trkpt lat="43.71767" lon="7.07699">
        <ele>389</ele>
        <time>2015-01-10T09:03:09.00Z</time>
      </trkpt>
      <trkpt lat="43.71775" lon="7.07707">
        <ele>390</ele>
        <time>2015-01-10T09:03:11.00Z</time>
      </trkpt>
      <trkpt lat="43.71783" lon="7.07715">
        <ele>390</ele>
        <time>2015-01-10T09:03:13.00Z</time>
      </trkpt>
      <trkpt lat="43.71791" lon="7.07722">
        <ele>390</ele>
        <time>2015-01-10T09:03:15.00Z</time>
      </trkpt>
      <trkpt lat="43.718" lon="7.07728">
        <ele>389</ele>
        <time>2015-01-10T09:03:17.00Z</time>
      </trkpt>
      <trkpt lat="43.7181" lon="7.07733">
        <ele>388</ele>
        <time>2015-01-10T09:03:19.00Z</time>
      </trkpt>
      <trkpt lat="43.7182" lon="7.07737">
        <ele>388</ele>
        <time>2015-01-10T09:03:21.00Z</time>
      </trkpt>
      <trkpt lat="43.7183" lon="7.0774">
        <ele>389</ele>
        <time>2015-01-10T09:03:23.00Z</time>
      </trkpt>
      <trkpt lat="43.71841" lon="7.07742">
        <ele>388</ele>
        <time>2015-01-10T09:03:25.00Z</time>
      </trkpt>
      <trkpt lat="43.71851" lon="7.07743">
        <ele>387</ele>
        <time>2015-01-10T09:03:27.00Z</time>
      </trkpt>
      <trkpt lat="43.71862" lon="7.07744">
        <ele>387</ele>
        <time>2015-01-10T09:03:29.00Z</time>
      </trkpt>
      <trkpt lat="43.71872" lon="7.07744">
        <ele>387</ele>
        <time>2015-01-10T09:03:31.00Z</time>
      </trkpt>
      <trkpt lat="43.71883" lon="7.07745">
        <ele>387</ele>
        <time>2015-01-10T09:03:33.00Z</time>
      </trkpt>
      <trkpt lat="43.71893" lon="7.07745">
        <ele>387</ele>
        <time>2015-01-10T09:03:35.00Z</time>
      </trkpt>
      <trkpt lat="43.71903" lon="7.07746">
        <ele>387</ele>
        <time>2015-01-10T09:03:37.00Z</time>
      </trkpt>
      <trkpt lat="43.71914" lon="7.07746">
        <ele>388</ele>
        <time>2015-01-10T09:03:39.00Z</time>
      </trkpt>
      <trkpt lat="43.71925" lon="7.07747">
        <ele>388</ele>
        <time>2015-01-10T09:03:41.00Z</time>
      </trkpt>
      <trkpt lat="43.71936" lon="7.07747">
        <ele>388</ele>
        <time>2015-01-10T09:03:43.00Z</time>
      </trkpt>
      <trkpt lat="43.71946" lon="7.07748">
        <ele>388</ele>
        <time>2015-01-10T09:03:45.00Z</time>
      </trkpt>
      <trkpt lat="43.71957" lon="7.07749">
        <ele>388</ele>
        <time>2015-01-10T09:03:47.00Z</time>
      </trkpt>
      <trkpt lat="43.71968" lon="7.07749">
        <ele>387</ele>
        <time>2015-01-10T09:03:49.00Z</time>
      </trkpt>
      <trkpt lat="43.71978" lon="7.07751">
        <ele>387</ele>
        <time>2015-01-10T09:03:51.00Z</time>
      </trkpt>
      <trkpt lat="43.71989" lon="7.07752">
        <ele>388</ele>
        <time>2015-01-10T09:03:53.00Z</time>
      </trkpt>
      <trkpt lat="43.71999" lon="7.07753">
        <ele>387</ele>
        <time>2015-01-10T09:03:55.00Z</time>
      </trkpt>
      <trkpt lat="43.7201" lon="7.07755">
        <ele>387</ele>
        <time>2015-01-10T09:03:57.00Z</time>
      </trkpt>
      <trkpt lat="43.7202" lon="7.07757">
        <ele>386</ele>
        <time>2015-01-10T09:03:59.00Z</time>
      </trkpt>
      <trkpt lat="43.72028" lon="7.07762">
        <ele>387</ele>
        <time>2015-01-10T09:04:01.00Z</time>
      </trkpt>
      <trkpt lat="43.72038" lon="7.07764">
        <ele>388</ele>
        <time>2015-01-10T09:04:03.00Z</time>
      </trkpt>
      <trkpt lat="43.7205" lon="7.07773">
        <ele>389</ele>
        <time>2015-01-10T09:04:06.00Z</time>
      </trkpt>
      <trkpt lat="43.72061" lon="7.07778">
        <ele>389</ele>
        <time>2015-01-10T09:04:08.00Z</time>
      </trkpt>
      <trkpt lat="43.72072" lon="7.07782">
        <ele>389</ele>
        <time>2015-01-10T09:04:10.00Z</time>
      </trkpt>
      <trkpt lat="43.72083" lon="7.07788">
        <ele>387</ele>
        <time>2015-01-10T09:04:12.00Z</time>
      </trkpt>
      <trkpt lat="43.72091" lon="7.07796">
        <ele>387</ele>
        <time>2015-01-10T09:04:14.00Z</time>
      </trkpt>
      <trkpt lat="43.72099" lon="7.07806">
        <ele>387</ele>
        <time>2015-01-10T09:04:16.00Z</time>
      </trkpt>
      <trkpt lat="43.72108" lon="7.07814">
        <ele>386</ele>
        <time>2015-01-10T09:04:18.00Z</time>
      </trkpt>
      <trkpt lat="43.72114" lon="7.07826">
        <ele>387</ele>
        <time>2015-01-10T09:04:20.00Z</time>
      </trkpt>
      <trkpt lat="43.72122" lon="7.0784">
        <ele>387</ele>
        <time>2015-01-10T09:04:23.00Z</time>
      </trkpt>
      <trkpt lat="43.72129" lon="7.0785">
        <ele>387</ele>
        <time>2015-01-10T09:04:25.00Z</time>
      </trkpt>
      <trkpt lat="43.72134" lon="7.07861">
        <ele>387</ele>
        <time>2015-01-10T09:04:27.00Z</time>
      </trkpt>
      <trkpt lat="43.72139" lon="7.07873">
        <ele>387</ele>
        <time>2015-01-10T09:04:29.00Z</time>
      </trkpt>
      <trkpt lat="43.72144" lon="7.07885">
        <ele>387</ele>
        <time>2015-01-10T09:04:31.00Z</time>
      </trkpt>
      <trkpt lat="43.72149" lon="7.07896">
        <ele>388</ele>
        <time>2015-01-10T09:04:33.00Z</time>
      </trkpt>
      <trkpt lat="43.72152" lon="7.07908">
        <ele>387</ele>
        <time>2015-01-10T09:04:35.00Z</time>
      </trkpt>
      <trkpt lat="43.72155" lon="7.07922">
        <ele>388</ele>
        <time>2015-01-10T09:04:37.00Z</time>
      </trkpt>
      <trkpt lat="43.72159" lon="7.07937">
        <ele>388</ele>
        <time>2015-01-10T09:04:39.00Z</time>
      </trkpt>
      <trkpt lat="43.72162" lon="7.07951">
        <ele>387</ele>
        <time>2015-01-10T09:04:41.00Z</time>
      </trkpt>
      <trkpt lat="43.72163" lon="7.07964">
        <ele>388</ele>
        <time>2015-01-10T09:04:43.00Z</time>
      </trkpt>
      <trkpt lat="43.72164" lon="7.07978">
        <ele>388</ele>
        <time>2015-01-10T09:04:45.00Z</time>
      </trkpt>
      <trkpt lat="43.72165" lon="7.07991">
        <ele>388</ele>
        <time>2015-01-10T09:04:47.00Z</time>
      </trkpt>
      <trkpt lat="43.72164" lon="7.08005">
        <ele>388</ele>
        <time>2015-01-10T09:04:49.00Z</time>
      </trkpt>
      <trkpt lat="43.72164" lon="7.08018">
        <ele>388</ele>
        <time>2015-01-10T09:04:51.00Z</time>
      </trkpt>
      <trkpt lat="43.72162" lon="7.08031">
        <ele>389</ele>
        <time>2015-01-10T09:04:53.00Z</time>
      </trkpt>
      <trkpt lat="43.72159" lon="7.08045">
        <ele>388</ele>
        <time>2015-01-10T09:04:55.00Z</time>
      </trkpt>
      <trkpt lat="43.72156" lon="7.08059">
        <ele>387</ele>
        <time>2015-01-10T09:04:57.00Z</time>
      </trkpt>
      <trkpt lat="43.72154" lon="7.08074">
        <ele>387</ele>
        <time>2015-01-10T09:04:59.00Z</time>
      </trkpt>
      <trkpt lat="43.7215" lon="7.08088">
        <ele>386</ele>
        <time>2015-01-10T09:05:01.00Z</time>
      </trkpt>
      <trkpt lat="43.72144" lon="7.08101">
        <ele>385</ele>
        <time>2015-01-10T09:05:03.00Z</time>
      </trkpt>
      <trkpt lat="43.7214" lon="7.08115">
        <ele>384</ele>
        <time>2015-01-10T09:05:05.00Z</time>
      </trkpt>
      <trkpt lat="43.72134" lon="7.08129">
        <ele>383</ele>
        <time>2015-01-10T09:05:07.00Z</time>
      </trkpt>
      <trkpt lat="43.72128" lon="7.08143">
        <ele>385</ele>
        <time>2015-01-10T09:05:09.00Z</time>
      </trkpt>
      <trkpt lat="43.72123" lon="7.08157">
        <ele>385</ele>
        <time>2015-01-10T09:05:11.00Z</time>
      </trkpt>
      <trkpt lat="43.72117" lon="7.0817">
        <ele>384</ele>
        <time>2015-01-10T09:05:13.00Z</time>
      </trkpt>
      <trkpt lat="43.72113" lon="7.08184">
        <ele>383</ele>
        <time>2015-01-10T09:05:15.00Z</time>
      </trkpt>
      <trkpt lat="43.72106" lon="7.08195">
        <ele>383</ele>
        <time>2015-01-10T09:05:17.00Z</time>
      </trkpt>
      <trkpt lat="43.72095" lon="7.08212">
        <ele>385</ele>
        <time>2015-01-10T09:05:20.00Z</time>
      </trkpt>
      <trkpt lat="43.72089" lon="7.08224">
        <ele>385</ele>
        <time>2015-01-10T09:05:22.00Z</time>
      </trkpt>
      <trkpt lat="43.72084" lon="7.08237">
        <ele>386</ele>
        <time>2015-01-10T09:05:24.00Z</time>
      </trkpt>
      <trkpt lat="43.72079" lon="7.0825">
        <ele>386</ele>
        <time>2015-01-10T09:05:26.00Z</time>
      </trkpt>
      <trkpt lat="43.72074" lon="7.08264">
        <ele>385</ele>
        <time>2015-01-10T09:05:28.00Z</time>
      </trkpt>
      <trkpt lat="43.7207" lon="7.08276">
        <ele>386</ele>
        <time>2015-01-10T09:05:30.00Z</time>
      </trkpt>
      <trkpt lat="43.72067" lon="7.08291">
        <ele>386</ele>
        <time>2015-01-10T09:05:32.00Z</time>
      </trkpt>
      <trkpt lat="43.72064" lon="7.08304">
        <ele>387</ele>
        <time>2015-01-10T09:05:34.00Z</time>
      </trkpt>
      <trkpt lat="43.72063" lon="7.0832">
        <ele>386</ele>
        <time>2015-01-10T09:05:36.00Z</time>
      </trkpt>
      <trkpt lat="43.72064" lon="7.08333">
        <ele>387</ele>
        <time>2015-01-10T09:05:38.00Z</time>
      </trkpt>
      <trkpt lat="43.72065" lon="7.08348">
        <ele>387</ele>
        <time>2015-01-10T09:05:40.00Z</time>
      </trkpt>
      <trkpt lat="43.72065" lon="7.08362">
        <ele>386</ele>
        <time>2015-01-10T09:05:42.00Z</time>
      </trkpt>
      <trkpt lat="43.72066" lon="7.08376">
        <ele>386</ele>
        <time>2015-01-10T09:05:44.00Z</time>
      </trkpt>
      <trkpt lat="43.72063" lon="7.0839">
        <ele>387</ele>
        <time>2015-01-10T09:05:46.00Z</time>
      </trkpt>
      <trkpt lat="43.72058" lon="7.08403">
        <ele>386</ele>
        <time>2015-01-10T09:05:48.00Z</time>
      </trkpt>
      <trkpt lat="43.72051" lon="7.08415">
        <ele>385</ele>
        <time>2015-01-10T09:05:50.00Z</time>
      </trkpt>
      <trkpt lat="43.7203" lon="7.08426">
        <ele>382</ele>
        <time>2015-01-10T09:05:53.00Z</time>
      </trkpt>
      <trkpt lat="43.72018" lon="7.08438">
        <ele>382</ele>
        <time>2015-01-10T09:05:55.00Z</time>
      </trkpt>
      <trkpt lat="43.72006" lon="7.08454">
        <ele>380</ele>
        <time>2015-01-10T09:05:57.00Z</time>
      </trkpt>
      <trkpt lat="43.71996" lon="7.08474">
        <ele>378</ele>
        <time>2015-01-10T09:05:59.00Z</time>
      </trkpt>
      <trkpt lat="43.7198" lon="7.08483">
        <ele>377</ele>
        <time>2015-01-10T09:06:01.00Z</time>
      </trkpt>
      <trkpt lat="43.71964" lon="7.08478">
        <ele>377</ele>
        <time>2015-01-10T09:06:03.00Z</time>
      </trkpt>
      <trkpt lat="43.71951" lon="7.08467">
        <ele>376</ele>
        <time>2015-01-10T09:06:05.00Z</time>
      </trkpt>
      <trkpt lat="43.71938" lon="7.08461">
        <ele>375</ele>
        <time>2015-01-10T09:06:07.00Z</time>
      </trkpt>
      <trkpt lat="43.71923" lon="7.08454">
        <ele>375</ele>
        <time>2015-01-10T09:06:09.00Z</time>
      </trkpt>
      <trkpt lat="43.71909" lon="7.08447">
        <ele>374</ele>
        <time>2015-01-10T09:06:11.00Z</time>
      </trkpt>
      <trkpt lat="43.71891" lon="7.08438">
        <ele>373</ele>
        <time>2015-01-10T09:06:13.00Z</time>
      </trkpt>
      <trkpt lat="43.71875" lon="7.08431">
        <ele>372</ele>
        <time>2015-01-10T09:06:15.00Z</time>
      </trkpt>
      <trkpt lat="43.71865" lon="7.08428">
        <ele>372</ele>
        <time>2015-01-10T09:06:16.00Z</time>
      </trkpt>
      <trkpt lat="43.71848" lon="7.08426">
        <ele>372</ele>
        <time>2015-01-10T09:06:18.00Z</time>
      </trkpt>
      <trkpt lat="43.71832" lon="7.08428">
        <ele>371</ele>
        <time>2015-01-10T09:06:20.00Z</time>
      </trkpt>
      <trkpt lat="43.71817" lon="7.08434">
        <ele>371</ele>
        <time>2015-01-10T09:06:22.00Z</time>
      </trkpt>
      <trkpt lat="43.71796" lon="7.08444">
        <ele>371</ele>
        <time>2015-01-10T09:06:25.00Z</time>
      </trkpt>
      <trkpt lat="43.71783" lon="7.0845">
        <ele>370</ele>
        <time>2015-01-10T09:06:27.00Z</time>
      </trkpt>
      <trkpt lat="43.7177" lon="7.08457">
        <ele>370</ele>
        <time>2015-01-10T09:06:29.00Z</time>
      </trkpt>
      <trkpt lat="43.71758" lon="7.08462">
        <ele>370</ele>
        <time>2015-01-10T09:06:31.00Z</time>
      </trkpt>
      <trkpt lat="43.71739" lon="7.08469">
        <ele>370</ele>
        <time>2015-01-10T09:06:34.00Z</time>
      </trkpt>
      <trkpt lat="43.71728" lon="7.08474">
        <ele>370</ele>
        <time>2015-01-10T09:06:36.00Z</time>
      </trkpt>
      <trkpt lat="43.71716" lon="7.08478">
        <ele>370</ele>
        <time>2015-01-10T09:06:38.00Z</time>
      </trkpt>
      <trkpt lat="43.71705" lon="7.08481">
        <ele>370</ele>
        <time>2015-01-10T09:06:40.00Z</time>
      </trkpt>
      <trkpt lat="43.71695" lon="7.08484">
        <ele>371</ele>
        <time>2015-01-10T09:06:42.00Z</time>
      </trkpt>
      <trkpt lat="43.71684" lon="7.08487">
        <ele>371</ele>
        <time>2015-01-10T09:06:44.00Z</time>
      </trkpt>
      <trkpt lat="43.71674" lon="7.08491">
        <ele>371</ele>
        <time>2015-01-10T09:06:46.00Z</time>
      </trkpt>
      <trkpt lat="43.71664" lon="7.08497">
        <ele>371</ele>
        <time>2015-01-10T09:06:48.00Z</time>
      </trkpt>
      <trkpt lat="43.71656" lon="7.08504">
        <ele>371</ele>
        <time>2015-01-10T09:06:50.00Z</time>
      </trkpt>
      <trkpt lat="43.71648" lon="7.08512">
        <ele>372</ele>
        <time>2015-01-10T09:06:52.00Z</time>
      </trkpt>
      <trkpt lat="43.7164" lon="7.08519">
        <ele>372</ele>
        <time>2015-01-10T09:06:54.00Z</time>
      </trkpt>
      <trkpt lat="43.71633" lon="7.08527">
        <ele>372</ele>
        <time>2015-01-10T09:06:56.00Z</time>
      </trkpt>
      <trkpt lat="43.71625" lon="7.08535">
        <ele>372</ele>
        <time>2015-01-10T09:06:58.00Z</time>
      </trkpt>
      <trkpt lat="43.71617" lon="7.08543">
        <ele>372</ele>
        <time>2015-01-10T09:07:00.00Z</time>
      </trkpt>
      <trkpt lat="43.71608" lon="7.0855">
        <ele>373</ele>
        <time>2015-01-10T09:07:02.00Z</time>
      </trkpt>
      <trkpt lat="43.716" lon="7.08558">
        <ele>372</ele>
        <time>2015-01-10T09:07:04.00Z</time>
      </trkpt>
      <trkpt lat="43.71591" lon="7.08566">
        <ele>372</ele>
        <time>2015-01-10T09:07:06.00Z</time>
      </trkpt>
      <trkpt lat="43.71582" lon="7.08575">
        <ele>371</ele>
        <time>2015-01-10T09:07:08.00Z</time>
      </trkpt>
      <trkpt lat="43.71573" lon="7.08584">
        <ele>371</ele>
        <time>2015-01-10T09:07:10.00Z</time>
      </trkpt>
      <trkpt lat="43.71564" lon="7.08592">
        <ele>371</ele>
        <time>2015-01-10T09:07:12.00Z</time>
      </trkpt>
      <trkpt lat="43.71555" lon="7.086">
        <ele>371</ele>
        <time>2015-01-10T09:07:14.00Z</time>
      </trkpt>
      <trkpt lat="43.71545" lon="7.08607">
        <ele>371</ele>
        <time>2015-01-10T09:07:16.00Z</time>
      </trkpt>
      <trkpt lat="43.71535" lon="7.08612">
        <ele>370</ele>
        <time>2015-01-10T09:07:18.00Z</time>
      </trkpt>
      <trkpt lat="43.71526" lon="7.08619">
        <ele>371</ele>
        <time>2015-01-10T09:07:20.00Z</time>
      </trkpt>
      <trkpt lat="43.71518" lon="7.08625">
        <ele>371</ele>
        <time>2015-01-10T09:07:22.00Z</time>
      </trkpt>
      <trkpt lat="43.71507" lon="7.08633">
        <ele>372</ele>
        <time>2015-01-10T09:07:25.00Z</time>
      </trkpt>
      <trkpt lat="43.71493" lon="7.08651">
        <ele>373</ele>
        <time>2015-01-10T09:07:29.00Z</time>
      </trkpt>
      <trkpt lat="43.71484" lon="7.08655">
        <ele>374</ele>
        <time>2015-01-10T09:07:31.00Z</time>
      </trkpt>
      <trkpt lat="43.71477" lon="7.08664">
        <ele>374</ele>
        <time>2015-01-10T09:07:33.00Z</time>
      </trkpt>
      <trkpt lat="43.71467" lon="7.08677">
        <ele>374</ele>
        <time>2015-01-10T09:07:36.00Z</time>
      </trkpt>
      <trkpt lat="43.7146" lon="7.08688">
        <ele>374</ele>
        <time>2015-01-10T09:07:39.00Z</time>
      </trkpt>
      <trkpt lat="43.71452" lon="7.08699">
        <ele>375</ele>
        <time>2015-01-10T09:07:42.00Z</time>
      </trkpt>
      <trkpt lat="43.71443" lon="7.0871">
        <ele>376</ele>
        <time>2015-01-10T09:07:45.00Z</time>
      </trkpt>
      <trkpt lat="43.71434" lon="7.08722">
        <ele>375</ele>
        <time>2015-01-10T09:07:48.00Z</time>
      </trkpt>
      <trkpt lat="43.71425" lon="7.08734">
        <ele>377</ele>
        <time>2015-01-10T09:07:51.00Z</time>
      </trkpt>
      <trkpt lat="43.71416" lon="7.08746">
        <ele>379</ele>
        <time>2015-01-10T09:07:54.00Z</time>
      </trkpt>
      <trkpt lat="43.71407" lon="7.08759">
        <ele>378</ele>
        <time>2015-01-10T09:07:57.00Z</time>
      </trkpt>
      <trkpt lat="43.71398" lon="7.08771">
        <ele>378</ele>
        <time>2015-01-10T09:08:00.00Z</time>
      </trkpt>
      <trkpt lat="43.71389" lon="7.08783">
        <ele>379</ele>
        <time>2015-01-10T09:08:03.00Z</time>
      </trkpt>
      <trkpt lat="43.71377" lon="7.08787">
        <ele>378</ele>
        <time>2015-01-10T09:08:06.00Z</time>
      </trkpt>
      <trkpt lat="43.71365" lon="7.08788">
        <ele>377</ele>
        <time>2015-01-10T09:08:09.00Z</time>
      </trkpt>
      <trkpt lat="43.71352" lon="7.08788">
        <ele>378</ele>
        <time>2015-01-10T09:08:12.00Z</time>
      </trkpt>
      <trkpt lat="43.71341" lon="7.08789">
        <ele>378</ele>
        <time>2015-01-10T09:08:15.00Z</time>
      </trkpt>
      <trkpt lat="43.7133" lon="7.08791">
        <ele>379</ele>
        <time>2015-01-10T09:08:18.00Z</time>
      </trkpt>
      <trkpt lat="43.7132" lon="7.0879">
        <ele>379</ele>
        <time>2015-01-10T09:08:21.00Z</time>
      </trkpt>
      <trkpt lat="43.7131" lon="7.08795">
        <ele>380</ele>
        <time>2015-01-10T09:08:24.00Z</time>
      </trkpt>
      <trkpt lat="43.71301" lon="7.08801">
        <ele>380</ele>
        <time>2015-01-10T09:08:27.00Z</time>
      </trkpt>
      <trkpt lat="43.71293" lon="7.08807">
        <ele>380</ele>
        <time>2015-01-10T09:08:30.00Z</time>
      </trkpt>
      <trkpt lat="43.71284" lon="7.08815">
        <ele>382</ele>
        <time>2015-01-10T09:08:34.00Z</time>
      </trkpt>
      <trkpt lat="43.71276" lon="7.08822">
        <ele>380</ele>
        <time>2015-01-10T09:08:37.00Z</time>
      </trkpt>
      <trkpt lat="43.71265" lon="7.08828">
        <ele>378</ele>
        <time>2015-01-10T09:08:40.00Z</time>
      </trkpt>
      <trkpt lat="43.71256" lon="7.08836">
        <ele>378</ele>
        <time>2015-01-10T09:08:43.00Z</time>
      </trkpt>
      <trkpt lat="43.71246" lon="7.08842">
        <ele>378</ele>
        <time>2015-01-10T09:08:46.00Z</time>
      </trkpt>
      <trkpt lat="43.71236" lon="7.08847">
        <ele>380</ele>
        <time>2015-01-10T09:08:49.00Z</time>
      </trkpt>
      <trkpt lat="43.71227" lon="7.08851">
        <ele>380</ele>
        <time>2015-01-10T09:08:52.00Z</time>
      </trkpt>
      <trkpt lat="43.71217" lon="7.08858">
        <ele>382</ele>
        <time>2015-01-10T09:08:55.00Z</time>
      </trkpt>
      <trkpt lat="43.71208" lon="7.08868">
        <ele>382</ele>
        <time>2015-01-10T09:08:58.00Z</time>
      </trkpt>
      <trkpt lat="43.71203" lon="7.08879">
        <ele>382</ele>
        <time>2015-01-10T09:09:01.00Z</time>
      </trkpt>
      <trkpt lat="43.712" lon="7.08895">
        <ele>384</ele>
        <time>2015-01-10T09:09:05.00Z</time>
      </trkpt>
      <trkpt lat="43.71195" lon="7.08908">
        <ele>384</ele>
        <time>2015-01-10T09:09:09.00Z</time>
      </trkpt>
      <trkpt lat="43.71185" lon="7.08917">
        <ele>384</ele>
        <time>2015-01-10T09:09:13.00Z</time>
      </trkpt>
      <trkpt lat="43.71174" lon="7.08922">
        <ele>385</ele>
        <time>2015-01-10T09:09:17.00Z</time>
      </trkpt>
      <trkpt lat="43.71164" lon="7.08926">
        <ele>384</ele>
        <time>2015-01-10T09:09:20.00Z</time>
      </trkpt>
      <trkpt lat="43.71151" lon="7.08927">
        <ele>384</ele>
        <time>2015-01-10T09:09:23.00Z</time>
      </trkpt>
      <trkpt lat="43.71141" lon="7.0893">
        <ele>385</ele>
        <time>2015-01-10T09:09:25.00Z</time>
      </trkpt>
      <trkpt lat="43.71128" lon="7.08932">
        <ele>385</ele>
        <time>2015-01-10T09:09:28.00Z</time>
      </trkpt>
      <trkpt lat="43.71118" lon="7.0893">
        <ele>383</ele>
        <time>2015-01-10T09:09:31.00Z</time>
      </trkpt>
      <trkpt lat="43.71109" lon="7.08931">
        <ele>383</ele>
        <time>2015-01-10T09:09:33.00Z</time>
      </trkpt>
      <trkpt lat="43.711" lon="7.08931">
        <ele>386</ele>
        <time>2015-01-10T09:09:37.00Z</time>
      </trkpt>
      <trkpt lat="43.71089" lon="7.08934">
        <ele>386</ele>
        <time>2015-01-10T09:09:41.00Z</time>
      </trkpt>
      <trkpt lat="43.71081" lon="7.08924">
        <ele>388</ele>
        <time>2015-01-10T09:09:45.00Z</time>
      </trkpt>
      <trkpt lat="43.71072" lon="7.08931">
        <ele>389</ele>
        <time>2015-01-10T09:09:50.00Z</time>
      </trkpt>
      <trkpt lat="43.71067" lon="7.08942">
        <ele>389</ele>
        <time>2015-01-10T09:09:53.00Z</time>
      </trkpt>
      <trkpt lat="43.71064" lon="7.08954">
        <ele>391</ele>
        <time>2015-01-10T09:09:56.00Z</time>
      </trkpt>
      <trkpt lat="43.71059" lon="7.08967">
        <ele>391</ele>
        <time>2015-01-10T09:10:00.00Z</time>
      </trkpt>
      <trkpt lat="43.71055" lon="7.0898">
        <ele>391</ele>
        <time>2015-01-10T09:10:05.00Z</time>
      </trkpt>
      <trkpt lat="43.7105" lon="7.08991">
        <ele>392</ele>
        <time>2015-01-10T09:10:09.00Z</time>
      </trkpt>
      <trkpt lat="43.71044" lon="7.09004">
        <ele>394</ele>
        <time>2015-01-10T09:10:13.00Z</time>
      </trkpt>
      <trkpt lat="43.71038" lon="7.09016">
        <ele>393</ele>
        <time>2015-01-10T09:10:16.00Z</time>
      </trkpt>
      <trkpt lat="43.71032" lon="7.09027">
        <ele>393</ele>
        <time>2015-01-10T09:10:19.00Z</time>
      </trkpt>
      <trkpt lat="43.71024" lon="7.09036">
        <ele>393</ele>
        <time>2015-01-10T09:10:22.00Z</time>
      </trkpt>
      <trkpt lat="43.71017" lon="7.09046">
        <ele>391</ele>
        <time>2015-01-10T09:10:25.00Z</time>
      </trkpt>
      <trkpt lat="43.71006" lon="7.09051">
        <ele>394</ele>
        <time>2015-01-10T09:10:29.00Z</time>
      </trkpt>
      <trkpt lat="43.70997" lon="7.09051">
        <ele>393</ele>
        <time>2015-01-10T09:10:32.00Z</time>
      </trkpt>
      <trkpt lat="43.70988" lon="7.09052">
        <ele>394</ele>
        <time>2015-01-10T09:10:35.00Z</time>
      </trkpt>
      <trkpt lat="43.7098" lon="7.09059">
        <ele>393</ele>
        <time>2015-01-10T09:10:38.00Z</time>
      </trkpt>
      <trkpt lat="43.70973" lon="7.09072">
        <ele>393</ele>
        <time>2015-01-10T09:10:41.00Z</time>
      </trkpt>
      <trkpt lat="43.70966" lon="7.09084">
        <ele>389</ele>
        <time>2015-01-10T09:10:44.00Z</time>
      </trkpt>
      <trkpt lat="43.70959" lon="7.09096">
        <ele>392</ele>
        <time>2015-01-10T09:10:47.00Z</time>
      </trkpt>
      <trkpt lat="43.70952" lon="7.09107">
        <ele>394</ele>
        <time>2015-01-10T09:10:50.00Z</time>
      </trkpt>
      <trkpt lat="43.70942" lon="7.09111">
        <ele>394</ele>
        <time>2015-01-10T09:10:53.00Z</time>
      </trkpt>
      <trkpt lat="43.7093" lon="7.09111">
        <ele>393</ele>
        <time>2015-01-10T09:10:56.00Z</time>
      </trkpt>
      <trkpt lat="43.70919" lon="7.09112">
        <ele>392</ele>
        <time>2015-01-10T09:10:59.00Z</time>
      </trkpt>
      <trkpt lat="43.70908" lon="7.09116">
        <ele>395</ele>
        <time>2015-01-10T09:11:02.00Z</time>
      </trkpt>
      <trkpt lat="43.70892" lon="7.09115">
        <ele>394</ele>
        <time>2015-01-10T09:11:05.00Z</time>
      </trkpt>
      <trkpt lat="43.70882" lon="7.09116">
        <ele>396</ele>
        <time>2015-01-10T09:11:07.00Z</time>
      </trkpt>
      <trkpt lat="43.7087" lon="7.09119">
        <ele>393</ele>
        <time>2015-01-10T09:11:10.00Z</time>
      </trkpt>
      <trkpt lat="43.70859" lon="7.0912">
        <ele>392</ele>
        <time>2015-01-10T09:11:13.00Z</time>
      </trkpt>
      <trkpt lat="43.70848" lon="7.09122">
        <ele>390</ele>
        <time>2015-01-10T09:11:15.00Z</time>
      </trkpt>
      <trkpt lat="43.70836" lon="7.09129">
        <ele>390</ele>
        <time>2015-01-10T09:11:18.00Z</time>
      </trkpt>
      <trkpt lat="43.70827" lon="7.09138">
        <ele>392</ele>
        <time>2015-01-10T09:11:21.00Z</time>
      </trkpt>
      <trkpt lat="43.70817" lon="7.09147">
        <ele>395</ele>
        <time>2015-01-10T09:11:25.00Z</time>
      </trkpt>
      <trkpt lat="43.70808" lon="7.09151">
        <ele>394</ele>
        <time>2015-01-10T09:11:28.00Z</time>
      </trkpt>
      <trkpt lat="43.70799" lon="7.09156">
        <ele>394</ele>
        <time>2015-01-10T09:11:31.00Z</time>
      </trkpt>
      <trkpt lat="43.70789" lon="7.09161">
        <ele>394</ele>
        <time>2015-01-10T09:11:34.00Z</time>
      </trkpt>
      <trkpt lat="43.70778" lon="7.09164">
        <ele>394</ele>
        <time>2015-01-10T09:11:37.00Z</time>
      </trkpt>
      <trkpt lat="43.70768" lon="7.09169">
        <ele>395</ele>
        <time>2015-01-10T09:11:40.00Z</time>
      </trkpt>
      <trkpt lat="43.70761" lon="7.09179">
        <ele>395</ele>
        <time>2015-01-10T09:11:43.00Z</time>
      </trkpt>
      <trkpt lat="43.70754" lon="7.09186">
        <ele>396</ele>
        <time>2015-01-10T09:11:46.00Z</time>
      </trkpt>
      <trkpt lat="43.70746" lon="7.09195">
        <ele>396</ele>
        <time>2015-01-10T09:11:49.00Z</time>
      </trkpt>
      <trkpt lat="43.7074" lon="7.09206">
        <ele>397</ele>
        <time>2015-01-10T09:11:52.00Z</time>
      </trkpt>
      <trkpt lat="43.70731" lon="7.09212">
        <ele>398</ele>
        <time>2015-01-10T09:12:42.00Z</time>
      </trkpt>
      <trkpt lat="43.70724" lon="7.09221">
        <ele>396</ele>
        <time>2015-01-10T09:12:46.00Z</time>
      </trkpt>
      <trkpt lat="43.7072" lon="7.09232">
        <ele>399</ele>
        <time>2015-01-10T09:12:50.00Z</time>
      </trkpt>
      <trkpt lat="43.70717" lon="7.09245">
        <ele>398</ele>
        <time>2015-01-10T09:12:53.00Z</time>
      </trkpt>
      <trkpt lat="43.70709" lon="7.09254">
        <ele>400</ele>
        <time>2015-01-10T09:12:58.00Z</time>
      </trkpt>
      <trkpt lat="43.707" lon="7.09262">
        <ele>398</ele>
        <time>2015-01-10T09:13:03.00Z</time>
      </trkpt>
      <trkpt lat="43.70689" lon="7.09263">
        <ele>399</ele>
        <time>2015-01-10T09:13:08.00Z</time>
      </trkpt>
      <trkpt lat="43.7068" lon="7.09265">
        <ele>402</ele>
        <time>2015-01-10T09:13:12.00Z</time>
      </trkpt>
      <trkpt lat="43.70672" lon="7.09268">
        <ele>403</ele>
        <time>2015-01-10T09:13:21.00Z</time>
      </trkpt>
      <trkpt lat="43.70661" lon="7.09271">
        <ele>403</ele>
        <time>2015-01-10T09:13:24.00Z</time>
      </trkpt>
      <trkpt lat="43.70653" lon="7.09279">
        <ele>404</ele>
        <time>2015-01-10T09:13:29.00Z</time>
      </trkpt>
      <trkpt lat="43.70646" lon="7.09288">
        <ele>403</ele>
        <time>2015-01-10T09:13:36.00Z</time>
      </trkpt>
      <trkpt lat="43.70638" lon="7.09297">
        <ele>401</ele>
        <time>2015-01-10T09:13:40.00Z</time>
      </trkpt>
      <trkpt lat="43.70632" lon="7.09309">
        <ele>400</ele>
        <time>2015-01-10T09:13:43.00Z</time>
      </trkpt>
      <trkpt lat="43.70628" lon="7.09326">
        <ele>398</ele>
        <time>2015-01-10T09:13:46.00Z</time>
      </trkpt>
      <trkpt lat="43.70624" lon="7.09343">
        <ele>398</ele>
        <time>2015-01-10T09:13:49.00Z</time>
      </trkpt>
      <trkpt lat="43.7062" lon="7.09354">
        <ele>398</ele>
        <time>2015-01-10T09:13:52.00Z</time>
      </trkpt>
      <trkpt lat="43.70613" lon="7.09365">
        <ele>396</ele>
        <time>2015-01-10T09:13:56.00Z</time>
      </trkpt>
      <trkpt lat="43.70619" lon="7.09376">
        <ele>396</ele>
        <time>2015-01-10T09:14:00.00Z</time>
      </trkpt>
      <trkpt lat="43.70625" lon="7.09387">
        <ele>396</ele>
        <time>2015-01-10T09:14:03.00Z</time>
      </trkpt>
      <trkpt lat="43.70628" lon="7.09402">
        <ele>395</ele>
        <time>2015-01-10T09:14:06.00Z</time>
      </trkpt>
      <trkpt lat="43.70626" lon="7.09388">
        <ele>394</ele>
        <time>2015-01-10T09:14:15.00Z</time>
      </trkpt>
      <trkpt lat="43.7062" lon="7.09376">
        <ele>397</ele>
        <time>2015-01-10T09:14:17.00Z</time>
      </trkpt>
      <trkpt lat="43.70615" lon="7.09364">
        <ele>397</ele>
        <time>2015-01-10T09:14:20.00Z</time>
      </trkpt>
      <trkpt lat="43.7062" lon="7.0935">
        <ele>398</ele>
        <time>2015-01-10T09:14:27.00Z</time>
      </trkpt>
      <trkpt lat="43.70625" lon="7.09337">
        <ele>398</ele>
        <time>2015-01-10T09:14:30.00Z</time>
      </trkpt>
      <trkpt lat="43.70628" lon="7.09324">
        <ele>399</ele>
        <time>2015-01-10T09:14:32.00Z</time>
      </trkpt>
      <trkpt lat="43.7063" lon="7.09311">
        <ele>399</ele>
        <time>2015-01-10T09:14:34.00Z</time>
      </trkpt>
      <trkpt lat="43.70632" lon="7.09299">
        <ele>401</ele>
        <time>2015-01-10T09:14:37.00Z</time>
      </trkpt>
      <trkpt lat="43.70621" lon="7.09296">
        <ele>400</ele>
        <time>2015-01-10T09:14:42.00Z</time>
      </trkpt>
      <trkpt lat="43.70607" lon="7.09293">
        <ele>396</ele>
        <time>2015-01-10T09:14:45.00Z</time>
      </trkpt>
      <trkpt lat="43.70599" lon="7.09287">
        <ele>394</ele>
        <time>2015-01-10T09:14:47.00Z</time>
      </trkpt>
      <trkpt lat="43.70591" lon="7.09282">
        <ele>390</ele>
        <time>2015-01-10T09:14:51.00Z</time>
      </trkpt>
      <trkpt lat="43.70583" lon="7.09271">
        <ele>388</ele>
        <time>2015-01-10T09:14:54.00Z</time>
      </trkpt>
      <trkpt lat="43.70576" lon="7.09257">
        <ele>391</ele>
        <time>2015-01-10T09:14:57.00Z</time>
      </trkpt>
      <trkpt lat="43.7057" lon="7.09244">
        <ele>390</ele>
        <time>2015-01-10T09:14:59.00Z</time>
      </trkpt>
      <trkpt lat="43.70569" lon="7.0923">
        <ele>388</ele>
        <time>2015-01-10T09:15:01.00Z</time>
      </trkpt>
      <trkpt lat="43.70562" lon="7.09214">
        <ele>388</ele>
        <time>2015-01-10T09:15:03.00Z</time>
      </trkpt>
      <trkpt lat="43.70556" lon="7.09196">
        <ele>386</ele>
        <time>2015-01-10T09:15:05.00Z</time>
      </trkpt>
      <trkpt lat="43.7055" lon="7.09186">
        <ele>385</ele>
        <time>2015-01-10T09:15:07.00Z</time>
      </trkpt>
      <trkpt lat="43.7054" lon="7.09183">
        <ele>388</ele>
        <time>2015-01-10T09:15:10.00Z</time>
      </trkpt>
      <trkpt lat="43.70541" lon="7.09168">
        <ele>386</ele>
        <time>2015-01-10T09:15:14.00Z</time>
      </trkpt>
      <trkpt lat="43.70535" lon="7.09156">
        <ele>381</ele>
        <time>2015-01-10T09:15:19.00Z</time>
      </trkpt>
      <trkpt lat="43.70533" lon="7.09141">
        <ele>383</ele>
        <time>2015-01-10T09:15:22.00Z</time>
      </trkpt>
      <trkpt lat="43.70532" lon="7.09123">
        <ele>385</ele>
        <time>2015-01-10T09:15:26.00Z</time>
      </trkpt>
      <trkpt lat="43.70532" lon="7.0911">
        <ele>385</ele>
        <time>2015-01-10T09:15:29.00Z</time>
      </trkpt>
      <trkpt lat="43.70535" lon="7.09093">
        <ele>384</ele>
        <time>2015-01-10T09:15:32.00Z</time>
      </trkpt>
      <trkpt lat="43.70537" lon="7.09077">
        <ele>385</ele>
        <time>2015-01-10T09:15:35.00Z</time>
      </trkpt>
      <trkpt lat="43.70542" lon="7.09062">
        <ele>386</ele>
        <time>2015-01-10T09:15:38.00Z</time>
      </trkpt>
      <trkpt lat="43.7055" lon="7.09051">
        <ele>386</ele>
        <time>2015-01-10T09:15:41.00Z</time>
      </trkpt>
      <trkpt lat="43.70559" lon="7.09045">
        <ele>388</ele>
        <time>2015-01-10T09:15:44.00Z</time>
      </trkpt>
      <trkpt lat="43.7057" lon="7.09039">
        <ele>388</ele>
        <time>2015-01-10T09:15:48.00Z</time>
      </trkpt>
      <trkpt lat="43.70579" lon="7.09038">
        <ele>389</ele>
        <time>2015-01-10T09:15:51.00Z</time>
      </trkpt>
      <trkpt lat="43.70589" lon="7.09038">
        <ele>385</ele>
        <time>2015-01-10T09:15:54.00Z</time>
      </trkpt>
      <trkpt lat="43.70599" lon="7.09041">
        <ele>382</ele>
        <time>2015-01-10T09:15:57.00Z</time>
      </trkpt>
      <trkpt lat="43.70609" lon="7.09042">
        <ele>384</ele>
        <time>2015-01-10T09:16:00.00Z</time>
      </trkpt>
      <trkpt lat="43.7062" lon="7.09045">
        <ele>384</ele>
        <time>2015-01-10T09:16:02.00Z</time>
      </trkpt>
      <trkpt lat="43.70629" lon="7.09046">
        <ele>384</ele>
        <time>2015-01-10T09:16:04.00Z</time>
      </trkpt>
      <trkpt lat="43.70639" lon="7.09048">
        <ele>384</ele>
        <time>2015-01-10T09:16:06.00Z</time>
      </trkpt>
      <trkpt lat="43.70651" lon="7.09052">
        <ele>386</ele>
        <time>2015-01-10T09:16:09.00Z</time>
      </trkpt>
      <trkpt lat="43.70662" lon="7.09056">
        <ele>385</ele>
        <time>2015-01-10T09:16:12.00Z</time>
      </trkpt>
      <trkpt lat="43.70673" lon="7.09056">
        <ele>386</ele>
        <time>2015-01-10T09:16:15.00Z</time>
      </trkpt>
      <trkpt lat="43.70683" lon="7.09061">
        <ele>385</ele>
        <time>2015-01-10T09:16:19.00Z</time>
      </trkpt>
      <trkpt lat="43.70692" lon="7.09064">
        <ele>385</ele>
        <time>2015-01-10T09:16:23.00Z</time>
      </trkpt>
      <trkpt lat="43.70701" lon="7.09067">
        <ele>383</ele>
        <time>2015-01-10T09:16:29.00Z</time>
      </trkpt>
      <trkpt lat="43.70712" lon="7.09071">
        <ele>382</ele>
        <time>2015-01-10T09:16:34.00Z</time>
      </trkpt>
      <trkpt lat="43.70724" lon="7.09074">
        <ele>382</ele>
        <time>2015-01-10T09:16:37.00Z</time>
      </trkpt>
      <trkpt lat="43.70735" lon="7.09078">
        <ele>381</ele>
        <time>2015-01-10T09:16:40.00Z</time>
      </trkpt>
      <trkpt lat="43.70746" lon="7.09082">
        <ele>381</ele>
        <time>2015-01-10T09:16:43.00Z</time>
      </trkpt>
      <trkpt lat="43.70757" lon="7.09082">
        <ele>380</ele>
        <time>2015-01-10T09:16:46.00Z</time>
      </trkpt>
      <trkpt lat="43.7077" lon="7.09083">
        <ele>380</ele>
        <time>2015-01-10T09:16:49.00Z</time>
      </trkpt>
      <trkpt lat="43.70779" lon="7.09084">
        <ele>382</ele>
        <time>2015-01-10T09:16:51.00Z</time>
      </trkpt>
      <trkpt lat="43.70791" lon="7.09086">
        <ele>383</ele>
        <time>2015-01-10T09:16:54.00Z</time>
      </trkpt>
      <trkpt lat="43.70803" lon="7.09087">
        <ele>385</ele>
        <time>2015-01-10T09:16:57.00Z</time>
      </trkpt>
      <trkpt lat="43.70812" lon="7.09088">
        <ele>386</ele>
        <time>2015-01-10T09:17:00.00Z</time>
      </trkpt>
      <trkpt lat="43.70821" lon="7.09086">
        <ele>387</ele>
        <time>2015-01-10T09:17:03.00Z</time>
      </trkpt>
      <trkpt lat="43.7083" lon="7.09082">
        <ele>390</ele>
        <time>2015-01-10T09:17:06.00Z</time>
      </trkpt>
      <trkpt lat="43.7084" lon="7.09081">
        <ele>390</ele>
        <time>2015-01-10T09:17:09.00Z</time>
      </trkpt>
      <trkpt lat="43.70849" lon="7.09078">
        <ele>391</ele>
        <time>2015-01-10T09:17:13.00Z</time>
      </trkpt>
      <trkpt lat="43.70855" lon="7.09069">
        <ele>395</ele>
        <time>2015-01-10T09:17:20.00Z</time>
      </trkpt>
      <trkpt lat="43.7086" lon="7.09057">
        <ele>395</ele>
        <time>2015-01-10T09:17:23.00Z</time>
      </trkpt>
      <trkpt lat="43.70863" lon="7.09043">
        <ele>395</ele>
        <time>2015-01-10T09:17:26.00Z</time>
      </trkpt>
      <trkpt lat="43.70868" lon="7.09028">
        <ele>394</ele>
        <time>2015-01-10T09:17:29.00Z</time>
      </trkpt>
      <trkpt lat="43.70871" lon="7.09014">
        <ele>394</ele>
        <time>2015-01-10T09:17:32.00Z</time>
      </trkpt>
      <trkpt lat="43.70878" lon="7.08996">
        <ele>395</ele>
        <time>2015-01-10T09:17:36.00Z</time>
      </trkpt>
      <trkpt lat="43.70882" lon="7.08984">
        <ele>397</ele>
        <time>2015-01-10T09:17:39.00Z</time>
      </trkpt>
      <trkpt lat="43.70886" lon="7.08971">
        <ele>397</ele>
        <time>2015-01-10T09:17:42.00Z</time>
      </trkpt>
      <trkpt lat="43.70888" lon="7.08957">
        <ele>395</ele>
        <time>2015-01-10T09:17:45.00Z</time>
      </trkpt>
      <trkpt lat="43.70884" lon="7.08941">
        <ele>393</ele>
        <time>2015-01-10T09:17:47.00Z</time>
      </trkpt>
      <trkpt lat="43.7088" lon="7.08924">
        <ele>392</ele>
        <time>2015-01-10T09:17:49.00Z</time>
      </trkpt>
      <trkpt lat="43.70877" lon="7.08907">
        <ele>391</ele>
        <time>2015-01-10T09:17:51.00Z</time>
      </trkpt>
      <trkpt lat="43.70872" lon="7.08888">
        <ele>390</ele>
        <time>2015-01-10T09:17:53.00Z</time>
      </trkpt>
      <trkpt lat="43.7087" lon="7.0887">
        <ele>389</ele>
        <time>2015-01-10T09:17:55.00Z</time>
      </trkpt>
      <trkpt lat="43.70867" lon="7.08856">
        <ele>389</ele>
        <time>2015-01-10T09:17:58.00Z</time>
      </trkpt>
      <trkpt lat="43.70867" lon="7.08843">
        <ele>389</ele>
        <time>2015-01-10T09:18:01.00Z</time>
      </trkpt>
      <trkpt lat="43.70862" lon="7.0883">
        <ele>386</ele>
        <time>2015-01-10T09:18:04.00Z</time>
      </trkpt>
      <trkpt lat="43.70865" lon="7.08816">
        <ele>385</ele>
        <time>2015-01-10T09:18:06.00Z</time>
      </trkpt>
      <trkpt lat="43.70862" lon="7.08798">
        <ele>384</ele>
        <time>2015-01-10T09:18:08.00Z</time>
      </trkpt>
      <trkpt lat="43.70853" lon="7.08779">
        <ele>383</ele>
        <time>2015-01-10T09:18:10.00Z</time>
      </trkpt>
      <trkpt lat="43.70847" lon="7.0877">
        <ele>382</ele>
        <time>2015-01-10T09:18:11.00Z</time>
      </trkpt>
      <trkpt lat="43.70842" lon="7.08747">
        <ele>383</ele>
        <time>2015-01-10T09:18:13.00Z</time>
      </trkpt>
      <trkpt lat="43.70835" lon="7.08732">
        <ele>381</ele>
        <time>2015-01-10T09:18:15.00Z</time>
      </trkpt>
      <trkpt lat="43.70826" lon="7.08719">
        <ele>380</ele>
        <time>2015-01-10T09:18:17.00Z</time>
      </trkpt>
      <trkpt lat="43.70821" lon="7.08706">
        <ele>381</ele>
        <time>2015-01-10T09:18:20.00Z</time>
      </trkpt>
      <trkpt lat="43.70821" lon="7.08693">
        <ele>378</ele>
        <time>2015-01-10T09:18:23.00Z</time>
      </trkpt>
      <trkpt lat="43.70816" lon="7.08676">
        <ele>376</ele>
        <time>2015-01-10T09:18:25.00Z</time>
      </trkpt>
      <trkpt lat="43.70808" lon="7.08666">
        <ele>377</ele>
        <time>2015-01-10T09:18:27.00Z</time>
      </trkpt>
      <trkpt lat="43.70798" lon="7.08668">
        <ele>374</ele>
        <time>2015-01-10T09:18:44.00Z</time>
      </trkpt>
      <trkpt lat="43.70788" lon="7.08663">
        <ele>374</ele>
        <time>2015-01-10T09:18:47.00Z</time>
      </trkpt>
      <trkpt lat="43.70779" lon="7.0866">
        <ele>373</ele>
        <time>2015-01-10T09:18:49.00Z</time>
      </trkpt>
      <trkpt lat="43.70768" lon="7.08657">
        <ele>373</ele>
        <time>2015-01-10T09:18:51.00Z</time>
      </trkpt>
      <trkpt lat="43.70759" lon="7.08653">
        <ele>372</ele>
        <time>2015-01-10T09:18:53.00Z</time>
      </trkpt>
      <trkpt lat="43.70749" lon="7.08649">
        <ele>372</ele>
        <time>2015-01-10T09:18:55.00Z</time>
      </trkpt>
      <trkpt lat="43.70739" lon="7.08644">
        <ele>373</ele>
        <time>2015-01-10T09:18:57.00Z</time>
      </trkpt>
      <trkpt lat="43.70725" lon="7.08638">
        <ele>372</ele>
        <time>2015-01-10T09:19:00.00Z</time>
      </trkpt>
      <trkpt lat="43.70716" lon="7.08633">
        <ele>371</ele>
        <time>2015-01-10T09:19:02.00Z</time>
      </trkpt>
      <trkpt lat="43.70707" lon="7.08629">
        <ele>372</ele>
        <time>2015-01-10T09:19:03.00Z</time>
      </trkpt>
      <trkpt lat="43.70695" lon="7.08623">
        <ele>371</ele>
        <time>2015-01-10T09:19:05.00Z</time>
      </trkpt>
      <trkpt lat="43.70688" lon="7.08615">
        <ele>369</ele>
        <time>2015-01-10T09:19:07.00Z</time>
      </trkpt>
      <trkpt lat="43.70678" lon="7.08613">
        <ele>365</ele>
        <time>2015-01-10T09:19:09.00Z</time>
      </trkpt>
      <trkpt lat="43.70667" lon="7.08615">
        <ele>366</ele>
        <time>2015-01-10T09:19:11.00Z</time>
      </trkpt>
      <trkpt lat="43.70653" lon="7.08621">
        <ele>367</ele>
        <time>2015-01-10T09:19:13.00Z</time>
      </trkpt>
      <trkpt lat="43.70641" lon="7.08621">
        <ele>368</ele>
        <time>2015-01-10T09:19:15.00Z</time>
      </trkpt>
      <trkpt lat="43.70631" lon="7.08625">
        <ele>366</ele>
        <time>2015-01-10T09:19:17.00Z</time>
      </trkpt>
      <trkpt lat="43.7062" lon="7.0863">
        <ele>366</ele>
        <time>2015-01-10T09:19:20.00Z</time>
      </trkpt>
      <trkpt lat="43.7061" lon="7.08623">
        <ele>362</ele>
        <time>2015-01-10T09:19:22.00Z</time>
      </trkpt>
      <trkpt lat="43.70594" lon="7.08623">
        <ele>364</ele>
        <time>2015-01-10T09:19:24.00Z</time>
      </trkpt>
      <trkpt lat="43.7058" lon="7.08628">
        <ele>365</ele>
        <time>2015-01-10T09:19:26.00Z</time>
      </trkpt>
      <trkpt lat="43.70569" lon="7.08632">
        <ele>364</ele>
        <time>2015-01-10T09:19:28.00Z</time>
      </trkpt>
      <trkpt lat="43.70556" lon="7.08634">
        <ele>364</ele>
        <time>2015-01-10T09:19:30.00Z</time>
      </trkpt>
      <trkpt lat="43.70543" lon="7.08638">
        <ele>363</ele>
        <time>2015-01-10T09:19:32.00Z</time>
      </trkpt>
      <trkpt lat="43.70531" lon="7.0864">
        <ele>362</ele>
        <time>2015-01-10T09:19:34.00Z</time>
      </trkpt>
      <trkpt lat="43.70522" lon="7.08631">
        <ele>362</ele>
        <time>2015-01-10T09:19:36.00Z</time>
      </trkpt>
      <trkpt lat="43.70511" lon="7.08629">
        <ele>361</ele>
        <time>2015-01-10T09:19:39.00Z</time>
      </trkpt>
      <trkpt lat="43.70511" lon="7.08642">
        <ele>362</ele>
        <time>2015-01-10T09:19:41.00Z</time>
      </trkpt>
      <trkpt lat="43.70517" lon="7.0865">
        <ele>361</ele>
        <time>2015-01-10T09:19:43.00Z</time>
      </trkpt>
      <trkpt lat="43.70528" lon="7.08659">
        <ele>360</ele>
        <time>2015-01-10T09:19:45.00Z</time>
      </trkpt>
      <trkpt lat="43.7054" lon="7.08666">
        <ele>360</ele>
        <time>2015-01-10T09:19:47.00Z</time>
      </trkpt>
      <trkpt lat="43.70547" lon="7.08658">
        <ele>360</ele>
        <time>2015-01-10T09:20:02.00Z</time>
      </trkpt>
      <trkpt lat="43.70548" lon="7.08645">
        <ele>363</ele>
        <time>2015-01-10T09:20:08.00Z</time>
      </trkpt>
      <trkpt lat="43.7054" lon="7.08639">
        <ele>363</ele>
        <time>2015-01-10T09:20:15.00Z</time>
      </trkpt>
      <trkpt lat="43.70531" lon="7.08641">
        <ele>364</ele>
        <time>2015-01-10T09:20:19.00Z</time>
      </trkpt>
      <trkpt lat="43.7052" lon="7.08641">
        <ele>364</ele>
        <time>2015-01-10T09:20:23.00Z</time>
      </trkpt>
      <trkpt lat="43.70509" lon="7.08642">
        <ele>364</ele>
        <time>2015-01-10T09:20:27.00Z</time>
      </trkpt>
      <trkpt lat="43.70499" lon="7.08647">
        <ele>364</ele>
        <time>2015-01-10T09:20:31.00Z</time>
      </trkpt>
      <trkpt lat="43.7049" lon="7.08651">
        <ele>363</ele>
        <time>2015-01-10T09:20:34.00Z</time>
      </trkpt>
      <trkpt lat="43.70481" lon="7.08657">
        <ele>363</ele>
        <time>2015-01-10T09:20:37.00Z</time>
      </trkpt>
      <trkpt lat="43.7047" lon="7.08663">
        <ele>362</ele>
        <time>2015-01-10T09:20:40.00Z</time>
      </trkpt>
      <trkpt lat="43.7046" lon="7.08666">
        <ele>364</ele>
        <time>2015-01-10T09:20:43.00Z</time>
      </trkpt>
      <trkpt lat="43.70445" lon="7.08669">
        <ele>363</ele>
        <time>2015-01-10T09:20:46.00Z</time>
      </trkpt>
      <trkpt lat="43.70436" lon="7.08671">
        <ele>367</ele>
        <time>2015-01-10T09:20:49.00Z</time>
      </trkpt>
      <trkpt lat="43.70427" lon="7.08685">
        <ele>365</ele>
        <time>2015-01-10T09:20:52.00Z</time>
      </trkpt>
      <trkpt lat="43.70414" lon="7.08688">
        <ele>365</ele>
        <time>2015-01-10T09:20:55.00Z</time>
      </trkpt>
      <trkpt lat="43.70404" lon="7.08688">
        <ele>364</ele>
        <time>2015-01-10T09:20:57.00Z</time>
      </trkpt>
      <trkpt lat="43.70395" lon="7.08692">
        <ele>363</ele>
        <time>2015-01-10T09:20:59.00Z</time>
      </trkpt>
      <trkpt lat="43.70382" lon="7.08695">
        <ele>364</ele>
        <time>2015-01-10T09:21:02.00Z</time>
      </trkpt>
      <trkpt lat="43.70371" lon="7.08685">
        <ele>362</ele>
        <time>2015-01-10T09:21:05.00Z</time>
      </trkpt>
      <trkpt lat="43.70364" lon="7.08672">
        <ele>361</ele>
        <time>2015-01-10T09:21:07.00Z</time>
      </trkpt>
      <trkpt lat="43.70356" lon="7.08656">
        <ele>362</ele>
        <time>2015-01-10T09:21:09.00Z</time>
      </trkpt>
      <trkpt lat="43.70347" lon="7.08641">
        <ele>361</ele>
        <time>2015-01-10T09:21:11.00Z</time>
      </trkpt>
      <trkpt lat="43.70339" lon="7.08627">
        <ele>362</ele>
        <time>2015-01-10T09:21:13.00Z</time>
      </trkpt>
      <trkpt lat="43.70335" lon="7.08616">
        <ele>363</ele>
        <time>2015-01-10T09:21:15.00Z</time>
      </trkpt>
      <trkpt lat="43.7033" lon="7.086">
        <ele>363</ele>
        <time>2015-01-10T09:21:18.00Z</time>
      </trkpt>
      <trkpt lat="43.70324" lon="7.08591">
        <ele>364</ele>
        <time>2015-01-10T09:21:20.00Z</time>
      </trkpt>
      <trkpt lat="43.70319" lon="7.08578">
        <ele>364</ele>
        <time>2015-01-10T09:21:23.00Z</time>
      </trkpt>
      <trkpt lat="43.70322" lon="7.08566">
        <ele>366</ele>
        <time>2015-01-10T09:21:26.00Z</time>
      </trkpt>
      <trkpt lat="43.70318" lon="7.08577">
        <ele>366</ele>
        <time>2015-01-10T09:21:43.00Z</time>
      </trkpt>
      <trkpt lat="43.70315" lon="7.08591">
        <ele>363</ele>
        <time>2015-01-10T09:21:47.00Z</time>
      </trkpt>
      <trkpt lat="43.70308" lon="7.086">
        <ele>359</ele>
        <time>2015-01-10T09:21:51.00Z</time>
      </trkpt>
      <trkpt lat="43.70298" lon="7.08604">
        <ele>360</ele>
        <time>2015-01-10T09:21:55.00Z</time>
      </trkpt>
      <trkpt lat="43.70289" lon="7.08603">
        <ele>360</ele>
        <time>2015-01-10T09:21:58.00Z</time>
      </trkpt>
      <trkpt lat="43.70277" lon="7.08606">
        <ele>360</ele>
        <time>2015-01-10T09:22:01.00Z</time>
      </trkpt>
      <trkpt lat="43.70267" lon="7.08608">
        <ele>359</ele>
        <time>2015-01-10T09:22:03.00Z</time>
      </trkpt>
      <trkpt lat="43.70255" lon="7.08612">
        <ele>359</ele>
        <time>2015-01-10T09:22:05.00Z</time>
      </trkpt>
      <trkpt lat="43.70245" lon="7.08615">
        <ele>359</ele>
        <time>2015-01-10T09:22:07.00Z</time>
      </trkpt>
      <trkpt lat="43.70235" lon="7.08613">
        <ele>357</ele>
        <time>2015-01-10T09:22:10.00Z</time>
      </trkpt>
      <trkpt lat="43.70227" lon="7.08617">
        <ele>357</ele>
        <time>2015-01-10T09:22:12.00Z</time>
      </trkpt>
      <trkpt lat="43.7022" lon="7.08632">
        <ele>358</ele>
        <time>2015-01-10T09:22:14.00Z</time>
      </trkpt>
      <trkpt lat="43.70212" lon="7.08644">
        <ele>356</ele>
        <time>2015-01-10T09:22:16.00Z</time>
      </trkpt>
      <trkpt lat="43.70203" lon="7.08648">
        <ele>356</ele>
        <time>2015-01-10T09:22:18.00Z</time>
      </trkpt>
      <trkpt lat="43.70192" lon="7.08652">
        <ele>358</ele>
        <time>2015-01-10T09:22:20.00Z</time>
      </trkpt>
      <trkpt lat="43.70182" lon="7.08659">
        <ele>359</ele>
        <time>2015-01-10T09:22:22.00Z</time>
      </trkpt>
      <trkpt lat="43.70172" lon="7.08664">
        <ele>358</ele>
        <time>2015-01-10T09:22:24.00Z</time>
      </trkpt>
      <trkpt lat="43.70161" lon="7.08668">
        <ele>358</ele>
        <time>2015-01-10T09:22:26.00Z</time>
      </trkpt>
      <trkpt lat="43.70152" lon="7.08669">
        <ele>358</ele>
        <time>2015-01-10T09:22:28.00Z</time>
      </trkpt>
      <trkpt lat="43.70141" lon="7.08669">
        <ele>357</ele>
        <time>2015-01-10T09:22:30.00Z</time>
      </trkpt>
      <trkpt lat="43.70131" lon="7.08671">
        <ele>357</ele>
        <time>2015-01-10T09:22:32.00Z</time>
      </trkpt>
      <trkpt lat="43.70121" lon="7.08672">
        <ele>356</ele>
        <time>2015-01-10T09:22:35.00Z</time>
      </trkpt>
      <trkpt lat="43.70112" lon="7.08668">
        <ele>355</ele>
        <time>2015-01-10T09:22:40.00Z</time>
      </trkpt>
      <trkpt lat="43.70103" lon="7.08659">
        <ele>357</ele>
        <time>2015-01-10T09:22:53.00Z</time>
      </trkpt>
      <trkpt lat="43.70094" lon="7.08655">
        <ele>356</ele>
        <time>2015-01-10T09:22:56.00Z</time>
      </trkpt>
      <trkpt lat="43.70083" lon="7.08651">
        <ele>356</ele>
        <time>2015-01-10T09:23:00.00Z</time>
      </trkpt>
      <trkpt lat="43.70073" lon="7.08649">
        <ele>356</ele>
        <time>2015-01-10T09:23:03.00Z</time>
      </trkpt>
      <trkpt lat="43.70064" lon="7.08644">
        <ele>355</ele>
        <time>2015-01-10T09:23:06.00Z</time>
      </trkpt>
      <trkpt lat="43.70055" lon="7.08638">
        <ele>355</ele>
        <time>2015-01-10T09:23:09.00Z</time>
      </trkpt>
      <trkpt lat="43.70045" lon="7.08628">
        <ele>354</ele>
        <time>2015-01-10T09:23:12.00Z</time>
      </trkpt>
      <trkpt lat="43.70035" lon="7.0862">
        <ele>355</ele>
        <time>2015-01-10T09:23:15.00Z</time>
      </trkpt>
      <trkpt lat="43.70025" lon="7.08612">
        <ele>353</ele>
        <time>2015-01-10T09:23:18.00Z</time>
      </trkpt>
      <trkpt lat="43.70015" lon="7.0861">
        <ele>353</ele>
        <time>2015-01-10T09:23:23.00Z</time>
      </trkpt>
      <trkpt lat="43.70013" lon="7.08628">
        <ele>349</ele>
        <time>2015-01-10T09:23:26.00Z</time>
      </trkpt>
      <trkpt lat="43.70006" lon="7.08643">
        <ele>348</ele>
        <time>2015-01-10T09:23:29.00Z</time>
      </trkpt>
      <trkpt lat="43.69995" lon="7.08654">
        <ele>348</ele>
        <time>2015-01-10T09:23:31.00Z</time>
      </trkpt>
      <trkpt lat="43.69985" lon="7.08663">
        <ele>346</ele>
        <time>2015-01-10T09:23:33.00Z</time>
      </trkpt>
      <trkpt lat="43.69975" lon="7.08672">
        <ele>344</ele>
        <time>2015-01-10T09:23:35.00Z</time>
      </trkpt>
      <trkpt lat="43.69962" lon="7.08682">
        <ele>342</ele>
        <time>2015-01-10T09:23:37.00Z</time>
      </trkpt>
      <trkpt lat="43.69949" lon="7.08694">
        <ele>340</ele>
        <time>2015-01-10T09:23:39.00Z</time>
      </trkpt>
      <trkpt lat="43.69936" lon="7.08705">
        <ele>337</ele>
        <time>2015-01-10T09:23:41.00Z</time>
      </trkpt>
      <trkpt lat="43.69925" lon="7.08714">
        <ele>336</ele>
        <time>2015-01-10T09:23:43.00Z</time>
      </trkpt>
      <trkpt lat="43.69913" lon="7.08725">
        <ele>334</ele>
        <time>2015-01-10T09:23:45.00Z</time>
      </trkpt>
      <trkpt lat="43.69898" lon="7.08735">
        <ele>331</ele>
        <time>2015-01-10T09:23:47.00Z</time>
      </trkpt>
      <trkpt lat="43.69888" lon="7.0874">
        <ele>329</ele>
        <time>2015-01-10T09:23:49.00Z</time>
      </trkpt>
      <trkpt lat="43.69877" lon="7.08746">
        <ele>327</ele>
        <time>2015-01-10T09:24:07.00Z</time>
      </trkpt>
      <trkpt lat="43.69865" lon="7.08754">
        <ele>325</ele>
        <time>2015-01-10T09:24:10.00Z</time>
      </trkpt>
      <trkpt lat="43.69855" lon="7.08762">
        <ele>324</ele>
        <time>2015-01-10T09:24:13.00Z</time>
      </trkpt>
      <trkpt lat="43.69843" lon="7.08769">
        <ele>323</ele>
        <time>2015-01-10T09:24:16.00Z</time>
      </trkpt>
      <trkpt lat="43.69835" lon="7.08774">
        <ele>324</ele>
        <time>2015-01-10T09:24:18.00Z</time>
      </trkpt>
      <trkpt lat="43.69826" lon="7.08779">
        <ele>324</ele>
        <time>2015-01-10T09:24:20.00Z</time>
      </trkpt>
      <trkpt lat="43.69816" lon="7.08784">
        <ele>323</ele>
        <time>2015-01-10T09:24:23.00Z</time>
      </trkpt>
      <trkpt lat="43.69807" lon="7.08793">
        <ele>321</ele>
        <time>2015-01-10T09:24:26.00Z</time>
      </trkpt>
      <trkpt lat="43.69797" lon="7.08802">
        <ele>321</ele>
        <time>2015-01-10T09:24:29.00Z</time>
      </trkpt>
      <trkpt lat="43.69787" lon="7.08806">
        <ele>320</ele>
        <time>2015-01-10T09:24:32.00Z</time>
      </trkpt>
      <trkpt lat="43.69778" lon="7.08809">
        <ele>320</ele>
        <time>2015-01-10T09:24:34.00Z</time>
      </trkpt>
      <trkpt lat="43.69769" lon="7.08813">
        <ele>319</ele>
        <time>2015-01-10T09:24:36.00Z</time>
      </trkpt>
      <trkpt lat="43.69759" lon="7.08818">
        <ele>318</ele>
        <time>2015-01-10T09:24:38.00Z</time>
      </trkpt>
      <trkpt lat="43.6975" lon="7.08824">
        <ele>317</ele>
        <time>2015-01-10T09:24:42.00Z</time>
      </trkpt>
      <trkpt lat="43.69739" lon="7.08827">
        <ele>315</ele>
        <time>2015-01-10T09:24:45.00Z</time>
      </trkpt>
      <trkpt lat="43.69727" lon="7.08831">
        <ele>314</ele>
        <time>2015-01-10T09:24:49.00Z</time>
      </trkpt>
      <trkpt lat="43.69717" lon="7.08835">
        <ele>312</ele>
        <time>2015-01-10T09:24:52.00Z</time>
      </trkpt>
      <trkpt lat="43.69708" lon="7.08842">
        <ele>310</ele>
        <time>2015-01-10T09:24:55.00Z</time>
      </trkpt>
      <trkpt lat="43.69699" lon="7.08848">
        <ele>307</ele>
        <time>2015-01-10T09:24:59.00Z</time>
      </trkpt>
      <trkpt lat="43.69707" lon="7.08842">
        <ele>310</ele>
        <time>2015-01-10T09:25:50.00Z</time>
      </trkpt>
      <trkpt lat="43.69715" lon="7.08834">
        <ele>312</ele>
        <time>2015-01-10T09:25:59.00Z</time>
      </trkpt>
      <trkpt lat="43.69724" lon="7.08832">
        <ele>314</ele>
        <time>2015-01-10T09:26:11.00Z</time>
      </trkpt>
      <trkpt lat="43.69733" lon="7.08828">
        <ele>314</ele>
        <time>2015-01-10T09:26:22.00Z</time>
      </trkpt>
      <trkpt lat="43.69743" lon="7.08825">
        <ele>318</ele>
        <time>2015-01-10T09:26:34.00Z</time>
      </trkpt>
      <trkpt lat="43.6975" lon="7.08819">
        <ele>318</ele>
        <time>2015-01-10T09:26:44.00Z</time>
      </trkpt>
      <trkpt lat="43.69759" lon="7.08814">
        <ele>321</ele>
        <time>2015-01-10T09:26:54.00Z</time>
      </trkpt>
      <trkpt lat="43.69766" lon="7.08806">
        <ele>330</ele>
        <time>2015-01-10T09:28:17.00Z</time>
      </trkpt>
      <trkpt lat="43.69775" lon="7.08804">
        <ele>326</ele>
        <time>2015-01-10T09:28:31.00Z</time>
      </trkpt>
      <trkpt lat="43.69785" lon="7.08802">
        <ele>325</ele>
        <time>2015-01-10T09:28:34.00Z</time>
      </trkpt>
      <trkpt lat="43.69795" lon="7.08798">
        <ele>322</ele>
        <time>2015-01-10T09:28:37.00Z</time>
      </trkpt>
      <trkpt lat="43.69803" lon="7.08792">
        <ele>327</ele>
        <time>2015-01-10T09:28:40.00Z</time>
      </trkpt>
      <trkpt lat="43.69814" lon="7.08784">
        <ele>327</ele>
        <time>2015-01-10T09:28:44.00Z</time>
      </trkpt>
      <trkpt lat="43.69825" lon="7.0878">
        <ele>326</ele>
        <time>2015-01-10T09:28:47.00Z</time>
      </trkpt>
      <trkpt lat="43.69837" lon="7.08773">
        <ele>325</ele>
        <time>2015-01-10T09:28:50.00Z</time>
      </trkpt>
      <trkpt lat="43.69848" lon="7.08766">
        <ele>326</ele>
        <time>2015-01-10T09:28:53.00Z</time>
      </trkpt>
      <trkpt lat="43.69859" lon="7.08757">
        <ele>325</ele>
        <time>2015-01-10T09:28:56.00Z</time>
      </trkpt>
      <trkpt lat="43.6987" lon="7.08749">
        <ele>328</ele>
        <time>2015-01-10T09:29:00.00Z</time>
      </trkpt>
      <trkpt lat="43.69879" lon="7.08743">
        <ele>328</ele>
        <time>2015-01-10T09:29:03.00Z</time>
      </trkpt>
      <trkpt lat="43.69875" lon="7.0873">
        <ele>329</ele>
        <time>2015-01-10T09:29:09.00Z</time>
      </trkpt>
      <trkpt lat="43.69869" lon="7.08719">
        <ele>328</ele>
        <time>2015-01-10T09:29:11.00Z</time>
      </trkpt>
      <trkpt lat="43.69859" lon="7.08705">
        <ele>326</ele>
        <time>2015-01-10T09:29:14.00Z</time>
      </trkpt>
      <trkpt lat="43.69848" lon="7.08692">
        <ele>325</ele>
        <time>2015-01-10T09:29:16.00Z</time>
      </trkpt>
      <trkpt lat="43.69839" lon="7.08683">
        <ele>324</ele>
        <time>2015-01-10T09:29:18.00Z</time>
      </trkpt>
      <trkpt lat="43.69828" lon="7.08674">
        <ele>324</ele>
        <time>2015-01-10T09:29:20.00Z</time>
      </trkpt>
      <trkpt lat="43.69817" lon="7.08671">
        <ele>323</ele>
        <time>2015-01-10T09:29:22.00Z</time>
      </trkpt>
      <trkpt lat="43.69808" lon="7.08666">
        <ele>322</ele>
        <time>2015-01-10T09:29:24.00Z</time>
      </trkpt>
      <trkpt lat="43.69799" lon="7.08662">
        <ele>321</ele>
        <time>2015-01-10T09:29:26.00Z</time>
      </trkpt>
      <trkpt lat="43.69789" lon="7.08658">
        <ele>322</ele>
        <time>2015-01-10T09:29:28.00Z</time>
      </trkpt>
      <trkpt lat="43.6978" lon="7.08652">
        <ele>322</ele>
        <time>2015-01-10T09:29:30.00Z</time>
      </trkpt>
      <trkpt lat="43.69771" lon="7.08641">
        <ele>324</ele>
        <time>2015-01-10T09:29:33.00Z</time>
      </trkpt>
      <trkpt lat="43.69763" lon="7.08632">
        <ele>325</ele>
        <time>2015-01-10T09:29:36.00Z</time>
      </trkpt>
      <trkpt lat="43.69756" lon="7.08622">
        <ele>325</ele>
        <time>2015-01-10T09:29:39.00Z</time>
      </trkpt>
      <trkpt lat="43.69746" lon="7.08612">
        <ele>326</ele>
        <time>2015-01-10T09:29:42.00Z</time>
      </trkpt>
      <trkpt lat="43.69737" lon="7.086">
        <ele>326</ele>
        <time>2015-01-10T09:29:45.00Z</time>
      </trkpt>
      <trkpt lat="43.6973" lon="7.08589">
        <ele>323</ele>
        <time>2015-01-10T09:29:47.00Z</time>
      </trkpt>
      <trkpt lat="43.69724" lon="7.0858">
        <ele>321</ele>
        <time>2015-01-10T09:29:49.00Z</time>
      </trkpt>
      <trkpt lat="43.69715" lon="7.08565">
        <ele>321</ele>
        <time>2015-01-10T09:29:51.00Z</time>
      </trkpt>
      <trkpt lat="43.69704" lon="7.08552">
        <ele>320</ele>
        <time>2015-01-10T09:29:53.00Z</time>
      </trkpt>
      <trkpt lat="43.69694" lon="7.08542">
        <ele>318</ele>
        <time>2015-01-10T09:29:55.00Z</time>
      </trkpt>
      <trkpt lat="43.69683" lon="7.08532">
        <ele>317</ele>
        <time>2015-01-10T09:29:57.00Z</time>
      </trkpt>
      <trkpt lat="43.6967" lon="7.08523">
        <ele>316</ele>
        <time>2015-01-10T09:29:59.00Z</time>
      </trkpt>
      <trkpt lat="43.69658" lon="7.08511">
        <ele>316</ele>
        <time>2015-01-10T09:30:01.00Z</time>
      </trkpt>
      <trkpt lat="43.69649" lon="7.08497">
        <ele>313</ele>
        <time>2015-01-10T09:30:03.00Z</time>
      </trkpt>
      <trkpt lat="43.69635" lon="7.08486">
        <ele>316</ele>
        <time>2015-01-10T09:30:05.00Z</time>
      </trkpt>
      <trkpt lat="43.69626" lon="7.08477">
        <ele>313</ele>
        <time>2015-01-10T09:30:07.00Z</time>
      </trkpt>
      <trkpt lat="43.69617" lon="7.08465">
        <ele>312</ele>
        <time>2015-01-10T09:30:09.00Z</time>
      </trkpt>
      <trkpt lat="43.69609" lon="7.08451">
        <ele>312</ele>
        <time>2015-01-10T09:30:11.00Z</time>
      </trkpt>
      <trkpt lat="43.69603" lon="7.08437">
        <ele>312</ele>
        <time>2015-01-10T09:30:13.00Z</time>
      </trkpt>
      <trkpt lat="43.69597" lon="7.08422">
        <ele>313</ele>
        <time>2015-01-10T09:30:15.00Z</time>
      </trkpt>
      <trkpt lat="43.69592" lon="7.08407">
        <ele>313</ele>
        <time>2015-01-10T09:30:17.00Z</time>
      </trkpt>
      <trkpt lat="43.69588" lon="7.08392">
        <ele>314</ele>
        <time>2015-01-10T09:30:19.00Z</time>
      </trkpt>
      <trkpt lat="43.69579" lon="7.08384">
        <ele>312</ele>
        <time>2015-01-10T09:30:21.00Z</time>
      </trkpt>
      <trkpt lat="43.6957" lon="7.08377">
        <ele>313</ele>
        <time>2015-01-10T09:30:23.00Z</time>
      </trkpt>
      <trkpt lat="43.69561" lon="7.08371">
        <ele>314</ele>
        <time>2015-01-10T09:30:25.00Z</time>
      </trkpt>
      <trkpt lat="43.69554" lon="7.08362">
        <ele>312</ele>
        <time>2015-01-10T09:30:28.00Z</time>
      </trkpt>
      <trkpt lat="43.69547" lon="7.08353">
        <ele>314</ele>
        <time>2015-01-10T09:30:30.00Z</time>
      </trkpt>
      <trkpt lat="43.69537" lon="7.08347">
        <ele>317</ele>
        <time>2015-01-10T09:30:32.00Z</time>
      </trkpt>
      <trkpt lat="43.69527" lon="7.08342">
        <ele>317</ele>
        <time>2015-01-10T09:30:35.00Z</time>
      </trkpt>
      <trkpt lat="43.69513" lon="7.08337">
        <ele>320</ele>
        <time>2015-01-10T09:30:40.00Z</time>
      </trkpt>
      <trkpt lat="43.69498" lon="7.08331">
        <ele>321</ele>
        <time>2015-01-10T09:30:46.00Z</time>
      </trkpt>
      <trkpt lat="43.69506" lon="7.08337">
        <ele>320</ele>
        <time>2015-01-10T09:31:23.00Z</time>
      </trkpt>
      <trkpt lat="43.69517" lon="7.08338">
        <ele>319</ele>
        <time>2015-01-10T09:31:27.00Z</time>
      </trkpt>
      <trkpt lat="43.69517" lon="7.08326">
        <ele>317</ele>
        <time>2015-01-10T09:31:32.00Z</time>
      </trkpt>
      <trkpt lat="43.69519" lon="7.08313">
        <ele>317</ele>
        <time>2015-01-10T09:31:38.00Z</time>
      </trkpt>
      <trkpt lat="43.69527" lon="7.08305">
        <ele>320</ele>
        <time>2015-01-10T09:31:44.00Z</time>
      </trkpt>
      <trkpt lat="43.69521" lon="7.08315">
        <ele>318</ele>
        <time>2015-01-10T09:31:55.00Z</time>
      </trkpt>
      <trkpt lat="43.69521" lon="7.08332">
        <ele>318</ele>
        <time>2015-01-10T09:32:00.00Z</time>
      </trkpt>
      <trkpt lat="43.69528" lon="7.08345">
        <ele>318</ele>
        <time>2015-01-10T09:32:03.00Z</time>
      </trkpt>
      <trkpt lat="43.69535" lon="7.08352">
        <ele>317</ele>
        <time>2015-01-10T09:32:05.00Z</time>
      </trkpt>
      <trkpt lat="43.69546" lon="7.08353">
        <ele>317</ele>
        <time>2015-01-10T09:32:06.00Z</time>
      </trkpt>
      <trkpt lat="43.69556" lon="7.08353">
        <ele>317</ele>
        <time>2015-01-10T09:32:09.00Z</time>
      </trkpt>
      <trkpt lat="43.69566" lon="7.08363">
        <ele>315</ele>
        <time>2015-01-10T09:32:13.00Z</time>
      </trkpt>
      <trkpt lat="43.69574" lon="7.08375">
        <ele>315</ele>
        <time>2015-01-10T09:32:16.00Z</time>
      </trkpt>
      <trkpt lat="43.69583" lon="7.08382">
        <ele>312</ele>
        <time>2015-01-10T09:32:19.00Z</time>
      </trkpt>
      <trkpt lat="43.69593" lon="7.0839">
        <ele>315</ele>
        <time>2015-01-10T09:32:22.00Z</time>
      </trkpt>
      <trkpt lat="43.69602" lon="7.08396">
        <ele>314</ele>
        <time>2015-01-10T09:32:25.00Z</time>
      </trkpt>
      <trkpt lat="43.69612" lon="7.08401">
        <ele>314</ele>
        <time>2015-01-10T09:32:29.00Z</time>
      </trkpt>
      <trkpt lat="43.69622" lon="7.08399">
        <ele>313</ele>
        <time>2015-01-10T09:32:34.00Z</time>
      </trkpt>
      <trkpt lat="43.6963" lon="7.08394">
        <ele>311</ele>
        <time>2015-01-10T09:32:39.00Z</time>
      </trkpt>
      <trkpt lat="43.69638" lon="7.08387">
        <ele>313</ele>
        <time>2015-01-10T09:32:46.00Z</time>
      </trkpt>
      <trkpt lat="43.69647" lon="7.08386">
        <ele>319</ele>
        <time>2015-01-10T09:32:55.00Z</time>
      </trkpt>
      <trkpt lat="43.69656" lon="7.08386">
        <ele>319</ele>
        <time>2015-01-10T09:33:02.00Z</time>
      </trkpt>
      <trkpt lat="43.69666" lon="7.08388">
        <ele>322</ele>
        <time>2015-01-10T09:33:10.00Z</time>
      </trkpt>
      <trkpt lat="43.69675" lon="7.08393">
        <ele>326</ele>
        <time>2015-01-10T09:33:19.00Z</time>
      </trkpt>
      <trkpt lat="43.69685" lon="7.08394">
        <ele>324</ele>
        <time>2015-01-10T09:33:27.00Z</time>
      </trkpt>
      <trkpt lat="43.69693" lon="7.08385">
        <ele>327</ele>
        <time>2015-01-10T09:33:36.00Z</time>
      </trkpt>
      <trkpt lat="43.69701" lon="7.08378">
        <ele>329</ele>
        <time>2015-01-10T09:33:43.00Z</time>
      </trkpt>
      <trkpt lat="43.69709" lon="7.08371">
        <ele>336</ele>
        <time>2015-01-10T09:34:09.00Z</time>
      </trkpt>
      <trkpt lat="43.69716" lon="7.08362">
        <ele>339</ele>
        <time>2015-01-10T09:34:48.00Z</time>
      </trkpt>
      <trkpt lat="43.69724" lon="7.08368">
        <ele>341</ele>
        <time>2015-01-10T09:35:07.00Z</time>
      </trkpt>
      <trkpt lat="43.69732" lon="7.08373">
        <ele>342</ele>
        <time>2015-01-10T09:35:13.00Z</time>
      </trkpt>
      <trkpt lat="43.6974" lon="7.08382">
        <ele>339</ele>
        <time>2015-01-10T09:35:19.00Z</time>
      </trkpt>
      <trkpt lat="43.6975" lon="7.0839">
        <ele>338</ele>
        <time>2015-01-10T09:35:24.00Z</time>
      </trkpt>
      <trkpt lat="43.69758" lon="7.08397">
        <ele>337</ele>
        <time>2015-01-10T09:35:29.00Z</time>
      </trkpt>
      <trkpt lat="43.69767" lon="7.08404">
        <ele>337</ele>
        <time>2015-01-10T09:35:34.00Z</time>
      </trkpt>
      <trkpt lat="43.69776" lon="7.08411">
        <ele>339</ele>
        <time>2015-01-10T09:35:39.00Z</time>
      </trkpt>
      <trkpt lat="43.69785" lon="7.08418">
        <ele>338</ele>
        <time>2015-01-10T09:35:44.00Z</time>
      </trkpt>
      <trkpt lat="43.69793" lon="7.08424">
        <ele>338</ele>
        <time>2015-01-10T09:35:48.00Z</time>
      </trkpt>
      <trkpt lat="43.69803" lon="7.08434">
        <ele>337</ele>
        <time>2015-01-10T09:35:52.00Z</time>
      </trkpt>
      <trkpt lat="43.69811" lon="7.08441">
        <ele>336</ele>
        <time>2015-01-10T09:35:55.00Z</time>
      </trkpt>
      <trkpt lat="43.69819" lon="7.08448">
        <ele>337</ele>
        <time>2015-01-10T09:35:58.00Z</time>
      </trkpt>
      <trkpt lat="43.69827" lon="7.08456">
        <ele>340</ele>
        <time>2015-01-10T09:36:01.00Z</time>
      </trkpt>
      <trkpt lat="43.69836" lon="7.08463">
        <ele>339</ele>
        <time>2015-01-10T09:36:04.00Z</time>
      </trkpt>
      <trkpt lat="43.69844" lon="7.0847">
        <ele>340</ele>
        <time>2015-01-10T09:36:07.00Z</time>
      </trkpt>
      <trkpt lat="43.69852" lon="7.08479">
        <ele>341</ele>
        <time>2015-01-10T09:36:10.00Z</time>
      </trkpt>
      <trkpt lat="43.6986" lon="7.08486">
        <ele>340</ele>
        <time>2015-01-10T09:36:13.00Z</time>
      </trkpt>
      <trkpt lat="43.69868" lon="7.08493">
        <ele>341</ele>
        <time>2015-01-10T09:36:16.00Z</time>
      </trkpt>
      <trkpt lat="43.69877" lon="7.08499">
        <ele>338</ele>
        <time>2015-01-10T09:36:19.00Z</time>
      </trkpt>
      <trkpt lat="43.69886" lon="7.08506">
        <ele>342</ele>
        <time>2015-01-10T09:36:22.00Z</time>
      </trkpt>
      <trkpt lat="43.69894" lon="7.08513">
        <ele>342</ele>
        <time>2015-01-10T09:36:25.00Z</time>
      </trkpt>
      <trkpt lat="43.69902" lon="7.08519">
        <ele>341</ele>
        <time>2015-01-10T09:36:28.00Z</time>
      </trkpt>
      <trkpt lat="43.69913" lon="7.08526">
        <ele>342</ele>
        <time>2015-01-10T09:36:32.00Z</time>
      </trkpt>
      <trkpt lat="43.6992" lon="7.08533">
        <ele>343</ele>
        <time>2015-01-10T09:36:36.00Z</time>
      </trkpt>
      <trkpt lat="43.69929" lon="7.08542">
        <ele>343</ele>
        <time>2015-01-10T09:36:41.00Z</time>
      </trkpt>
      <trkpt lat="43.69937" lon="7.08548">
        <ele>345</ele>
        <time>2015-01-10T09:36:45.00Z</time>
      </trkpt>
      <trkpt lat="43.69946" lon="7.08554">
        <ele>346</ele>
        <time>2015-01-10T09:36:49.00Z</time>
      </trkpt>
      <trkpt lat="43.69955" lon="7.08562">
        <ele>346</ele>
        <time>2015-01-10T09:36:53.00Z</time>
      </trkpt>
      <trkpt lat="43.69964" lon="7.08568">
        <ele>346</ele>
        <time>2015-01-10T09:36:57.00Z</time>
      </trkpt>
      <trkpt lat="43.69972" lon="7.08576">
        <ele>345</ele>
        <time>2015-01-10T09:37:01.00Z</time>
      </trkpt>
      <trkpt lat="43.6998" lon="7.08582">
        <ele>347</ele>
        <time>2015-01-10T09:37:05.00Z</time>
      </trkpt>
      <trkpt lat="43.6999" lon="7.08589">
        <ele>346</ele>
        <time>2015-01-10T09:37:09.00Z</time>
      </trkpt>
      <trkpt lat="43.69999" lon="7.08596">
        <ele>347</ele>
        <time>2015-01-10T09:37:13.00Z</time>
      </trkpt>
      <trkpt lat="43.70007" lon="7.08602">
        <ele>348</ele>
        <time>2015-01-10T09:37:17.00Z</time>
      </trkpt>
      <trkpt lat="43.70015" lon="7.08607">
        <ele>348</ele>
        <time>2015-01-10T09:37:21.00Z</time>
      </trkpt>
      <trkpt lat="43.70025" lon="7.08615">
        <ele>350</ele>
        <time>2015-01-10T09:37:26.00Z</time>
      </trkpt>
      <trkpt lat="43.70034" lon="7.08622">
        <ele>351</ele>
        <time>2015-01-10T09:37:31.00Z</time>
      </trkpt>
      <trkpt lat="43.70044" lon="7.08631">
        <ele>353</ele>
        <time>2015-01-10T09:37:36.00Z</time>
      </trkpt>
      <trkpt lat="43.70053" lon="7.08639">
        <ele>353</ele>
        <time>2015-01-10T09:37:41.00Z</time>
      </trkpt>
      <trkpt lat="43.70062" lon="7.08646">
        <ele>353</ele>
        <time>2015-01-10T09:37:45.00Z</time>
      </trkpt>
      <trkpt lat="43.70071" lon="7.0865">
        <ele>353</ele>
        <time>2015-01-10T09:37:48.00Z</time>
      </trkpt>
      <trkpt lat="43.70081" lon="7.08653">
        <ele>353</ele>
        <time>2015-01-10T09:37:51.00Z</time>
      </trkpt>
      <trkpt lat="43.70089" lon="7.08657">
        <ele>352</ele>
        <time>2015-01-10T09:37:54.00Z</time>
      </trkpt>
      <trkpt lat="43.70098" lon="7.08661">
        <ele>353</ele>
        <time>2015-01-10T09:37:57.00Z</time>
      </trkpt>
      <trkpt lat="43.70106" lon="7.08666">
        <ele>353</ele>
        <time>2015-01-10T09:38:00.00Z</time>
      </trkpt>
      <trkpt lat="43.70116" lon="7.08673">
        <ele>353</ele>
        <time>2015-01-10T09:38:04.00Z</time>
      </trkpt>
      <trkpt lat="43.70126" lon="7.08671">
        <ele>356</ele>
        <time>2015-01-10T09:38:08.00Z</time>
      </trkpt>
      <trkpt lat="43.70133" lon="7.08662">
        <ele>355</ele>
        <time>2015-01-10T09:38:10.00Z</time>
      </trkpt>
      <trkpt lat="43.70141" lon="7.08653">
        <ele>355</ele>
        <time>2015-01-10T09:38:13.00Z</time>
      </trkpt>
      <trkpt lat="43.70151" lon="7.08655">
        <ele>355</ele>
        <time>2015-01-10T09:38:16.00Z</time>
      </trkpt>
      <trkpt lat="43.70163" lon="7.08653">
        <ele>354</ele>
        <time>2015-01-10T09:38:19.00Z</time>
      </trkpt>
      <trkpt lat="43.70174" lon="7.08646">
        <ele>355</ele>
        <time>2015-01-10T09:38:22.00Z</time>
      </trkpt>
      <trkpt lat="43.70182" lon="7.08633">
        <ele>358</ele>
        <time>2015-01-10T09:38:25.00Z</time>
      </trkpt>
      <trkpt lat="43.70189" lon="7.08624">
        <ele>357</ele>
        <time>2015-01-10T09:38:28.00Z</time>
      </trkpt>
      <trkpt lat="43.70197" lon="7.08617">
        <ele>358</ele>
        <time>2015-01-10T09:38:31.00Z</time>
      </trkpt>
      <trkpt lat="43.70207" lon="7.08612">
        <ele>360</ele>
        <time>2015-01-10T09:38:35.00Z</time>
      </trkpt>
      <trkpt lat="43.70216" lon="7.08605">
        <ele>360</ele>
        <time>2015-01-10T09:38:39.00Z</time>
      </trkpt>
      <trkpt lat="43.70218" lon="7.08591">
        <ele>361</ele>
        <time>2015-01-10T09:38:43.00Z</time>
      </trkpt>
      <trkpt lat="43.70226" lon="7.08583">
        <ele>361</ele>
        <time>2015-01-10T09:38:49.00Z</time>
      </trkpt>
      <trkpt lat="43.70236" lon="7.08579">
        <ele>364</ele>
        <time>2015-01-10T09:38:54.00Z</time>
      </trkpt>
      <trkpt lat="43.70245" lon="7.08577">
        <ele>364</ele>
        <time>2015-01-10T09:38:58.00Z</time>
      </trkpt>
      <trkpt lat="43.70255" lon="7.08572">
        <ele>363</ele>
        <time>2015-01-10T09:39:03.00Z</time>
      </trkpt>
      <trkpt lat="43.70264" lon="7.08567">
        <ele>366</ele>
        <time>2015-01-10T09:39:07.00Z</time>
      </trkpt>
      <trkpt lat="43.70274" lon="7.08564">
        <ele>365</ele>
        <time>2015-01-10T09:39:12.00Z</time>
      </trkpt>
      <trkpt lat="43.70282" lon="7.08555">
        <ele>366</ele>
        <time>2015-01-10T09:39:17.00Z</time>
      </trkpt>
      <trkpt lat="43.70292" lon="7.0855">
        <ele>368</ele>
        <time>2015-01-10T09:39:23.00Z</time>
      </trkpt>
      <trkpt lat="43.70304" lon="7.08547">
        <ele>369</ele>
        <time>2015-01-10T09:39:28.00Z</time>
      </trkpt>
      <trkpt lat="43.70313" lon="7.08543">
        <ele>371</ele>
        <time>2015-01-10T09:39:32.00Z</time>
      </trkpt>
      <trkpt lat="43.70322" lon="7.08536">
        <ele>371</ele>
        <time>2015-01-10T09:39:36.00Z</time>
      </trkpt>
      <trkpt lat="43.70329" lon="7.08528">
        <ele>369</ele>
        <time>2015-01-10T09:39:56.00Z</time>
      </trkpt>
      <trkpt lat="43.7034" lon="7.08525">
        <ele>368</ele>
        <time>2015-01-10T09:40:09.00Z</time>
      </trkpt>
      <trkpt lat="43.70347" lon="7.08517">
        <ele>369</ele>
        <time>2015-01-10T09:40:13.00Z</time>
      </trkpt>
      <trkpt lat="43.70352" lon="7.08507">
        <ele>372</ele>
        <time>2015-01-10T09:40:18.00Z</time>
      </trkpt>
      <trkpt lat="43.7036" lon="7.08499">
        <ele>371</ele>
        <time>2015-01-10T09:40:23.00Z</time>
      </trkpt>
      <trkpt lat="43.70371" lon="7.08501">
        <ele>371</ele>
        <time>2015-01-10T09:40:27.00Z</time>
      </trkpt>
      <trkpt lat="43.7038" lon="7.08506">
        <ele>371</ele>
        <time>2015-01-10T09:40:30.00Z</time>
      </trkpt>
      <trkpt lat="43.70389" lon="7.0851">
        <ele>372</ele>
        <time>2015-01-10T09:40:33.00Z</time>
      </trkpt>
      <trkpt lat="43.704" lon="7.08511">
        <ele>370</ele>
        <time>2015-01-10T09:40:36.00Z</time>
      </trkpt>
      <trkpt lat="43.70411" lon="7.08511">
        <ele>369</ele>
        <time>2015-01-10T09:40:39.00Z</time>
      </trkpt>
      <trkpt lat="43.70423" lon="7.0851">
        <ele>369</ele>
        <time>2015-01-10T09:40:42.00Z</time>
      </trkpt>
      <trkpt lat="43.70437" lon="7.08511">
        <ele>369</ele>
        <time>2015-01-10T09:40:45.00Z</time>
      </trkpt>
      <trkpt lat="43.70449" lon="7.08513">
        <ele>367</ele>
        <time>2015-01-10T09:40:47.00Z</time>
      </trkpt>
      <trkpt lat="43.70459" lon="7.08517">
        <ele>366</ele>
        <time>2015-01-10T09:40:49.00Z</time>
      </trkpt>
      <trkpt lat="43.70468" lon="7.08525">
        <ele>366</ele>
        <time>2015-01-10T09:40:51.00Z</time>
      </trkpt>
      <trkpt lat="43.70479" lon="7.08528">
        <ele>364</ele>
        <time>2015-01-10T09:40:53.00Z</time>
      </trkpt>
      <trkpt lat="43.70491" lon="7.08535">
        <ele>364</ele>
        <time>2015-01-10T09:40:56.00Z</time>
      </trkpt>
      <trkpt lat="43.70498" lon="7.08547">
        <ele>365</ele>
        <time>2015-01-10T09:40:59.00Z</time>
      </trkpt>
      <trkpt lat="43.70508" lon="7.08556">
        <ele>366</ele>
        <time>2015-01-10T09:41:03.00Z</time>
      </trkpt>
      <trkpt lat="43.70518" lon="7.08565">
        <ele>366</ele>
        <time>2015-01-10T09:41:06.00Z</time>
      </trkpt>
      <trkpt lat="43.70528" lon="7.08575">
        <ele>365</ele>
        <time>2015-01-10T09:41:09.00Z</time>
      </trkpt>
      <trkpt lat="43.70538" lon="7.08584">
        <ele>364</ele>
        <time>2015-01-10T09:41:11.00Z</time>
      </trkpt>
      <trkpt lat="43.70546" lon="7.08595">
        <ele>363</ele>
        <time>2015-01-10T09:41:13.00Z</time>
      </trkpt>
      <trkpt lat="43.70554" lon="7.08605">
        <ele>364</ele>
        <time>2015-01-10T09:41:15.00Z</time>
      </trkpt>
      <trkpt lat="43.70564" lon="7.08613">
        <ele>363</ele>
        <time>2015-01-10T09:41:17.00Z</time>
      </trkpt>
      <trkpt lat="43.70569" lon="7.08628">
        <ele>363</ele>
        <time>2015-01-10T09:41:19.00Z</time>
      </trkpt>
      <trkpt lat="43.70572" lon="7.08641">
        <ele>365</ele>
        <time>2015-01-10T09:41:21.00Z</time>
      </trkpt>
      <trkpt lat="43.70579" lon="7.08649">
        <ele>366</ele>
        <time>2015-01-10T09:41:23.00Z</time>
      </trkpt>
      <trkpt lat="43.70586" lon="7.08641">
        <ele>362</ele>
        <time>2015-01-10T09:41:28.00Z</time>
      </trkpt>
      <trkpt lat="43.70596" lon="7.08644">
        <ele>365</ele>
        <time>2015-01-10T09:41:33.00Z</time>
      </trkpt>
      <trkpt lat="43.70604" lon="7.08653">
        <ele>365</ele>
        <time>2015-01-10T09:41:38.00Z</time>
      </trkpt>
      <trkpt lat="43.70614" lon="7.08658">
        <ele>366</ele>
        <time>2015-01-10T09:41:42.00Z</time>
      </trkpt>
      <trkpt lat="43.70623" lon="7.08664">
        <ele>369</ele>
        <time>2015-01-10T09:41:47.00Z</time>
      </trkpt>
      <trkpt lat="43.70631" lon="7.0866">
        <ele>370</ele>
        <time>2015-01-10T09:42:05.00Z</time>
      </trkpt>
      <trkpt lat="43.70641" lon="7.0866">
        <ele>371</ele>
        <time>2015-01-10T09:42:11.00Z</time>
      </trkpt>
      <trkpt lat="43.7065" lon="7.08664">
        <ele>373</ele>
        <time>2015-01-10T09:42:17.00Z</time>
      </trkpt>
      <trkpt lat="43.7066" lon="7.08669">
        <ele>372</ele>
        <time>2015-01-10T09:42:33.00Z</time>
      </trkpt>
      <trkpt lat="43.70668" lon="7.08664">
        <ele>373</ele>
        <time>2015-01-10T09:42:39.00Z</time>
      </trkpt>
      <trkpt lat="43.70678" lon="7.08663">
        <ele>374</ele>
        <time>2015-01-10T09:42:47.00Z</time>
      </trkpt>
      <trkpt lat="43.70687" lon="7.08665">
        <ele>373</ele>
        <time>2015-01-10T09:42:52.00Z</time>
      </trkpt>
      <trkpt lat="43.70696" lon="7.08665">
        <ele>374</ele>
        <time>2015-01-10T09:42:58.00Z</time>
      </trkpt>
      <trkpt lat="43.70704" lon="7.08656">
        <ele>373</ele>
        <time>2015-01-10T09:43:03.00Z</time>
      </trkpt>
      <trkpt lat="43.70709" lon="7.08646">
        <ele>374</ele>
        <time>2015-01-10T09:43:08.00Z</time>
      </trkpt>
      <trkpt lat="43.70717" lon="7.08636">
        <ele>376</ele>
        <time>2015-01-10T09:43:14.00Z</time>
      </trkpt>
      <trkpt lat="43.70726" lon="7.08643">
        <ele>377</ele>
        <time>2015-01-10T09:43:19.00Z</time>
      </trkpt>
      <trkpt lat="43.70738" lon="7.08648">
        <ele>376</ele>
        <time>2015-01-10T09:43:23.00Z</time>
      </trkpt>
      <trkpt lat="43.70748" lon="7.08651">
        <ele>375</ele>
        <time>2015-01-10T09:43:26.00Z</time>
      </trkpt>
      <trkpt lat="43.70757" lon="7.08654">
        <ele>376</ele>
        <time>2015-01-10T09:43:29.00Z</time>
      </trkpt>
      <trkpt lat="43.70766" lon="7.08658">
        <ele>375</ele>
        <time>2015-01-10T09:43:32.00Z</time>
      </trkpt>
      <trkpt lat="43.70776" lon="7.08663">
        <ele>371</ele>
        <time>2015-01-10T09:43:35.00Z</time>
      </trkpt>
      <trkpt lat="43.70786" lon="7.08666">
        <ele>373</ele>
        <time>2015-01-10T09:43:38.00Z</time>
      </trkpt>
      <trkpt lat="43.70796" lon="7.08669">
        <ele>371</ele>
        <time>2015-01-10T09:43:41.00Z</time>
      </trkpt>
      <trkpt lat="43.70805" lon="7.08672">
        <ele>372</ele>
        <time>2015-01-10T09:43:44.00Z</time>
      </trkpt>
      <trkpt lat="43.70813" lon="7.08679">
        <ele>373</ele>
        <time>2015-01-10T09:43:48.00Z</time>
      </trkpt>
      <trkpt lat="43.70818" lon="7.0869">
        <ele>373</ele>
        <time>2015-01-10T09:43:52.00Z</time>
      </trkpt>
      <trkpt lat="43.70823" lon="7.08702">
        <ele>373</ele>
        <time>2015-01-10T09:43:56.00Z</time>
      </trkpt>
      <trkpt lat="43.70825" lon="7.08715">
        <ele>374</ele>
        <time>2015-01-10T09:44:00.00Z</time>
      </trkpt>
      <trkpt lat="43.70829" lon="7.08727">
        <ele>373</ele>
        <time>2015-01-10T09:44:04.00Z</time>
      </trkpt>
      <trkpt lat="43.70837" lon="7.08743">
        <ele>371</ele>
        <time>2015-01-10T09:44:08.00Z</time>
      </trkpt>
      <trkpt lat="43.70844" lon="7.08758">
        <ele>370</ele>
        <time>2015-01-10T09:44:11.00Z</time>
      </trkpt>
      <trkpt lat="43.7085" lon="7.08775">
        <ele>369</ele>
        <time>2015-01-10T09:44:13.00Z</time>
      </trkpt>
      <trkpt lat="43.70856" lon="7.0879">
        <ele>371</ele>
        <time>2015-01-10T09:44:16.00Z</time>
      </trkpt>
      <trkpt lat="43.70861" lon="7.08801">
        <ele>373</ele>
        <time>2015-01-10T09:44:19.00Z</time>
      </trkpt>
      <trkpt lat="43.70865" lon="7.08817">
        <ele>374</ele>
        <time>2015-01-10T09:44:23.00Z</time>
      </trkpt>
      <trkpt lat="43.70866" lon="7.08831">
        <ele>374</ele>
        <time>2015-01-10T09:44:27.00Z</time>
      </trkpt>
      <trkpt lat="43.70868" lon="7.08844">
        <ele>374</ele>
        <time>2015-01-10T09:44:31.00Z</time>
      </trkpt>
      <trkpt lat="43.7087" lon="7.08857">
        <ele>375</ele>
        <time>2015-01-10T09:44:37.00Z</time>
      </trkpt>
      <trkpt lat="43.7087" lon="7.08872">
        <ele>377</ele>
        <time>2015-01-10T09:44:42.00Z</time>
      </trkpt>
      <trkpt lat="43.70873" lon="7.08884">
        <ele>378</ele>
        <time>2015-01-10T09:44:46.00Z</time>
      </trkpt>
      <trkpt lat="43.70878" lon="7.08898">
        <ele>377</ele>
        <time>2015-01-10T09:44:51.00Z</time>
      </trkpt>
      <trkpt lat="43.70881" lon="7.0891">
        <ele>379</ele>
        <time>2015-01-10T09:44:55.00Z</time>
      </trkpt>
      <trkpt lat="43.70883" lon="7.08924">
        <ele>378</ele>
        <time>2015-01-10T09:45:00.00Z</time>
      </trkpt>
      <trkpt lat="43.70886" lon="7.08936">
        <ele>380</ele>
        <time>2015-01-10T09:45:04.00Z</time>
      </trkpt>
      <trkpt lat="43.70892" lon="7.0895">
        <ele>382</ele>
        <time>2015-01-10T09:45:09.00Z</time>
      </trkpt>
      <trkpt lat="43.70896" lon="7.08963">
        <ele>383</ele>
        <time>2015-01-10T09:45:14.00Z</time>
      </trkpt>
      <trkpt lat="43.70893" lon="7.08977">
        <ele>383</ele>
        <time>2015-01-10T09:45:19.00Z</time>
      </trkpt>
      <trkpt lat="43.70886" lon="7.08988">
        <ele>385</ele>
        <time>2015-01-10T09:45:22.00Z</time>
      </trkpt>
      <trkpt lat="43.70879" lon="7.09">
        <ele>385</ele>
        <time>2015-01-10T09:45:26.00Z</time>
      </trkpt>
      <trkpt lat="43.70873" lon="7.09015">
        <ele>383</ele>
        <time>2015-01-10T09:45:30.00Z</time>
      </trkpt>
      <trkpt lat="43.7087" lon="7.09028">
        <ele>384</ele>
        <time>2015-01-10T09:45:33.00Z</time>
      </trkpt>
      <trkpt lat="43.70867" lon="7.09039">
        <ele>384</ele>
        <time>2015-01-10T09:45:36.00Z</time>
      </trkpt>
      <trkpt lat="43.70864" lon="7.09051">
        <ele>384</ele>
        <time>2015-01-10T09:45:39.00Z</time>
      </trkpt>
      <trkpt lat="43.7086" lon="7.09064">
        <ele>383</ele>
        <time>2015-01-10T09:45:42.00Z</time>
      </trkpt>
      <trkpt lat="43.70853" lon="7.09075">
        <ele>383</ele>
        <time>2015-01-10T09:45:46.00Z</time>
      </trkpt>
      <trkpt lat="43.70842" lon="7.09076">
        <ele>384</ele>
        <time>2015-01-10T09:45:50.00Z</time>
      </trkpt>
      <trkpt lat="43.7083" lon="7.0908">
        <ele>384</ele>
        <time>2015-01-10T09:45:54.00Z</time>
      </trkpt>
      <trkpt lat="43.70821" lon="7.09081">
        <ele>385</ele>
        <time>2015-01-10T09:45:58.00Z</time>
      </trkpt>
      <trkpt lat="43.7081" lon="7.09081">
        <ele>383</ele>
        <time>2015-01-10T09:46:01.00Z</time>
      </trkpt>
      <trkpt lat="43.70799" lon="7.0908">
        <ele>381</ele>
        <time>2015-01-10T09:46:04.00Z</time>
      </trkpt>
      <trkpt lat="43.70787" lon="7.09078">
        <ele>376</ele>
        <time>2015-01-10T09:46:07.00Z</time>
      </trkpt>
      <trkpt lat="43.70775" lon="7.09076">
        <ele>374</ele>
        <time>2015-01-10T09:46:10.00Z</time>
      </trkpt>
      <trkpt lat="43.70762" lon="7.09076">
        <ele>377</ele>
        <time>2015-01-10T09:46:13.00Z</time>
      </trkpt>
      <trkpt lat="43.70753" lon="7.09077">
        <ele>378</ele>
        <time>2015-01-10T09:46:16.00Z</time>
      </trkpt>
      <trkpt lat="43.70743" lon="7.09077">
        <ele>378</ele>
        <time>2015-01-10T09:46:20.00Z</time>
      </trkpt>
      <trkpt lat="43.70732" lon="7.09074">
        <ele>380</ele>
        <time>2015-01-10T09:46:24.00Z</time>
      </trkpt>
      <trkpt lat="43.70721" lon="7.09071">
        <ele>380</ele>
        <time>2015-01-10T09:46:27.00Z</time>
      </trkpt>
      <trkpt lat="43.70711" lon="7.09069">
        <ele>385</ele>
        <time>2015-01-10T09:46:29.00Z</time>
      </trkpt>
      <trkpt lat="43.70699" lon="7.09064">
        <ele>385</ele>
        <time>2015-01-10T09:46:32.00Z</time>
      </trkpt>
      <trkpt lat="43.70688" lon="7.09061">
        <ele>385</ele>
        <time>2015-01-10T09:46:34.00Z</time>
      </trkpt>
      <trkpt lat="43.70679" lon="7.09057">
        <ele>384</ele>
        <time>2015-01-10T09:46:36.00Z</time>
      </trkpt>
      <trkpt lat="43.70667" lon="7.09054">
        <ele>384</ele>
        <time>2015-01-10T09:46:39.00Z</time>
      </trkpt>
      <trkpt lat="43.70652" lon="7.09051">
        <ele>383</ele>
        <time>2015-01-10T09:46:42.00Z</time>
      </trkpt>
      <trkpt lat="43.70643" lon="7.09047">
        <ele>383</ele>
        <time>2015-01-10T09:46:44.00Z</time>
      </trkpt>
      <trkpt lat="43.70631" lon="7.09045">
        <ele>383</ele>
        <time>2015-01-10T09:46:47.00Z</time>
      </trkpt>
      <trkpt lat="43.70621" lon="7.09043">
        <ele>381</ele>
        <time>2015-01-10T09:46:49.00Z</time>
      </trkpt>
      <trkpt lat="43.70612" lon="7.0904">
        <ele>383</ele>
        <time>2015-01-10T09:46:51.00Z</time>
      </trkpt>
      <trkpt lat="43.70602" lon="7.09041">
        <ele>382</ele>
        <time>2015-01-10T09:46:53.00Z</time>
      </trkpt>
      <trkpt lat="43.70593" lon="7.0904">
        <ele>380</ele>
        <time>2015-01-10T09:46:55.00Z</time>
      </trkpt>
      <trkpt lat="43.70581" lon="7.09038">
        <ele>380</ele>
        <time>2015-01-10T09:46:57.00Z</time>
      </trkpt>
      <trkpt lat="43.7057" lon="7.09043">
        <ele>380</ele>
        <time>2015-01-10T09:47:00.00Z</time>
      </trkpt>
      <trkpt lat="43.70561" lon="7.09051">
        <ele>378</ele>
        <time>2015-01-10T09:47:04.00Z</time>
      </trkpt>
      <trkpt lat="43.70552" lon="7.09056">
        <ele>377</ele>
        <time>2015-01-10T09:47:08.00Z</time>
      </trkpt>
      <trkpt lat="43.70545" lon="7.09063">
        <ele>379</ele>
        <time>2015-01-10T09:47:12.00Z</time>
      </trkpt>
      <trkpt lat="43.70539" lon="7.09074">
        <ele>376</ele>
        <time>2015-01-10T09:47:18.00Z</time>
      </trkpt>
      <trkpt lat="43.70535" lon="7.09087">
        <ele>377</ele>
        <time>2015-01-10T09:47:24.00Z</time>
      </trkpt>
      <trkpt lat="43.70532" lon="7.09105">
        <ele>374</ele>
        <time>2015-01-10T09:47:28.00Z</time>
      </trkpt>
      <trkpt lat="43.70531" lon="7.09125">
        <ele>375</ele>
        <time>2015-01-10T09:47:30.00Z</time>
      </trkpt>
      <trkpt lat="43.7053" lon="7.09143">
        <ele>374</ele>
        <time>2015-01-10T09:47:32.00Z</time>
      </trkpt>
      <trkpt lat="43.70531" lon="7.09163">
        <ele>373</ele>
        <time>2015-01-10T09:47:34.00Z</time>
      </trkpt>
      <trkpt lat="43.70533" lon="7.09175">
        <ele>374</ele>
        <time>2015-01-10T09:47:36.00Z</time>
      </trkpt>
      <trkpt lat="43.70541" lon="7.09184">
        <ele>375</ele>
        <time>2015-01-10T09:47:41.00Z</time>
      </trkpt>
      <trkpt lat="43.70551" lon="7.09192">
        <ele>374</ele>
        <time>2015-01-10T09:47:46.00Z</time>
      </trkpt>
      <trkpt lat="43.70555" lon="7.09205">
        <ele>376</ele>
        <time>2015-01-10T09:47:50.00Z</time>
      </trkpt>
      <trkpt lat="43.70559" lon="7.09218">
        <ele>379</ele>
        <time>2015-01-10T09:47:54.00Z</time>
      </trkpt>
      <trkpt lat="43.70564" lon="7.09232">
        <ele>380</ele>
        <time>2015-01-10T09:47:58.00Z</time>
      </trkpt>
      <trkpt lat="43.70566" lon="7.09246">
        <ele>380</ele>
        <time>2015-01-10T09:48:02.00Z</time>
      </trkpt>
      <trkpt lat="43.70572" lon="7.09256">
        <ele>384</ele>
        <time>2015-01-10T09:48:08.00Z</time>
      </trkpt>
      <trkpt lat="43.70577" lon="7.09266">
        <ele>386</ele>
        <time>2015-01-10T09:48:14.00Z</time>
      </trkpt>
      <trkpt lat="43.70583" lon="7.09276">
        <ele>385</ele>
        <time>2015-01-10T09:48:27.00Z</time>
      </trkpt>
      <trkpt lat="43.70593" lon="7.09286">
        <ele>387</ele>
        <time>2015-01-10T09:48:33.00Z</time>
      </trkpt>
      <trkpt lat="43.70602" lon="7.09293">
        <ele>387</ele>
        <time>2015-01-10T09:48:38.00Z</time>
      </trkpt>
      <trkpt lat="43.70612" lon="7.093">
        <ele>388</ele>
        <time>2015-01-10T09:48:43.00Z</time>
      </trkpt>
      <trkpt lat="43.70622" lon="7.093">
        <ele>390</ele>
        <time>2015-01-10T09:48:50.00Z</time>
      </trkpt>
      <trkpt lat="43.70631" lon="7.09298">
        <ele>391</ele>
        <time>2015-01-10T09:48:56.00Z</time>
      </trkpt>
      <trkpt lat="43.70641" lon="7.09293">
        <ele>393</ele>
        <time>2015-01-10T09:49:02.00Z</time>
      </trkpt>
      <trkpt lat="43.70648" lon="7.09283">
        <ele>395</ele>
        <time>2015-01-10T09:49:06.00Z</time>
      </trkpt>
      <trkpt lat="43.70656" lon="7.09275">
        <ele>396</ele>
        <time>2015-01-10T09:49:10.00Z</time>
      </trkpt>
      <trkpt lat="43.70664" lon="7.09265">
        <ele>399</ele>
        <time>2015-01-10T09:49:14.00Z</time>
      </trkpt>
      <trkpt lat="43.70672" lon="7.0926">
        <ele>399</ele>
        <time>2015-01-10T09:49:19.00Z</time>
      </trkpt>
      <trkpt lat="43.70681" lon="7.09256">
        <ele>397</ele>
        <time>2015-01-10T09:52:37.00Z</time>
      </trkpt>
      <trkpt lat="43.70691" lon="7.09253">
        <ele>397</ele>
        <time>2015-01-10T09:52:53.00Z</time>
      </trkpt>
      <trkpt lat="43.70702" lon="7.09247">
        <ele>396</ele>
        <time>2015-01-10T09:52:56.00Z</time>
      </trkpt>
      <trkpt lat="43.70709" lon="7.0924">
        <ele>396</ele>
        <time>2015-01-10T09:52:58.00Z</time>
      </trkpt>
      <trkpt lat="43.70719" lon="7.09228">
        <ele>396</ele>
        <time>2015-01-10T09:53:00.00Z</time>
      </trkpt>
      <trkpt lat="43.70727" lon="7.09214">
        <ele>395</ele>
        <time>2015-01-10T09:53:02.00Z</time>
      </trkpt>
      <trkpt lat="43.70738" lon="7.09201">
        <ele>395</ele>
        <time>2015-01-10T09:53:04.00Z</time>
      </trkpt>
      <trkpt lat="43.70749" lon="7.09187">
        <ele>393</ele>
        <time>2015-01-10T09:53:06.00Z</time>
      </trkpt>
      <trkpt lat="43.7076" lon="7.09173">
        <ele>394</ele>
        <time>2015-01-10T09:53:08.00Z</time>
      </trkpt>
      <trkpt lat="43.70769" lon="7.09164">
        <ele>392</ele>
        <time>2015-01-10T09:53:10.00Z</time>
      </trkpt>
      <trkpt lat="43.70781" lon="7.09158">
        <ele>392</ele>
        <time>2015-01-10T09:53:12.00Z</time>
      </trkpt>
      <trkpt lat="43.70791" lon="7.09153">
        <ele>390</ele>
        <time>2015-01-10T09:53:14.00Z</time>
      </trkpt>
      <trkpt lat="43.70802" lon="7.09151">
        <ele>390</ele>
        <time>2015-01-10T09:53:16.00Z</time>
      </trkpt>
      <trkpt lat="43.70814" lon="7.09147">
        <ele>389</ele>
        <time>2015-01-10T09:53:18.00Z</time>
      </trkpt>
      <trkpt lat="43.70824" lon="7.09136">
        <ele>389</ele>
        <time>2015-01-10T09:53:20.00Z</time>
      </trkpt>
      <trkpt lat="43.70835" lon="7.0913">
        <ele>390</ele>
        <time>2015-01-10T09:53:22.00Z</time>
      </trkpt>
      <trkpt lat="43.70847" lon="7.09126">
        <ele>391</ele>
        <time>2015-01-10T09:53:24.00Z</time>
      </trkpt>
      <trkpt lat="43.7086" lon="7.09129">
        <ele>393</ele>
        <time>2015-01-10T09:53:26.00Z</time>
      </trkpt>
      <trkpt lat="43.70874" lon="7.09125">
        <ele>394</ele>
        <time>2015-01-10T09:53:28.00Z</time>
      </trkpt>
      <trkpt lat="43.70884" lon="7.09123">
        <ele>394</ele>
        <time>2015-01-10T09:53:30.00Z</time>
      </trkpt>
      <trkpt lat="43.70895" lon="7.0912">
        <ele>394</ele>
        <time>2015-01-10T09:53:32.00Z</time>
      </trkpt>
      <trkpt lat="43.70905" lon="7.09118">
        <ele>393</ele>
        <time>2015-01-10T09:53:34.00Z</time>
      </trkpt>
      <trkpt lat="43.70918" lon="7.09116">
        <ele>393</ele>
        <time>2015-01-10T09:53:36.00Z</time>
      </trkpt>
      <trkpt lat="43.70932" lon="7.09111">
        <ele>393</ele>
        <time>2015-01-10T09:53:39.00Z</time>
      </trkpt>
      <trkpt lat="43.70946" lon="7.09106">
        <ele>392</ele>
        <time>2015-01-10T09:53:41.00Z</time>
      </trkpt>
      <trkpt lat="43.70956" lon="7.09101">
        <ele>392</ele>
        <time>2015-01-10T09:53:43.00Z</time>
      </trkpt>
      <trkpt lat="43.70963" lon="7.09086">
        <ele>391</ele>
        <time>2015-01-10T09:53:45.00Z</time>
      </trkpt>
      <trkpt lat="43.70971" lon="7.09072">
        <ele>390</ele>
        <time>2015-01-10T09:53:47.00Z</time>
      </trkpt>
      <trkpt lat="43.70979" lon="7.09057">
        <ele>389</ele>
        <time>2015-01-10T09:53:49.00Z</time>
      </trkpt>
      <trkpt lat="43.7099" lon="7.09049">
        <ele>390</ele>
        <time>2015-01-10T09:53:51.00Z</time>
      </trkpt>
      <trkpt lat="43.71001" lon="7.09047">
        <ele>393</ele>
        <time>2015-01-10T09:53:53.00Z</time>
      </trkpt>
      <trkpt lat="43.71014" lon="7.09043">
        <ele>393</ele>
        <time>2015-01-10T09:53:55.00Z</time>
      </trkpt>
      <trkpt lat="43.71026" lon="7.09029">
        <ele>392</ele>
        <time>2015-01-10T09:53:57.00Z</time>
      </trkpt>
      <trkpt lat="43.71034" lon="7.0902">
        <ele>392</ele>
        <time>2015-01-10T09:53:59.00Z</time>
      </trkpt>
      <trkpt lat="43.71042" lon="7.09003">
        <ele>390</ele>
        <time>2015-01-10T09:54:02.00Z</time>
      </trkpt>
      <trkpt lat="43.71048" lon="7.08988">
        <ele>389</ele>
        <time>2015-01-10T09:54:04.00Z</time>
      </trkpt>
      <trkpt lat="43.71055" lon="7.08973">
        <ele>386</ele>
        <time>2015-01-10T09:54:06.00Z</time>
      </trkpt>
      <trkpt lat="43.71062" lon="7.08957">
        <ele>386</ele>
        <time>2015-01-10T09:54:08.00Z</time>
      </trkpt>
      <trkpt lat="43.71066" lon="7.08943">
        <ele>385</ele>
        <time>2015-01-10T09:54:10.00Z</time>
      </trkpt>
      <trkpt lat="43.71069" lon="7.08927">
        <ele>382</ele>
        <time>2015-01-10T09:54:13.00Z</time>
      </trkpt>
      <trkpt lat="43.71078" lon="7.08924">
        <ele>382</ele>
        <time>2015-01-10T09:54:15.00Z</time>
      </trkpt>
      <trkpt lat="43.71079" lon="7.08909">
        <ele>383</ele>
        <time>2015-01-10T09:54:18.00Z</time>
      </trkpt>
      <trkpt lat="43.71091" lon="7.08912">
        <ele>383</ele>
        <time>2015-01-10T09:54:21.00Z</time>
      </trkpt>
      <trkpt lat="43.71101" lon="7.08915">
        <ele>383</ele>
        <time>2015-01-10T09:54:24.00Z</time>
      </trkpt>
      <trkpt lat="43.7111" lon="7.08911">
        <ele>384</ele>
        <time>2015-01-10T09:54:26.00Z</time>
      </trkpt>
      <trkpt lat="43.71119" lon="7.08914">
        <ele>384</ele>
        <time>2015-01-10T09:54:28.00Z</time>
      </trkpt>
      <trkpt lat="43.7113" lon="7.08915">
        <ele>383</ele>
        <time>2015-01-10T09:54:30.00Z</time>
      </trkpt>
      <trkpt lat="43.71138" lon="7.08908">
        <ele>383</ele>
        <time>2015-01-10T09:54:33.00Z</time>
      </trkpt>
      <trkpt lat="43.71148" lon="7.08916">
        <ele>386</ele>
        <time>2015-01-10T09:54:37.00Z</time>
      </trkpt>
      <trkpt lat="43.71158" lon="7.0892">
        <ele>387</ele>
        <time>2015-01-10T09:54:41.00Z</time>
      </trkpt>
      <trkpt lat="43.71169" lon="7.08921">
        <ele>386</ele>
        <time>2015-01-10T09:54:45.00Z</time>
      </trkpt>
      <trkpt lat="43.71181" lon="7.08916">
        <ele>385</ele>
        <time>2015-01-10T09:54:49.00Z</time>
      </trkpt>
      <trkpt lat="43.71191" lon="7.08909">
        <ele>384</ele>
        <time>2015-01-10T09:54:52.00Z</time>
      </trkpt>
      <trkpt lat="43.71203" lon="7.08902">
        <ele>383</ele>
        <time>2015-01-10T09:54:55.00Z</time>
      </trkpt>
      <trkpt lat="43.71218" lon="7.089">
        <ele>383</ele>
        <time>2015-01-10T09:54:58.00Z</time>
      </trkpt>
      <trkpt lat="43.71227" lon="7.08898">
        <ele>381</ele>
        <time>2015-01-10T09:55:00.00Z</time>
      </trkpt>
      <trkpt lat="43.71235" lon="7.0889">
        <ele>380</ele>
        <time>2015-01-10T09:55:02.00Z</time>
      </trkpt>
      <trkpt lat="43.71243" lon="7.08878">
        <ele>380</ele>
        <time>2015-01-10T09:55:04.00Z</time>
      </trkpt>
      <trkpt lat="43.7125" lon="7.08865">
        <ele>380</ele>
        <time>2015-01-10T09:55:06.00Z</time>
      </trkpt>
      <trkpt lat="43.71256" lon="7.08852">
        <ele>380</ele>
        <time>2015-01-10T09:55:08.00Z</time>
      </trkpt>
      <trkpt lat="43.71264" lon="7.08842">
        <ele>379</ele>
        <time>2015-01-10T09:55:10.00Z</time>
      </trkpt>
      <trkpt lat="43.71273" lon="7.08834">
        <ele>379</ele>
        <time>2015-01-10T09:55:12.00Z</time>
      </trkpt>
      <trkpt lat="43.71281" lon="7.08827">
        <ele>379</ele>
        <time>2015-01-10T09:55:14.00Z</time>
      </trkpt>
      <trkpt lat="43.71289" lon="7.0882">
        <ele>380</ele>
        <time>2015-01-10T09:55:16.00Z</time>
      </trkpt>
      <trkpt lat="43.71297" lon="7.08807">
        <ele>378</ele>
        <time>2015-01-10T09:55:19.00Z</time>
      </trkpt>
      <trkpt lat="43.71308" lon="7.08796">
        <ele>380</ele>
        <time>2015-01-10T09:55:22.00Z</time>
      </trkpt>
      <trkpt lat="43.71318" lon="7.08792">
        <ele>377</ele>
        <time>2015-01-10T09:55:24.00Z</time>
      </trkpt>
      <trkpt lat="43.71329" lon="7.08791">
        <ele>378</ele>
        <time>2015-01-10T09:55:26.00Z</time>
      </trkpt>
      <trkpt lat="43.71339" lon="7.08794">
        <ele>379</ele>
        <time>2015-01-10T09:55:28.00Z</time>
      </trkpt>
    </trkseg>
  </trk>
</gpx>